<?xml version="1.0" encoding="UTF-8" standalone="no" ?>
<gpx xmlns="http://www.topografix.com/GPX/1/1" xmlns:xsi="http://www.w3.org/2001/XMLSchema-instance" xsi:schemaLocation="http://www.topografix.com/GPX/1/1 http://www.topografix.com/GPX/1/1/gpx.xsd" version="1.1" creator="VisuGPX - https://www.visugpx.com">
  <metadata>
    <name>Froi80</name>
  </metadata>
  <trk>
    <name><![CDATA[Froi80]]></name>
    <trkseg>
      <trkpt lat="50.50105" lon="3.45078">
        <ele>17.165224</ele>
        <time>2020-07-05T17:19:17.096Z</time>
      </trkpt>
      <trkpt lat="50.501" lon="3.45115">
        <ele>17.165224</ele>
        <time>2020-07-05T17:19:22.857Z</time>
      </trkpt>
      <trkpt lat="50.50096" lon="3.45184">
        <ele>17.165224</ele>
        <time>2020-07-05T17:19:33.583Z</time>
      </trkpt>
      <trkpt lat="50.50092" lon="3.45227">
        <ele>17.166237</ele>
        <time>2020-07-05T17:19:40.307Z</time>
      </trkpt>
      <trkpt lat="50.50084" lon="3.45223">
        <ele>17.167686</ele>
        <time>2020-07-05T17:19:41.780Z</time>
      </trkpt>
      <trkpt lat="50.50052" lon="3.45203">
        <ele>17.1736</ele>
        <time>2020-07-05T17:19:47.578Z</time>
      </trkpt>
      <trkpt lat="50.50051" lon="3.45202">
        <ele>17.173884</ele>
        <time>2020-07-05T17:19:47.852Z</time>
      </trkpt>
      <trkpt lat="50.50044" lon="3.45199">
        <ele>17.175085</ele>
        <time>2020-07-05T17:19:49.036Z</time>
      </trkpt>
      <trkpt lat="50.50005" lon="3.45189">
        <ele>17.181857</ele>
        <time>2020-07-05T17:19:55.076Z</time>
      </trkpt>
      <trkpt lat="50.49999" lon="3.45188">
        <ele>17.182945</ele>
        <time>2020-07-05T17:19:55.945Z</time>
      </trkpt>
      <trkpt lat="50.49974" lon="3.45177">
        <ele>17.18723</ele>
        <time>2020-07-05T17:19:59.434Z</time>
      </trkpt>
      <trkpt lat="50.49958" lon="3.45159">
        <ele>17.190655</ele>
        <time>2020-07-05T17:20:02.052Z</time>
      </trkpt>
      <trkpt lat="50.49943" lon="3.45125">
        <ele>17.195112</ele>
        <time>2020-07-05T17:20:05.692Z</time>
      </trkpt>
      <trkpt lat="50.49935" lon="3.45106">
        <ele>17.115618</ele>
        <time>2020-07-05T17:20:07.670Z</time>
      </trkpt>
      <trkpt lat="50.49874" lon="3.44964">
        <ele>16.225226</ele>
        <time>2020-07-05T17:20:20.905Z</time>
      </trkpt>
      <trkpt lat="50.49867" lon="3.44946">
        <ele>16.114395</ele>
        <time>2020-07-05T17:20:22.507Z</time>
      </trkpt>
      <trkpt lat="50.49864" lon="3.44939">
        <ele>16.07085</ele>
        <time>2020-07-05T17:20:23.148Z</time>
      </trkpt>
      <trkpt lat="50.49853" lon="3.44914">
        <ele>15.912557</ele>
        <time>2020-07-05T17:20:25.569Z</time>
      </trkpt>
      <trkpt lat="50.49851" lon="3.44909">
        <ele>15.882572</ele>
        <time>2020-07-05T17:20:26.044Z</time>
      </trkpt>
      <trkpt lat="50.49844" lon="3.44889">
        <ele>15.759194</ele>
        <time>2020-07-05T17:20:27.936Z</time>
      </trkpt>
      <trkpt lat="50.49799" lon="3.44762">
        <ele>15.825891</ele>
        <time>2020-07-05T17:20:40.966Z</time>
      </trkpt>
      <trkpt lat="50.49798" lon="3.44759">
        <ele>15.828292</ele>
        <time>2020-07-05T17:20:41.210Z</time>
      </trkpt>
      <trkpt lat="50.49776" lon="3.4469">
        <ele>15.886234</ele>
        <time>2020-07-05T17:20:49.205Z</time>
      </trkpt>
      <trkpt lat="50.49754" lon="3.44626">
        <ele>16.017569</ele>
        <time>2020-07-05T17:20:56.944Z</time>
      </trkpt>
      <trkpt lat="50.49735" lon="3.44569">
        <ele>16.647993</ele>
        <time>2020-07-05T17:21:05.096Z</time>
      </trkpt>
      <trkpt lat="50.49687" lon="3.44433">
        <ele>18.171513</ele>
        <time>2020-07-05T17:21:26.899Z</time>
      </trkpt>
      <trkpt lat="50.49674" lon="3.44405">
        <ele>18.510533</ele>
        <time>2020-07-05T17:21:32.109Z</time>
      </trkpt>
      <trkpt lat="50.49672" lon="3.44401">
        <ele>18.559779</ele>
        <time>2020-07-05T17:21:33.024Z</time>
      </trkpt>
      <trkpt lat="50.49669" lon="3.44396">
        <ele>18.629186</ele>
        <time>2020-07-05T17:21:33.859Z</time>
      </trkpt>
      <trkpt lat="50.49663" lon="3.44393">
        <ele>18.716967</ele>
        <time>2020-07-05T17:21:34.994Z</time>
      </trkpt>
      <trkpt lat="50.49657" lon="3.44381">
        <ele>18.838072</ele>
        <time>2020-07-05T17:21:37.817Z</time>
      </trkpt>
      <trkpt lat="50.49606" lon="3.44327">
        <ele>19.580824</ele>
        <time>2020-07-05T17:21:50.162Z</time>
      </trkpt>
      <trkpt lat="50.49601" lon="3.44316">
        <ele>19.681535</ele>
        <time>2020-07-05T17:21:52.522Z</time>
      </trkpt>
      <trkpt lat="50.496" lon="3.44307">
        <ele>19.751756</ele>
        <time>2020-07-05T17:21:53.628Z</time>
      </trkpt>
      <trkpt lat="50.49602" lon="3.44292">
        <ele>19.870981</ele>
        <time>2020-07-05T17:21:55.283Z</time>
      </trkpt>
      <trkpt lat="50.49629" lon="3.44231">
        <ele>20.443097</ele>
        <time>2020-07-05T17:22:04.476Z</time>
      </trkpt>
      <trkpt lat="50.49645" lon="3.44201">
        <ele>20.743559</ele>
        <time>2020-07-05T17:22:09.236Z</time>
      </trkpt>
      <trkpt lat="50.49648" lon="3.44196">
        <ele>20.799673</ele>
        <time>2020-07-05T17:22:09.851Z</time>
      </trkpt>
      <trkpt lat="50.49685" lon="3.44131">
        <ele>20.731926</ele>
        <time>2020-07-05T17:22:18.241Z</time>
      </trkpt>
      <trkpt lat="50.49705" lon="3.44106">
        <ele>20.646927</ele>
        <time>2020-07-05T17:22:21.525Z</time>
      </trkpt>
      <trkpt lat="50.49744" lon="3.44059">
        <ele>20.484699</ele>
        <time>2020-07-05T17:22:27.769Z</time>
      </trkpt>
      <trkpt lat="50.49763" lon="3.44038">
        <ele>20.407538</ele>
        <time>2020-07-05T17:22:30.767Z</time>
      </trkpt>
      <trkpt lat="50.49781" lon="3.4402">
        <ele>20.33778</ele>
        <time>2020-07-05T17:22:33.595Z</time>
      </trkpt>
      <trkpt lat="50.4985" lon="3.43976">
        <ele>20.19776</ele>
        <time>2020-07-05T17:22:43.691Z</time>
      </trkpt>
      <trkpt lat="50.49875" lon="3.43953">
        <ele>20.151568</ele>
        <time>2020-07-05T17:22:47.972Z</time>
      </trkpt>
      <trkpt lat="50.49908" lon="3.43909">
        <ele>20.083105</ele>
        <time>2020-07-05T17:22:54.144Z</time>
      </trkpt>
      <trkpt lat="50.49932" lon="3.43869">
        <ele>20.025804</ele>
        <time>2020-07-05T17:22:59.491Z</time>
      </trkpt>
      <trkpt lat="50.49959" lon="3.43822">
        <ele>20.027905</ele>
        <time>2020-07-05T17:23:05.445Z</time>
      </trkpt>
      <trkpt lat="50.49968" lon="3.4381">
        <ele>20.035409</ele>
        <time>2020-07-05T17:23:07.405Z</time>
      </trkpt>
      <trkpt lat="50.50021" lon="3.43737">
        <ele>20.079504</ele>
        <time>2020-07-05T17:23:17.899Z</time>
      </trkpt>
      <trkpt lat="50.50051" lon="3.43694">
        <ele>20.105245</ele>
        <time>2020-07-05T17:23:24.254Z</time>
      </trkpt>
      <trkpt lat="50.50074" lon="3.43662">
        <ele>20.123576</ele>
        <time>2020-07-05T17:23:28.937Z</time>
      </trkpt>
      <trkpt lat="50.50098" lon="3.43629">
        <ele>20.135498</ele>
        <time>2020-07-05T17:23:33.462Z</time>
      </trkpt>
      <trkpt lat="50.50185" lon="3.43497">
        <ele>20.180945</ele>
        <time>2020-07-05T17:23:51.554Z</time>
      </trkpt>
      <trkpt lat="50.50312" lon="3.43314">
        <ele>20.008082</ele>
        <time>2020-07-05T17:24:17.396Z</time>
      </trkpt>
      <trkpt lat="50.50361" lon="3.4322">
        <ele>19.627831</ele>
        <time>2020-07-05T17:24:27.552Z</time>
      </trkpt>
      <trkpt lat="50.50362" lon="3.43201">
        <ele>19.537013</ele>
        <time>2020-07-05T17:24:29.043Z</time>
      </trkpt>
      <trkpt lat="50.50371" lon="3.43197">
        <ele>19.468639</ele>
        <time>2020-07-05T17:24:30.209Z</time>
      </trkpt>
      <trkpt lat="50.50382" lon="3.43186">
        <ele>19.369746</ele>
        <time>2020-07-05T17:24:31.938Z</time>
      </trkpt>
      <trkpt lat="50.50386" lon="3.43182">
        <ele>19.333661</ele>
        <time>2020-07-05T17:24:32.509Z</time>
      </trkpt>
      <trkpt lat="50.50394" lon="3.43172">
        <ele>19.254579</ele>
        <time>2020-07-05T17:24:33.804Z</time>
      </trkpt>
      <trkpt lat="50.50408" lon="3.43153">
        <ele>19.119082</ele>
        <time>2020-07-05T17:24:36.123Z</time>
      </trkpt>
      <trkpt lat="50.50469" lon="3.43071">
        <ele>18.600988</ele>
        <time>2020-07-05T17:24:45.938Z</time>
      </trkpt>
      <trkpt lat="50.50517" lon="3.43003">
        <ele>18.493474</ele>
        <time>2020-07-05T17:24:54.420Z</time>
      </trkpt>
      <trkpt lat="50.50524" lon="3.42992">
        <ele>18.476697</ele>
        <time>2020-07-05T17:24:55.648Z</time>
      </trkpt>
      <trkpt lat="50.50526" lon="3.42988">
        <ele>18.471021</ele>
        <time>2020-07-05T17:24:56.128Z</time>
      </trkpt>
      <trkpt lat="50.50529" lon="3.42984">
        <ele>18.464588</ele>
        <time>2020-07-05T17:24:56.670Z</time>
      </trkpt>
      <trkpt lat="50.50538" lon="3.42968">
        <ele>18.441652</ele>
        <time>2020-07-05T17:24:58.867Z</time>
      </trkpt>
      <trkpt lat="50.50633" lon="3.42818">
        <ele>18.699488</ele>
        <time>2020-07-05T17:25:21.176Z</time>
      </trkpt>
      <trkpt lat="50.50652" lon="3.4279">
        <ele>18.851895</ele>
        <time>2020-07-05T17:25:26.074Z</time>
      </trkpt>
      <trkpt lat="50.50684" lon="3.42741">
        <ele>19.113815</ele>
        <time>2020-07-05T17:25:34.160Z</time>
      </trkpt>
      <trkpt lat="50.50893" lon="3.42426">
        <ele>20.542025</ele>
        <time>2020-07-05T17:26:22.426Z</time>
      </trkpt>
      <trkpt lat="50.50931" lon="3.42378">
        <ele>20.792716</ele>
        <time>2020-07-05T17:26:30.781Z</time>
      </trkpt>
      <trkpt lat="50.50984" lon="3.42324">
        <ele>21.115706</ele>
        <time>2020-07-05T17:26:41.464Z</time>
      </trkpt>
      <trkpt lat="50.50987" lon="3.42321">
        <ele>21.135692</ele>
        <time>2020-07-05T17:26:42.160Z</time>
      </trkpt>
      <trkpt lat="50.51002" lon="3.42307">
        <ele>21.253097</ele>
        <time>2020-07-05T17:26:44.951Z</time>
      </trkpt>
      <trkpt lat="50.51021" lon="3.42292">
        <ele>21.405397</ele>
        <time>2020-07-05T17:26:48.661Z</time>
      </trkpt>
      <trkpt lat="50.51025" lon="3.42289">
        <ele>21.436472</ele>
        <time>2020-07-05T17:26:49.518Z</time>
      </trkpt>
      <trkpt lat="50.51038" lon="3.42282">
        <ele>21.533819</ele>
        <time>2020-07-05T17:26:51.757Z</time>
      </trkpt>
      <trkpt lat="50.5105" lon="3.42275">
        <ele>21.622783</ele>
        <time>2020-07-05T17:26:54.007Z</time>
      </trkpt>
      <trkpt lat="50.51046" lon="3.4226">
        <ele>21.693687</ele>
        <time>2020-07-05T17:26:56.397Z</time>
      </trkpt>
      <trkpt lat="50.5106" lon="3.42232">
        <ele>21.853949</ele>
        <time>2020-07-05T17:27:01.535Z</time>
      </trkpt>
      <trkpt lat="50.51068" lon="3.42217">
        <ele>21.942039</ele>
        <time>2020-07-05T17:27:04.457Z</time>
      </trkpt>
      <trkpt lat="50.51068" lon="3.42217">
        <ele>21.942039</ele>
        <time>2020-07-05T17:27:04.495Z</time>
      </trkpt>
      <trkpt lat="50.51129" lon="3.42133">
        <ele>22.547211</ele>
        <time>2020-07-05T17:27:23.411Z</time>
      </trkpt>
      <trkpt lat="50.51218" lon="3.42052">
        <ele>23.477468</ele>
        <time>2020-07-05T17:27:47.690Z</time>
      </trkpt>
      <trkpt lat="50.51309" lon="3.41999">
        <ele>24.354186</ele>
        <time>2020-07-05T17:28:11.300Z</time>
      </trkpt>
      <trkpt lat="50.51384" lon="3.41976">
        <ele>25.028709</ele>
        <time>2020-07-05T17:28:29.929Z</time>
      </trkpt>
      <trkpt lat="50.51422" lon="3.41972">
        <ele>25.371172</ele>
        <time>2020-07-05T17:28:38.978Z</time>
      </trkpt>
      <trkpt lat="50.51437" lon="3.4197">
        <ele>25.500436</ele>
        <time>2020-07-05T17:28:42.351Z</time>
      </trkpt>
      <trkpt lat="50.51465" lon="3.41959">
        <ele>25.624762</ele>
        <time>2020-07-05T17:28:48.839Z</time>
      </trkpt>
      <trkpt lat="50.51481" lon="3.4195">
        <ele>25.616313</ele>
        <time>2020-07-05T17:28:52.725Z</time>
      </trkpt>
      <trkpt lat="50.51487" lon="3.41945">
        <ele>25.613384</ele>
        <time>2020-07-05T17:28:54.104Z</time>
      </trkpt>
      <trkpt lat="50.5151" lon="3.41926">
        <ele>25.600762</ele>
        <time>2020-07-05T17:28:59.749Z</time>
      </trkpt>
      <trkpt lat="50.51713" lon="3.41925">
        <ele>24.908882</ele>
        <time>2020-07-05T17:29:38.243Z</time>
      </trkpt>
      <trkpt lat="50.51727" lon="3.41926">
        <ele>24.810236</ele>
        <time>2020-07-05T17:29:40.608Z</time>
      </trkpt>
      <trkpt lat="50.51736" lon="3.41927">
        <ele>24.742768</ele>
        <time>2020-07-05T17:29:42.148Z</time>
      </trkpt>
      <trkpt lat="50.51872" lon="3.41918">
        <ele>23.87229</ele>
        <time>2020-07-05T17:30:05.697Z</time>
      </trkpt>
      <trkpt lat="50.5188" lon="3.41917">
        <ele>23.825753</ele>
        <time>2020-07-05T17:30:07.077Z</time>
      </trkpt>
      <trkpt lat="50.51886" lon="3.41916">
        <ele>23.792211</ele>
        <time>2020-07-05T17:30:08.200Z</time>
      </trkpt>
      <trkpt lat="50.51906" lon="3.41912">
        <ele>23.682761</ele>
        <time>2020-07-05T17:30:11.796Z</time>
      </trkpt>
      <trkpt lat="50.52017" lon="3.41913">
        <ele>23.500768</ele>
        <time>2020-07-05T17:30:33.567Z</time>
      </trkpt>
      <trkpt lat="50.52048" lon="3.41921">
        <ele>23.754158</ele>
        <time>2020-07-05T17:30:40.530Z</time>
      </trkpt>
      <trkpt lat="50.52079" lon="3.41929">
        <ele>24.003943</ele>
        <time>2020-07-05T17:30:48.129Z</time>
      </trkpt>
      <trkpt lat="50.52093" lon="3.41932">
        <ele>24.116194</ele>
        <time>2020-07-05T17:30:51.407Z</time>
      </trkpt>
      <trkpt lat="50.52105" lon="3.41935">
        <ele>24.213241</ele>
        <time>2020-07-05T17:30:54.813Z</time>
      </trkpt>
      <trkpt lat="50.52169" lon="3.4195">
        <ele>24.758068</ele>
        <time>2020-07-05T17:31:10.963Z</time>
      </trkpt>
      <trkpt lat="50.52246" lon="3.41966">
        <ele>25.720117</ele>
        <time>2020-07-05T17:31:31.330Z</time>
      </trkpt>
      <trkpt lat="50.52273" lon="3.41971">
        <ele>26.055581</ele>
        <time>2020-07-05T17:31:38.069Z</time>
      </trkpt>
      <trkpt lat="50.52365" lon="3.41989">
        <ele>27.08487</ele>
        <time>2020-07-05T17:32:00.984Z</time>
      </trkpt>
      <trkpt lat="50.52437" lon="3.42011">
        <ele>27.615598</ele>
        <time>2020-07-05T17:32:18.011Z</time>
      </trkpt>
      <trkpt lat="50.52521" lon="3.42029">
        <ele>28.218596</ele>
        <time>2020-07-05T17:32:37.254Z</time>
      </trkpt>
      <trkpt lat="50.52597" lon="3.42045">
        <ele>28.312837</ele>
        <time>2020-07-05T17:32:53.826Z</time>
      </trkpt>
      <trkpt lat="50.52752" lon="3.4208">
        <ele>28.41678</ele>
        <time>2020-07-05T17:33:24.989Z</time>
      </trkpt>
      <trkpt lat="50.52836" lon="3.42099">
        <ele>28.385114</ele>
        <time>2020-07-05T17:33:41.886Z</time>
      </trkpt>
      <trkpt lat="50.5289" lon="3.42111">
        <ele>28.346608</ele>
        <time>2020-07-05T17:33:53.090Z</time>
      </trkpt>
      <trkpt lat="50.53254" lon="3.42189">
        <ele>27.293464</ele>
        <time>2020-07-05T17:35:04.835Z</time>
      </trkpt>
      <trkpt lat="50.53265" lon="3.42192">
        <ele>27.151186</ele>
        <time>2020-07-05T17:35:06.654Z</time>
      </trkpt>
      <trkpt lat="50.53268" lon="3.42193">
        <ele>27.110867</ele>
        <time>2020-07-05T17:35:07.021Z</time>
      </trkpt>
      <trkpt lat="50.53342" lon="3.42208">
        <ele>26.111607</ele>
        <time>2020-07-05T17:35:15.717Z</time>
      </trkpt>
      <trkpt lat="50.53478" lon="3.42237">
        <ele>24.140938</ele>
        <time>2020-07-05T17:35:30.980Z</time>
      </trkpt>
      <trkpt lat="50.53576" lon="3.42263">
        <ele>22.610439</ele>
        <time>2020-07-05T17:35:42.401Z</time>
      </trkpt>
      <trkpt lat="50.53725" lon="3.42291">
        <ele>21.270121</ele>
        <time>2020-07-05T17:36:01.261Z</time>
      </trkpt>
      <trkpt lat="50.53826" lon="3.42315">
        <ele>20.558372</ele>
        <time>2020-07-05T17:36:14.380Z</time>
      </trkpt>
      <trkpt lat="50.53907" lon="3.42331">
        <ele>20.054128</ele>
        <time>2020-07-05T17:36:25.303Z</time>
      </trkpt>
      <trkpt lat="50.53965" lon="3.42346">
        <ele>19.705684</ele>
        <time>2020-07-05T17:36:32.813Z</time>
      </trkpt>
      <trkpt lat="50.53968" lon="3.42348">
        <ele>19.684654</ele>
        <time>2020-07-05T17:36:33.236Z</time>
      </trkpt>
      <trkpt lat="50.5398" lon="3.423">
        <ele>19.496464</ele>
        <time>2020-07-05T17:36:39.194Z</time>
      </trkpt>
      <trkpt lat="50.53985" lon="3.4228">
        <ele>19.42019</ele>
        <time>2020-07-05T17:36:41.665Z</time>
      </trkpt>
      <trkpt lat="50.53997" lon="3.42265">
        <ele>19.332636</ele>
        <time>2020-07-05T17:36:44.366Z</time>
      </trkpt>
      <trkpt lat="50.54024" lon="3.4224">
        <ele>19.154772</ele>
        <time>2020-07-05T17:36:50.078Z</time>
      </trkpt>
      <trkpt lat="50.54054" lon="3.42229">
        <ele>18.981475</ele>
        <time>2020-07-05T17:36:55.737Z</time>
      </trkpt>
      <trkpt lat="50.54068" lon="3.42229">
        <ele>18.897709</ele>
        <time>2020-07-05T17:36:58.400Z</time>
      </trkpt>
      <trkpt lat="50.54074" lon="3.4223">
        <ele>18.863995</ele>
        <time>2020-07-05T17:36:59.433Z</time>
      </trkpt>
      <trkpt lat="50.54079" lon="3.4223">
        <ele>18.838857</ele>
        <time>2020-07-05T17:37:00.355Z</time>
      </trkpt>
      <trkpt lat="50.54128" lon="3.42236">
        <ele>18.799216</ele>
        <time>2020-07-05T17:37:10.079Z</time>
      </trkpt>
      <trkpt lat="50.54162" lon="3.42227">
        <ele>18.799778</ele>
        <time>2020-07-05T17:37:16.819Z</time>
      </trkpt>
      <trkpt lat="50.54211" lon="3.42191">
        <ele>18.800657</ele>
        <time>2020-07-05T17:37:27.616Z</time>
      </trkpt>
      <trkpt lat="50.5421" lon="3.42175">
        <ele>18.800825</ele>
        <time>2020-07-05T17:37:29.208Z</time>
      </trkpt>
      <trkpt lat="50.54221" lon="3.42162">
        <ele>18.801048</ele>
        <time>2020-07-05T17:37:32.175Z</time>
      </trkpt>
      <trkpt lat="50.54311" lon="3.41984">
        <ele>19.423894</ele>
        <time>2020-07-05T17:38:04.763Z</time>
      </trkpt>
      <trkpt lat="50.5432" lon="3.41974">
        <ele>19.48488</ele>
        <time>2020-07-05T17:38:07.406Z</time>
      </trkpt>
      <trkpt lat="50.54334" lon="3.4196">
        <ele>19.567388</ele>
        <time>2020-07-05T17:38:10.955Z</time>
      </trkpt>
      <trkpt lat="50.54358" lon="3.41944">
        <ele>19.703066</ele>
        <time>2020-07-05T17:38:16.765Z</time>
      </trkpt>
      <trkpt lat="50.54417" lon="3.41925">
        <ele>20.029324</ele>
        <time>2020-07-05T17:38:30.205Z</time>
      </trkpt>
      <trkpt lat="50.54439" lon="3.41907">
        <ele>20.162021</ele>
        <time>2020-07-05T17:38:35.676Z</time>
      </trkpt>
      <trkpt lat="50.54448" lon="3.41892">
        <ele>20.235129</ele>
        <time>2020-07-05T17:38:38.724Z</time>
      </trkpt>
      <trkpt lat="50.54517" lon="3.41725">
        <ele>21.08043</ele>
        <time>2020-07-05T17:39:07.146Z</time>
      </trkpt>
      <trkpt lat="50.5453" lon="3.41694">
        <ele>21.3033</ele>
        <time>2020-07-05T17:39:12.568Z</time>
      </trkpt>
      <trkpt lat="50.5456" lon="3.4153">
        <ele>22.332863</ele>
        <time>2020-07-05T17:39:38.788Z</time>
      </trkpt>
      <trkpt lat="50.54707" lon="3.41187">
        <ele>25.886357</ele>
        <time>2020-07-05T17:40:47.790Z</time>
      </trkpt>
      <trkpt lat="50.54722" lon="3.41157">
        <ele>26.176881</ele>
        <time>2020-07-05T17:40:54.115Z</time>
      </trkpt>
      <trkpt lat="50.5476" lon="3.41105">
        <ele>26.774879</ele>
        <time>2020-07-05T17:41:06.385Z</time>
      </trkpt>
      <trkpt lat="50.54776" lon="3.41089">
        <ele>27.002752</ele>
        <time>2020-07-05T17:41:11.069Z</time>
      </trkpt>
      <trkpt lat="50.54794" lon="3.41076">
        <ele>27.171011</ele>
        <time>2020-07-05T17:41:15.645Z</time>
      </trkpt>
      <trkpt lat="50.54828" lon="3.4106">
        <ele>27.269841</ele>
        <time>2020-07-05T17:41:23.775Z</time>
      </trkpt>
      <trkpt lat="50.54933" lon="3.41026">
        <ele>27.569471</ele>
        <time>2020-07-05T17:41:46.693Z</time>
      </trkpt>
      <trkpt lat="50.54954" lon="3.41019">
        <ele>27.62932</ele>
        <time>2020-07-05T17:41:50.901Z</time>
      </trkpt>
      <trkpt lat="50.55128" lon="3.40966">
        <ele>26.932998</ele>
        <time>2020-07-05T17:42:24.012Z</time>
      </trkpt>
      <trkpt lat="50.55256" lon="3.40915">
        <ele>26.268789</ele>
        <time>2020-07-05T17:42:48.002Z</time>
      </trkpt>
      <trkpt lat="50.55329" lon="3.40904">
        <ele>26.022593</ele>
        <time>2020-07-05T17:43:01.606Z</time>
      </trkpt>
      <trkpt lat="50.55443" lon="3.40868">
        <ele>26.416094</ele>
        <time>2020-07-05T17:43:26.349Z</time>
      </trkpt>
      <trkpt lat="50.55459" lon="3.40859">
        <ele>26.472571</ele>
        <time>2020-07-05T17:43:30.259Z</time>
      </trkpt>
      <trkpt lat="50.5544" lon="3.40777">
        <ele>26.951628</ele>
        <time>2020-07-05T17:43:43.316Z</time>
      </trkpt>
      <trkpt lat="50.55423" lon="3.40684">
        <ele>27.912068</ele>
        <time>2020-07-05T17:43:59.287Z</time>
      </trkpt>
      <trkpt lat="50.55426" lon="3.40567">
        <ele>29.071691</ele>
        <time>2020-07-05T17:44:19.907Z</time>
      </trkpt>
      <trkpt lat="50.55428" lon="3.40534">
        <ele>29.410315</ele>
        <time>2020-07-05T17:44:26.090Z</time>
      </trkpt>
      <trkpt lat="50.55438" lon="3.40459">
        <ele>30.326456</ele>
        <time>2020-07-05T17:44:40.073Z</time>
      </trkpt>
      <trkpt lat="50.55455" lon="3.40384">
        <ele>31.279833</ele>
        <time>2020-07-05T17:44:55.067Z</time>
      </trkpt>
      <trkpt lat="50.55477" lon="3.40283">
        <ele>32.558071</ele>
        <time>2020-07-05T17:45:13.932Z</time>
      </trkpt>
      <trkpt lat="50.55504" lon="3.40212">
        <ele>32.820328</ele>
        <time>2020-07-05T17:45:26.149Z</time>
      </trkpt>
      <trkpt lat="50.55519" lon="3.40171">
        <ele>32.844785</ele>
        <time>2020-07-05T17:45:33.051Z</time>
      </trkpt>
      <trkpt lat="50.55524" lon="3.40143">
        <ele>32.85986</ele>
        <time>2020-07-05T17:45:37.248Z</time>
      </trkpt>
      <trkpt lat="50.55516" lon="3.40116">
        <ele>32.874872</ele>
        <time>2020-07-05T17:45:40.567Z</time>
      </trkpt>
      <trkpt lat="50.55516" lon="3.40116">
        <ele>32.874872</ele>
        <time>2020-07-05T17:45:40.578Z</time>
      </trkpt>
      <trkpt lat="50.55412" lon="3.40037">
        <ele>32.84599</ele>
        <time>2020-07-05T17:46:01.882Z</time>
      </trkpt>
      <trkpt lat="50.55397" lon="3.40037">
        <ele>32.815455</ele>
        <time>2020-07-05T17:46:04.885Z</time>
      </trkpt>
      <trkpt lat="50.55374" lon="3.40058">
        <ele>32.762988</ele>
        <time>2020-07-05T17:46:09.309Z</time>
      </trkpt>
      <trkpt lat="50.55351" lon="3.40034">
        <ele>32.707857</ele>
        <time>2020-07-05T17:46:13.404Z</time>
      </trkpt>
      <trkpt lat="50.55179" lon="3.39874">
        <ele>33.134087</ele>
        <time>2020-07-05T17:46:46.249Z</time>
      </trkpt>
      <trkpt lat="50.55146" lon="3.39843">
        <ele>33.295956</ele>
        <time>2020-07-05T17:46:52.502Z</time>
      </trkpt>
      <trkpt lat="50.55012" lon="3.39719">
        <ele>34.031005</ele>
        <time>2020-07-05T17:47:18.328Z</time>
      </trkpt>
      <trkpt lat="50.55017" lon="3.39699">
        <ele>34.095544</ele>
        <time>2020-07-05T17:47:20.649Z</time>
      </trkpt>
      <trkpt lat="50.55023" lon="3.39677">
        <ele>34.167768</ele>
        <time>2020-07-05T17:47:23.149Z</time>
      </trkpt>
      <trkpt lat="50.55031" lon="3.3965">
        <ele>34.275338</ele>
        <time>2020-07-05T17:47:26.442Z</time>
      </trkpt>
      <trkpt lat="50.55043" lon="3.39618">
        <ele>34.418236</ele>
        <time>2020-07-05T17:47:30.552Z</time>
      </trkpt>
      <trkpt lat="50.55059" lon="3.39587">
        <ele>34.569424</ele>
        <time>2020-07-05T17:47:35.086Z</time>
      </trkpt>
      <trkpt lat="50.55243" lon="3.39295">
        <ele>35.7067</ele>
        <time>2020-07-05T17:48:20.127Z</time>
      </trkpt>
      <trkpt lat="50.55256" lon="3.39262">
        <ele>35.782822</ele>
        <time>2020-07-05T17:48:23.221Z</time>
      </trkpt>
      <trkpt lat="50.55307" lon="3.3909">
        <ele>35.432063</ele>
        <time>2020-07-05T17:48:39.443Z</time>
      </trkpt>
      <trkpt lat="50.55311" lon="3.39075">
        <ele>35.396324</ele>
        <time>2020-07-05T17:48:40.605Z</time>
      </trkpt>
      <trkpt lat="50.55318" lon="3.39056">
        <ele>35.349483</ele>
        <time>2020-07-05T17:48:42.674Z</time>
      </trkpt>
      <trkpt lat="50.55319" lon="3.39053">
        <ele>35.341734</ele>
        <time>2020-07-05T17:48:43.024Z</time>
      </trkpt>
      <trkpt lat="50.5532" lon="3.39047">
        <ele>35.326226</ele>
        <time>2020-07-05T17:48:43.706Z</time>
      </trkpt>
      <trkpt lat="50.5532" lon="3.39043">
        <ele>35.318459</ele>
        <time>2020-07-05T17:48:44.057Z</time>
      </trkpt>
      <trkpt lat="50.55326" lon="3.3903">
        <ele>35.284159</ele>
        <time>2020-07-05T17:48:45.273Z</time>
      </trkpt>
      <trkpt lat="50.55337" lon="3.3901">
        <ele>35.225805</ele>
        <time>2020-07-05T17:48:47.706Z</time>
      </trkpt>
      <trkpt lat="50.55339" lon="3.39007">
        <ele>35.215196</ele>
        <time>2020-07-05T17:48:48.210Z</time>
      </trkpt>
      <trkpt lat="50.55343" lon="3.38997">
        <ele>35.199114</ele>
        <time>2020-07-05T17:48:49.425Z</time>
      </trkpt>
      <trkpt lat="50.55355" lon="3.38973">
        <ele>35.27923</ele>
        <time>2020-07-05T17:48:51.950Z</time>
      </trkpt>
      <trkpt lat="50.55367" lon="3.38948">
        <ele>35.361874</ele>
        <time>2020-07-05T17:48:55.238Z</time>
      </trkpt>
      <trkpt lat="50.55461" lon="3.38747">
        <ele>36.101954</ele>
        <time>2020-07-05T17:49:22.539Z</time>
      </trkpt>
      <trkpt lat="50.55594" lon="3.3841">
        <ele>38.740263</ele>
        <time>2020-07-05T17:50:09.131Z</time>
      </trkpt>
      <trkpt lat="50.55624" lon="3.38347">
        <ele>39.439541</ele>
        <time>2020-07-05T17:50:19.979Z</time>
      </trkpt>
      <trkpt lat="50.55646" lon="3.38302">
        <ele>39.948734</ele>
        <time>2020-07-05T17:50:28.231Z</time>
      </trkpt>
      <trkpt lat="50.5568" lon="3.38242">
        <ele>41.028955</ele>
        <time>2020-07-05T17:50:39.784Z</time>
      </trkpt>
      <trkpt lat="50.55719" lon="3.3817">
        <ele>42.333576</ele>
        <time>2020-07-05T17:50:54.324Z</time>
      </trkpt>
      <trkpt lat="50.55736" lon="3.38138">
        <ele>42.899291</ele>
        <time>2020-07-05T17:51:00.690Z</time>
      </trkpt>
      <trkpt lat="50.55777" lon="3.38064">
        <ele>44.308379</ele>
        <time>2020-07-05T17:51:15.343Z</time>
      </trkpt>
      <trkpt lat="50.55812" lon="3.37998">
        <ele>45.698196</ele>
        <time>2020-07-05T17:51:28.434Z</time>
      </trkpt>
      <trkpt lat="50.55866" lon="3.37871">
        <ele>48.149622</ele>
        <time>2020-07-05T17:51:52.866Z</time>
      </trkpt>
      <trkpt lat="50.55896" lon="3.37821">
        <ele>49.497707</ele>
        <time>2020-07-05T17:52:04.690Z</time>
      </trkpt>
      <trkpt lat="50.56126" lon="3.37544">
        <ele>58.919735</ele>
        <time>2020-07-05T17:53:27.049Z</time>
      </trkpt>
      <trkpt lat="50.56192" lon="3.37455">
        <ele>61.082073</ele>
        <time>2020-07-05T17:53:50.234Z</time>
      </trkpt>
      <trkpt lat="50.56221" lon="3.37403">
        <ele>61.927519</ele>
        <time>2020-07-05T17:54:00.103Z</time>
      </trkpt>
      <trkpt lat="50.56239" lon="3.37368">
        <ele>62.469563</ele>
        <time>2020-07-05T17:54:06.373Z</time>
      </trkpt>
      <trkpt lat="50.56222" lon="3.37356">
        <ele>62.830221</ele>
        <time>2020-07-05T17:54:10.914Z</time>
      </trkpt>
      <trkpt lat="50.56213" lon="3.37334">
        <ele>63.153877</ele>
        <time>2020-07-05T17:54:15.436Z</time>
      </trkpt>
      <trkpt lat="50.56206" lon="3.3727">
        <ele>63.614867</ele>
        <time>2020-07-05T17:54:25.222Z</time>
      </trkpt>
      <trkpt lat="50.56187" lon="3.37229">
        <ele>63.683881</ele>
        <time>2020-07-05T17:54:32.552Z</time>
      </trkpt>
      <trkpt lat="50.55917" lon="3.36852">
        <ele>63.651347</ele>
        <time>2020-07-05T17:55:44.198Z</time>
      </trkpt>
      <trkpt lat="50.55908" lon="3.36848">
        <ele>63.637708</ele>
        <time>2020-07-05T17:55:45.849Z</time>
      </trkpt>
      <trkpt lat="50.559" lon="3.36847">
        <ele>63.625013</ele>
        <time>2020-07-05T17:55:47.417Z</time>
      </trkpt>
      <trkpt lat="50.55894" lon="3.36844">
        <ele>63.615334</ele>
        <time>2020-07-05T17:55:48.383Z</time>
      </trkpt>
      <trkpt lat="50.55873" lon="3.36834">
        <ele>63.581783</ele>
        <time>2020-07-05T17:55:52.454Z</time>
      </trkpt>
      <trkpt lat="50.55779" lon="3.36696">
        <ele>63.788586</ele>
        <time>2020-07-05T17:56:18.561Z</time>
      </trkpt>
      <trkpt lat="50.55773" lon="3.36684">
        <ele>63.857739</ele>
        <time>2020-07-05T17:56:20.345Z</time>
      </trkpt>
      <trkpt lat="50.55772" lon="3.36671">
        <ele>63.913856</ele>
        <time>2020-07-05T17:56:23.636Z</time>
      </trkpt>
      <trkpt lat="50.55774" lon="3.36646">
        <ele>64.030668</ele>
        <time>2020-07-05T17:56:27.102Z</time>
      </trkpt>
      <trkpt lat="50.55824" lon="3.36479">
        <ele>64.735219</ele>
        <time>2020-07-05T17:56:55.168Z</time>
      </trkpt>
      <trkpt lat="50.55827" lon="3.36467">
        <ele>64.738823</ele>
        <time>2020-07-05T17:56:58.427Z</time>
      </trkpt>
      <trkpt lat="50.55849" lon="3.36387">
        <ele>64.763018</ele>
        <time>2020-07-05T17:57:10.646Z</time>
      </trkpt>
      <trkpt lat="50.55887" lon="3.36238">
        <ele>64.72552</ele>
        <time>2020-07-05T17:57:29.885Z</time>
      </trkpt>
      <trkpt lat="50.55895" lon="3.3618">
        <ele>64.028935</ele>
        <time>2020-07-05T17:57:36.050Z</time>
      </trkpt>
      <trkpt lat="50.55879" lon="3.35799">
        <ele>59.135982</ele>
        <time>2020-07-05T17:58:14.061Z</time>
      </trkpt>
      <trkpt lat="50.55876" lon="3.35493">
        <ele>54.622586</ele>
        <time>2020-07-05T17:58:43.667Z</time>
      </trkpt>
      <trkpt lat="50.5588" lon="3.35367">
        <ele>52.842556</ele>
        <time>2020-07-05T17:58:56.096Z</time>
      </trkpt>
      <trkpt lat="50.55888" lon="3.35288">
        <ele>51.955254</ele>
        <time>2020-07-05T17:59:04.199Z</time>
      </trkpt>
      <trkpt lat="50.55896" lon="3.35226">
        <ele>51.24457</ele>
        <time>2020-07-05T17:59:10.712Z</time>
      </trkpt>
      <trkpt lat="50.55905" lon="3.35166">
        <ele>50.564866</ele>
        <time>2020-07-05T17:59:17.017Z</time>
      </trkpt>
      <trkpt lat="50.55917" lon="3.35057">
        <ele>49.825959</ele>
        <time>2020-07-05T17:59:29.124Z</time>
      </trkpt>
      <trkpt lat="50.55917" lon="3.35057">
        <ele>49.825959</ele>
        <time>2020-07-05T17:59:29.128Z</time>
      </trkpt>
      <trkpt lat="50.55921" lon="3.35037">
        <ele>49.756193</ele>
        <time>2020-07-05T17:59:31.396Z</time>
      </trkpt>
      <trkpt lat="50.55928" lon="3.35051">
        <ele>49.697054</ele>
        <time>2020-07-05T17:59:33.487Z</time>
      </trkpt>
      <trkpt lat="50.55946" lon="3.35074">
        <ele>49.575169</ele>
        <time>2020-07-05T17:59:37.629Z</time>
      </trkpt>
      <trkpt lat="50.55973" lon="3.35093">
        <ele>49.420358</ele>
        <time>2020-07-05T17:59:43.231Z</time>
      </trkpt>
      <trkpt lat="50.56081" lon="3.35113">
        <ele>49.282246</ele>
        <time>2020-07-05T18:00:05.625Z</time>
      </trkpt>
      <trkpt lat="50.56126" lon="3.35149">
        <ele>49.490919</ele>
        <time>2020-07-05T18:00:17.139Z</time>
      </trkpt>
      <trkpt lat="50.56227" lon="3.35269">
        <ele>49.805993</ele>
        <time>2020-07-05T18:00:45.439Z</time>
      </trkpt>
      <trkpt lat="50.56275" lon="3.35383">
        <ele>49.751385</ele>
        <time>2020-07-05T18:01:03.359Z</time>
      </trkpt>
      <trkpt lat="50.56305" lon="3.3544">
        <ele>49.721783</ele>
        <time>2020-07-05T18:01:11.887Z</time>
      </trkpt>
      <trkpt lat="50.56309" lon="3.35446">
        <ele>49.688737</ele>
        <time>2020-07-05T18:01:12.732Z</time>
      </trkpt>
      <trkpt lat="50.56333" lon="3.35472">
        <ele>49.321095</ele>
        <time>2020-07-05T18:01:17.964Z</time>
      </trkpt>
      <trkpt lat="50.56376" lon="3.35506">
        <ele>48.727882</ele>
        <time>2020-07-05T18:01:26.179Z</time>
      </trkpt>
      <trkpt lat="50.56387" lon="3.35515">
        <ele>48.571262</ele>
        <time>2020-07-05T18:01:28.352Z</time>
      </trkpt>
      <trkpt lat="50.5639" lon="3.35495">
        <ele>48.405169</ele>
        <time>2020-07-05T18:01:30.500Z</time>
      </trkpt>
      <trkpt lat="50.56382" lon="3.35329">
        <ele>47.092838</ele>
        <time>2020-07-05T18:01:47.781Z</time>
      </trkpt>
      <trkpt lat="50.56355" lon="3.35209">
        <ele>46.079804</ele>
        <time>2020-07-05T18:02:01.224Z</time>
      </trkpt>
      <trkpt lat="50.56352" lon="3.35167">
        <ele>45.741592</ele>
        <time>2020-07-05T18:02:05.893Z</time>
      </trkpt>
      <trkpt lat="50.56415" lon="3.34974">
        <ele>44.762902</ele>
        <time>2020-07-05T18:02:30.780Z</time>
      </trkpt>
      <trkpt lat="50.5642" lon="3.34961">
        <ele>44.715934</ele>
        <time>2020-07-05T18:02:32.682Z</time>
      </trkpt>
      <trkpt lat="50.56422" lon="3.34949">
        <ele>44.678836</ele>
        <time>2020-07-05T18:02:34.106Z</time>
      </trkpt>
      <trkpt lat="50.56459" lon="3.34786">
        <ele>44.436638</ele>
        <time>2020-07-05T18:02:55.789Z</time>
      </trkpt>
      <trkpt lat="50.56463" lon="3.34772">
        <ele>44.452179</ele>
        <time>2020-07-05T18:02:57.714Z</time>
      </trkpt>
      <trkpt lat="50.56466" lon="3.3476">
        <ele>44.465405</ele>
        <time>2020-07-05T18:02:59.380Z</time>
      </trkpt>
      <trkpt lat="50.56544" lon="3.3456">
        <ele>44.876851</ele>
        <time>2020-07-05T18:03:31.260Z</time>
      </trkpt>
      <trkpt lat="50.56631" lon="3.34416">
        <ele>45.744419</ele>
        <time>2020-07-05T18:04:00.462Z</time>
      </trkpt>
      <trkpt lat="50.56655" lon="3.34341">
        <ele>46.274935</ele>
        <time>2020-07-05T18:04:13.673Z</time>
      </trkpt>
      <trkpt lat="50.56676" lon="3.34233">
        <ele>47.120037</ele>
        <time>2020-07-05T18:04:31.642Z</time>
      </trkpt>
      <trkpt lat="50.56699" lon="3.34188">
        <ele>47.554832</ele>
        <time>2020-07-05T18:04:40.895Z</time>
      </trkpt>
      <trkpt lat="50.56711" lon="3.34175">
        <ele>47.72282</ele>
        <time>2020-07-05T18:04:44.635Z</time>
      </trkpt>
      <trkpt lat="50.56703" lon="3.34159">
        <ele>47.877861</ele>
        <time>2020-07-05T18:04:47.901Z</time>
      </trkpt>
      <trkpt lat="50.5665" lon="3.34047">
        <ele>49.037802</ele>
        <time>2020-07-05T18:05:10.247Z</time>
      </trkpt>
      <trkpt lat="50.56541" lon="3.3387">
        <ele>51.397445</ele>
        <time>2020-07-05T18:05:50.660Z</time>
      </trkpt>
      <trkpt lat="50.5638" lon="3.33666">
        <ele>55.260549</ele>
        <time>2020-07-05T18:06:49.797Z</time>
      </trkpt>
      <trkpt lat="50.5638" lon="3.33666">
        <ele>55.260549</ele>
        <time>2020-07-05T18:06:49.844Z</time>
      </trkpt>
      <trkpt lat="50.56362" lon="3.33628">
        <ele>55.835061</ele>
        <time>2020-07-05T18:06:58.041Z</time>
      </trkpt>
      <trkpt lat="50.56342" lon="3.33546">
        <ele>56.896882</ele>
        <time>2020-07-05T18:07:14.090Z</time>
      </trkpt>
      <trkpt lat="50.5634" lon="3.33518">
        <ele>57.138305</ele>
        <time>2020-07-05T18:07:18.352Z</time>
      </trkpt>
      <trkpt lat="50.56341" lon="3.33509">
        <ele>57.136562</ele>
        <time>2020-07-05T18:07:20.755Z</time>
      </trkpt>
      <trkpt lat="50.56344" lon="3.33501">
        <ele>57.13461</ele>
        <time>2020-07-05T18:07:22.037Z</time>
      </trkpt>
      <trkpt lat="50.5637" lon="3.33472">
        <ele>57.124756</ele>
        <time>2020-07-05T18:07:29.524Z</time>
      </trkpt>
      <trkpt lat="50.56376" lon="3.33442">
        <ele>57.118448</ele>
        <time>2020-07-05T18:07:33.230Z</time>
      </trkpt>
      <trkpt lat="50.56373" lon="3.33427">
        <ele>57.115408</ele>
        <time>2020-07-05T18:07:35.384Z</time>
      </trkpt>
      <trkpt lat="50.56328" lon="3.33362">
        <ele>57.096085</ele>
        <time>2020-07-05T18:07:47.244Z</time>
      </trkpt>
      <trkpt lat="50.56312" lon="3.33339">
        <ele>57.089459</ele>
        <time>2020-07-05T18:07:51.481Z</time>
      </trkpt>
      <trkpt lat="50.56314" lon="3.33337">
        <ele>57.088645</ele>
        <time>2020-07-05T18:07:51.819Z</time>
      </trkpt>
      <trkpt lat="50.56354" lon="3.33297">
        <ele>56.516942</ele>
        <time>2020-07-05T18:07:59.578Z</time>
      </trkpt>
      <trkpt lat="50.56496" lon="3.33212">
        <ele>53.733934</ele>
        <time>2020-07-05T18:08:23.458Z</time>
      </trkpt>
      <trkpt lat="50.56552" lon="3.33201">
        <ele>52.729552</ele>
        <time>2020-07-05T18:08:32.439Z</time>
      </trkpt>
      <trkpt lat="50.56719" lon="3.33203">
        <ele>49.986615</ele>
        <time>2020-07-05T18:08:59.428Z</time>
      </trkpt>
      <trkpt lat="50.56781" lon="3.33189">
        <ele>49.166002</ele>
        <time>2020-07-05T18:09:09.868Z</time>
      </trkpt>
      <trkpt lat="50.56804" lon="3.33182">
        <ele>48.856125</ele>
        <time>2020-07-05T18:09:12.607Z</time>
      </trkpt>
      <trkpt lat="50.56896" lon="3.33157">
        <ele>48.027495</ele>
        <time>2020-07-05T18:09:24.217Z</time>
      </trkpt>
      <trkpt lat="50.56962" lon="3.33182">
        <ele>47.713727</ele>
        <time>2020-07-05T18:09:33.443Z</time>
      </trkpt>
      <trkpt lat="50.56994" lon="3.33179">
        <ele>47.568917</ele>
        <time>2020-07-05T18:09:37.793Z</time>
      </trkpt>
      <trkpt lat="50.56999" lon="3.33177">
        <ele>47.54441</ele>
        <time>2020-07-05T18:09:38.834Z</time>
      </trkpt>
      <trkpt lat="50.5706" lon="3.3315">
        <ele>47.237258</ele>
        <time>2020-07-05T18:09:47.689Z</time>
      </trkpt>
      <trkpt lat="50.57065" lon="3.33148">
        <ele>47.212076</ele>
        <time>2020-07-05T18:09:48.670Z</time>
      </trkpt>
      <trkpt lat="50.57136" lon="3.33117">
        <ele>46.837789</ele>
        <time>2020-07-05T18:09:58.946Z</time>
      </trkpt>
      <trkpt lat="50.57184" lon="3.3311">
        <ele>46.593653</ele>
        <time>2020-07-05T18:10:05.101Z</time>
      </trkpt>
      <trkpt lat="50.57231" lon="3.33117">
        <ele>46.058968</ele>
        <time>2020-07-05T18:10:10.690Z</time>
      </trkpt>
      <trkpt lat="50.57285" lon="3.33125">
        <ele>45.204441</ele>
        <time>2020-07-05T18:10:16.956Z</time>
      </trkpt>
      <trkpt lat="50.57335" lon="3.33133">
        <ele>44.421917</ele>
        <time>2020-07-05T18:10:22.752Z</time>
      </trkpt>
      <trkpt lat="50.57355" lon="3.33136">
        <ele>44.104845</ele>
        <time>2020-07-05T18:10:24.897Z</time>
      </trkpt>
      <trkpt lat="50.57437" lon="3.33153">
        <ele>42.866184</ele>
        <time>2020-07-05T18:10:34.038Z</time>
      </trkpt>
      <trkpt lat="50.57469" lon="3.33147">
        <ele>42.400788</ele>
        <time>2020-07-05T18:10:37.584Z</time>
      </trkpt>
      <trkpt lat="50.57493" lon="3.33143">
        <ele>42.040574</ele>
        <time>2020-07-05T18:10:40.388Z</time>
      </trkpt>
      <trkpt lat="50.57499" lon="3.33143">
        <ele>41.957752</ele>
        <time>2020-07-05T18:10:40.980Z</time>
      </trkpt>
      <trkpt lat="50.57519" lon="3.3314">
        <ele>41.65909</ele>
        <time>2020-07-05T18:10:43.388Z</time>
      </trkpt>
      <trkpt lat="50.57569" lon="3.33153">
        <ele>41.076396</ele>
        <time>2020-07-05T18:10:49.588Z</time>
      </trkpt>
      <trkpt lat="50.57583" lon="3.33156">
        <ele>41.125216</ele>
        <time>2020-07-05T18:10:51.420Z</time>
      </trkpt>
      <trkpt lat="50.57591" lon="3.33158">
        <ele>41.151777</ele>
        <time>2020-07-05T18:10:52.528Z</time>
      </trkpt>
      <trkpt lat="50.57685" lon="3.33131">
        <ele>41.465683</ele>
        <time>2020-07-05T18:11:07.744Z</time>
      </trkpt>
      <trkpt lat="50.57698" lon="3.33122">
        <ele>41.513142</ele>
        <time>2020-07-05T18:11:10.429Z</time>
      </trkpt>
      <trkpt lat="50.57703" lon="3.331">
        <ele>41.563222</ele>
        <time>2020-07-05T18:11:13.593Z</time>
      </trkpt>
      <trkpt lat="50.57699" lon="3.33048">
        <ele>41.807755</ele>
        <time>2020-07-05T18:11:20.107Z</time>
      </trkpt>
      <trkpt lat="50.57674" lon="3.32968">
        <ele>42.778613</ele>
        <time>2020-07-05T18:11:31.929Z</time>
      </trkpt>
      <trkpt lat="50.57647" lon="3.32886">
        <ele>43.786829</ele>
        <time>2020-07-05T18:11:45.431Z</time>
      </trkpt>
      <trkpt lat="50.57648" lon="3.32855">
        <ele>44.124768</ele>
        <time>2020-07-05T18:11:50.043Z</time>
      </trkpt>
      <trkpt lat="50.57664" lon="3.32827">
        <ele>44.528946</ele>
        <time>2020-07-05T18:11:55.606Z</time>
      </trkpt>
      <trkpt lat="50.57713" lon="3.32801">
        <ele>45.055483</ele>
        <time>2020-07-05T18:12:07.079Z</time>
      </trkpt>
      <trkpt lat="50.57737" lon="3.32795">
        <ele>45.257982</ele>
        <time>2020-07-05T18:12:11.760Z</time>
      </trkpt>
      <trkpt lat="50.57766" lon="3.32796">
        <ele>45.500869</ele>
        <time>2020-07-05T18:12:17.047Z</time>
      </trkpt>
      <trkpt lat="50.57787" lon="3.32798">
        <ele>45.678347</ele>
        <time>2020-07-05T18:12:20.667Z</time>
      </trkpt>
      <trkpt lat="50.57804" lon="3.32802">
        <ele>45.818353</ele>
        <time>2020-07-05T18:12:23.324Z</time>
      </trkpt>
      <trkpt lat="50.5782" lon="3.32803">
        <ele>45.950404</ele>
        <time>2020-07-05T18:12:25.875Z</time>
      </trkpt>
      <trkpt lat="50.57829" lon="3.32806">
        <ele>46.027503</ele>
        <time>2020-07-05T18:12:27.340Z</time>
      </trkpt>
      <trkpt lat="50.57837" lon="3.32807">
        <ele>46.096044</ele>
        <time>2020-07-05T18:12:29.023Z</time>
      </trkpt>
      <trkpt lat="50.57839" lon="3.32768">
        <ele>46.165923</ele>
        <time>2020-07-05T18:12:32.863Z</time>
      </trkpt>
      <trkpt lat="50.57839" lon="3.32753">
        <ele>46.125026</ele>
        <time>2020-07-05T18:12:34.215Z</time>
      </trkpt>
      <trkpt lat="50.5784" lon="3.32738">
        <ele>46.085629</ele>
        <time>2020-07-05T18:12:35.554Z</time>
      </trkpt>
      <trkpt lat="50.57842" lon="3.32705">
        <ele>45.995639</ele>
        <time>2020-07-05T18:12:38.486Z</time>
      </trkpt>
      <trkpt lat="50.57847" lon="3.32647">
        <ele>45.837432</ele>
        <time>2020-07-05T18:12:43.345Z</time>
      </trkpt>
      <trkpt lat="50.5785" lon="3.32569">
        <ele>45.625944</ele>
        <time>2020-07-05T18:12:49.559Z</time>
      </trkpt>
      <trkpt lat="50.57849" lon="3.3246">
        <ele>45.444849</ele>
        <time>2020-07-05T18:12:58.603Z</time>
      </trkpt>
      <trkpt lat="50.57847" lon="3.32324">
        <ele>45.436687</ele>
        <time>2020-07-05T18:13:11.811Z</time>
      </trkpt>
      <trkpt lat="50.57841" lon="3.32206">
        <ele>45.433794</ele>
        <time>2020-07-05T18:13:23.937Z</time>
      </trkpt>
      <trkpt lat="50.57752" lon="3.31755">
        <ele>45.656409</ele>
        <time>2020-07-05T18:14:08.424Z</time>
      </trkpt>
      <trkpt lat="50.57708" lon="3.31526">
        <ele>46.069546</ele>
        <time>2020-07-05T18:14:33.372Z</time>
      </trkpt>
      <trkpt lat="50.57683" lon="3.31398">
        <ele>46.361672</ele>
        <time>2020-07-05T18:14:47.502Z</time>
      </trkpt>
      <trkpt lat="50.57651" lon="3.31233">
        <ele>46.646705</ele>
        <time>2020-07-05T18:15:04.250Z</time>
      </trkpt>
      <trkpt lat="50.57598" lon="3.3091">
        <ele>47.423077</ele>
        <time>2020-07-05T18:15:38.752Z</time>
      </trkpt>
      <trkpt lat="50.5759" lon="3.30897">
        <ele>47.472707</ele>
        <time>2020-07-05T18:15:40.683Z</time>
      </trkpt>
      <trkpt lat="50.57601" lon="3.30886">
        <ele>47.526692</ele>
        <time>2020-07-05T18:15:43.891Z</time>
      </trkpt>
      <trkpt lat="50.57649" lon="3.3086">
        <ele>47.859453</ele>
        <time>2020-07-05T18:15:55.462Z</time>
      </trkpt>
      <trkpt lat="50.57701" lon="3.30839">
        <ele>48.225331</ele>
        <time>2020-07-05T18:16:07.851Z</time>
      </trkpt>
      <trkpt lat="50.57764" lon="3.3082">
        <ele>48.675486</ele>
        <time>2020-07-05T18:16:23.008Z</time>
      </trkpt>
      <trkpt lat="50.57795" lon="3.30818">
        <ele>48.859767</ele>
        <time>2020-07-05T18:16:29.905Z</time>
      </trkpt>
      <trkpt lat="50.5783" lon="3.30825">
        <ele>49.024947</ele>
        <time>2020-07-05T18:16:37.875Z</time>
      </trkpt>
      <trkpt lat="50.57845" lon="3.30836">
        <ele>49.105734</ele>
        <time>2020-07-05T18:16:41.842Z</time>
      </trkpt>
      <trkpt lat="50.57846" lon="3.30771">
        <ele>49.301289</ele>
        <time>2020-07-05T18:16:50.903Z</time>
      </trkpt>
      <trkpt lat="50.57841" lon="3.30705">
        <ele>49.497535</ele>
        <time>2020-07-05T18:16:59.995Z</time>
      </trkpt>
      <trkpt lat="50.5784" lon="3.30693">
        <ele>49.533182</ele>
        <time>2020-07-05T18:17:01.564Z</time>
      </trkpt>
      <trkpt lat="50.57835" lon="3.30649">
        <ele>49.665582</ele>
        <time>2020-07-05T18:17:07.767Z</time>
      </trkpt>
      <trkpt lat="50.57828" lon="3.30547">
        <ele>49.94354</ele>
        <time>2020-07-05T18:17:21.751Z</time>
      </trkpt>
      <trkpt lat="50.57825" lon="3.30508">
        <ele>50.04825</ele>
        <time>2020-07-05T18:17:27.079Z</time>
      </trkpt>
      <trkpt lat="50.57843" lon="3.30501">
        <ele>50.128673</ele>
        <time>2020-07-05T18:17:30.151Z</time>
      </trkpt>
      <trkpt lat="50.57883" lon="3.30475">
        <ele>50.312795</ele>
        <time>2020-07-05T18:17:37.361Z</time>
      </trkpt>
      <trkpt lat="50.58591" lon="3.29921">
        <ele>56.312819</ele>
        <time>2020-07-05T18:19:58.533Z</time>
      </trkpt>
      <trkpt lat="50.58636" lon="3.29879">
        <ele>56.813474</ele>
        <time>2020-07-05T18:20:08.870Z</time>
      </trkpt>
      <trkpt lat="50.58673" lon="3.29833">
        <ele>57.263833</ele>
        <time>2020-07-05T18:20:17.796Z</time>
      </trkpt>
      <trkpt lat="50.58689" lon="3.29806">
        <ele>57.48658</ele>
        <time>2020-07-05T18:20:22.282Z</time>
      </trkpt>
      <trkpt lat="50.5871" lon="3.29771">
        <ele>57.734393</ele>
        <time>2020-07-05T18:20:27.991Z</time>
      </trkpt>
      <trkpt lat="50.58731" lon="3.29725">
        <ele>58.009171</ele>
        <time>2020-07-05T18:20:34.728Z</time>
      </trkpt>
      <trkpt lat="50.58755" lon="3.29661">
        <ele>58.362014</ele>
        <time>2020-07-05T18:20:43.090Z</time>
      </trkpt>
      <trkpt lat="50.58778" lon="3.2958">
        <ele>58.789079</ele>
        <time>2020-07-05T18:20:52.895Z</time>
      </trkpt>
      <trkpt lat="50.58822" lon="3.29418">
        <ele>59.922618</ele>
        <time>2020-07-05T18:21:12.264Z</time>
      </trkpt>
      <trkpt lat="50.58836" lon="3.29361">
        <ele>60.341035</ele>
        <time>2020-07-05T18:21:19.919Z</time>
      </trkpt>
      <trkpt lat="50.58838" lon="3.29355">
        <ele>60.382991</ele>
        <time>2020-07-05T18:21:20.694Z</time>
      </trkpt>
      <trkpt lat="50.58854" lon="3.29306">
        <ele>60.75628</ele>
        <time>2020-07-05T18:21:27.993Z</time>
      </trkpt>
      <trkpt lat="50.5887" lon="3.29274">
        <ele>61.25762</ele>
        <time>2020-07-05T18:21:33.768Z</time>
      </trkpt>
      <trkpt lat="50.58894" lon="3.29238">
        <ele>62.043741</ele>
        <time>2020-07-05T18:21:41.322Z</time>
      </trkpt>
      <trkpt lat="50.58927" lon="3.29206">
        <ele>62.959877</ele>
        <time>2020-07-05T18:21:50.554Z</time>
      </trkpt>
      <trkpt lat="50.58961" lon="3.29186">
        <ele>63.821227</ele>
        <time>2020-07-05T18:21:59.755Z</time>
      </trkpt>
      <trkpt lat="50.59002" lon="3.29179">
        <ele>64.794344</ele>
        <time>2020-07-05T18:22:10.718Z</time>
      </trkpt>
      <trkpt lat="50.59076" lon="3.29196">
        <ele>66.733679</ele>
        <time>2020-07-05T18:22:30.235Z</time>
      </trkpt>
      <trkpt lat="50.59169" lon="3.29225">
        <ele>69.259756</ele>
        <time>2020-07-05T18:22:54.490Z</time>
      </trkpt>
      <trkpt lat="50.59258" lon="3.29254">
        <ele>70.9615</ele>
        <time>2020-07-05T18:23:16.217Z</time>
      </trkpt>
      <trkpt lat="50.59261" lon="3.29254">
        <ele>71.009204</ele>
        <time>2020-07-05T18:23:16.845Z</time>
      </trkpt>
      <trkpt lat="50.59277" lon="3.29257">
        <ele>71.273525</ele>
        <time>2020-07-05T18:23:20.542Z</time>
      </trkpt>
      <trkpt lat="50.59298" lon="3.29252">
        <ele>71.6055</ele>
        <time>2020-07-05T18:23:25.029Z</time>
      </trkpt>
      <trkpt lat="50.5931" lon="3.29244">
        <ele>71.81461</ele>
        <time>2020-07-05T18:23:27.735Z</time>
      </trkpt>
      <trkpt lat="50.59342" lon="3.29214">
        <ele>72.399356</ele>
        <time>2020-07-05T18:23:35.021Z</time>
      </trkpt>
      <trkpt lat="50.5935" lon="3.29206">
        <ele>72.552493</ele>
        <time>2020-07-05T18:23:37.109Z</time>
      </trkpt>
      <trkpt lat="50.59379" lon="3.2917">
        <ele>72.591242</ele>
        <time>2020-07-05T18:23:43.159Z</time>
      </trkpt>
      <trkpt lat="50.59459" lon="3.29043">
        <ele>71.85372</ele>
        <time>2020-07-05T18:23:58.134Z</time>
      </trkpt>
      <trkpt lat="50.59469" lon="3.29036">
        <ele>71.782519</ele>
        <time>2020-07-05T18:23:59.473Z</time>
      </trkpt>
      <trkpt lat="50.59479" lon="3.29033">
        <ele>71.714832</ele>
        <time>2020-07-05T18:24:00.550Z</time>
      </trkpt>
      <trkpt lat="50.595" lon="3.29042">
        <ele>71.550181</ele>
        <time>2020-07-05T18:24:03.146Z</time>
      </trkpt>
      <trkpt lat="50.59597" lon="3.29132">
        <ele>68.934573</ele>
        <time>2020-07-05T18:24:15.095Z</time>
      </trkpt>
      <trkpt lat="50.5967" lon="3.2924">
        <ele>66.465632</ele>
        <time>2020-07-05T18:24:25.703Z</time>
      </trkpt>
      <trkpt lat="50.59685" lon="3.29254">
        <ele>66.000078</ele>
        <time>2020-07-05T18:24:27.478Z</time>
      </trkpt>
      <trkpt lat="50.59707" lon="3.29267">
        <ele>65.339275</ele>
        <time>2020-07-05T18:24:30.076Z</time>
      </trkpt>
      <trkpt lat="50.59724" lon="3.2927">
        <ele>64.897293</ele>
        <time>2020-07-05T18:24:31.765Z</time>
      </trkpt>
      <trkpt lat="50.59773" lon="3.29274">
        <ele>63.546255</ele>
        <time>2020-07-05T18:24:36.948Z</time>
      </trkpt>
      <trkpt lat="50.59828" lon="3.29266">
        <ele>61.944635</ele>
        <time>2020-07-05T18:24:42.560Z</time>
      </trkpt>
      <trkpt lat="50.59835" lon="3.29265">
        <ele>61.722982</ele>
        <time>2020-07-05T18:24:43.246Z</time>
      </trkpt>
      <trkpt lat="50.60073" lon="3.29229">
        <ele>54.129887</ele>
        <time>2020-07-05T18:25:07.276Z</time>
      </trkpt>
      <trkpt lat="50.60094" lon="3.29224">
        <ele>53.490353</ele>
        <time>2020-07-05T18:25:09.518Z</time>
      </trkpt>
      <trkpt lat="50.60161" lon="3.2921">
        <ele>51.512611</ele>
        <time>2020-07-05T18:25:16.511Z</time>
      </trkpt>
      <trkpt lat="50.60315" lon="3.29172">
        <ele>48.198869</ele>
        <time>2020-07-05T18:25:33.642Z</time>
      </trkpt>
      <trkpt lat="50.60416" lon="3.29153">
        <ele>46.368612</ele>
        <time>2020-07-05T18:25:44.786Z</time>
      </trkpt>
      <trkpt lat="50.60457" lon="3.29143">
        <ele>45.667069</ele>
        <time>2020-07-05T18:25:49.500Z</time>
      </trkpt>
      <trkpt lat="50.60495" lon="3.29135">
        <ele>45.026516</ele>
        <time>2020-07-05T18:25:53.881Z</time>
      </trkpt>
      <trkpt lat="50.60612" lon="3.29102">
        <ele>43.676209</ele>
        <time>2020-07-05T18:26:08.261Z</time>
      </trkpt>
      <trkpt lat="50.60671" lon="3.29093">
        <ele>43.108794</ele>
        <time>2020-07-05T18:26:16.033Z</time>
      </trkpt>
      <trkpt lat="50.60682" lon="3.29093">
        <ele>43.002459</ele>
        <time>2020-07-05T18:26:17.449Z</time>
      </trkpt>
      <trkpt lat="50.60705" lon="3.29089">
        <ele>42.778745</ele>
        <time>2020-07-05T18:26:20.271Z</time>
      </trkpt>
      <trkpt lat="50.60742" lon="3.29083">
        <ele>42.172305</ele>
        <time>2020-07-05T18:26:24.741Z</time>
      </trkpt>
      <trkpt lat="50.60793" lon="3.29075">
        <ele>41.347252</ele>
        <time>2020-07-05T18:26:30.588Z</time>
      </trkpt>
      <trkpt lat="50.60818" lon="3.29071">
        <ele>40.937997</ele>
        <time>2020-07-05T18:26:33.460Z</time>
      </trkpt>
      <trkpt lat="50.60821" lon="3.2907">
        <ele>40.892524</ele>
        <time>2020-07-05T18:26:33.770Z</time>
      </trkpt>
      <trkpt lat="50.60827" lon="3.29069">
        <ele>40.801578</ele>
        <time>2020-07-05T18:26:34.408Z</time>
      </trkpt>
      <trkpt lat="50.60839" lon="3.29063">
        <ele>40.596813</ele>
        <time>2020-07-05T18:26:35.840Z</time>
      </trkpt>
      <trkpt lat="50.60846" lon="3.2906">
        <ele>40.479187</ele>
        <time>2020-07-05T18:26:36.650Z</time>
      </trkpt>
      <trkpt lat="50.6088" lon="3.29054">
        <ele>39.921821</ele>
        <time>2020-07-05T18:26:40.406Z</time>
      </trkpt>
      <trkpt lat="50.60916" lon="3.29067">
        <ele>39.177587</ele>
        <time>2020-07-05T18:26:44.320Z</time>
      </trkpt>
      <trkpt lat="50.61105" lon="3.29161">
        <ele>35.365901</ele>
        <time>2020-07-05T18:27:06.126Z</time>
      </trkpt>
      <trkpt lat="50.61317" lon="3.29267">
        <ele>32.392055</ele>
        <time>2020-07-05T18:27:32.118Z</time>
      </trkpt>
      <trkpt lat="50.61321" lon="3.29269">
        <ele>32.349208</ele>
        <time>2020-07-05T18:27:32.547Z</time>
      </trkpt>
      <trkpt lat="50.61417" lon="3.29318">
        <ele>31.48277</ele>
        <time>2020-07-05T18:27:45.526Z</time>
      </trkpt>
      <trkpt lat="50.615" lon="3.29359">
        <ele>31.355117</ele>
        <time>2020-07-05T18:27:57.649Z</time>
      </trkpt>
      <trkpt lat="50.6153" lon="3.2938">
        <ele>31.306257</ele>
        <time>2020-07-05T18:28:02.709Z</time>
      </trkpt>
      <trkpt lat="50.61596" lon="3.29439">
        <ele>31.457903</ele>
        <time>2020-07-05T18:28:14.694Z</time>
      </trkpt>
      <trkpt lat="50.61747" lon="3.29571">
        <ele>32.508025</ele>
        <time>2020-07-05T18:28:44.586Z</time>
      </trkpt>
      <trkpt lat="50.61776" lon="3.29598">
        <ele>32.813826</ele>
        <time>2020-07-05T18:28:50.731Z</time>
      </trkpt>
      <trkpt lat="50.61879" lon="3.29691">
        <ele>33.892545</ele>
        <time>2020-07-05T18:29:13.188Z</time>
      </trkpt>
      <trkpt lat="50.61939" lon="3.29755">
        <ele>34.583318</ele>
        <time>2020-07-05T18:29:27.009Z</time>
      </trkpt>
      <trkpt lat="50.61945" lon="3.2976">
        <ele>34.649504</ele>
        <time>2020-07-05T18:29:28.252Z</time>
      </trkpt>
      <trkpt lat="50.61953" lon="3.29763">
        <ele>34.726985</ele>
        <time>2020-07-05T18:29:29.824Z</time>
      </trkpt>
      <trkpt lat="50.61944" lon="3.29789">
        <ele>34.910193</ele>
        <time>2020-07-05T18:29:33.503Z</time>
      </trkpt>
      <trkpt lat="50.61904" lon="3.29893">
        <ele>35.613022</ele>
        <time>2020-07-05T18:29:47.941Z</time>
      </trkpt>
      <trkpt lat="50.61845" lon="3.30042">
        <ele>36.106336</ele>
        <time>2020-07-05T18:30:07.214Z</time>
      </trkpt>
      <trkpt lat="50.61815" lon="3.3011">
        <ele>36.341476</ele>
        <time>2020-07-05T18:30:15.482Z</time>
      </trkpt>
      <trkpt lat="50.61729" lon="3.30292">
        <ele>36.200764</ele>
        <time>2020-07-05T18:30:35.447Z</time>
      </trkpt>
      <trkpt lat="50.61713" lon="3.30331">
        <ele>36.161857</ele>
        <time>2020-07-05T18:30:39.484Z</time>
      </trkpt>
      <trkpt lat="50.6168" lon="3.30443">
        <ele>36.562288</ele>
        <time>2020-07-05T18:30:52.026Z</time>
      </trkpt>
      <trkpt lat="50.61672" lon="3.3051">
        <ele>36.852911</ele>
        <time>2020-07-05T18:31:00.040Z</time>
      </trkpt>
      <trkpt lat="50.61667" lon="3.30546">
        <ele>37.008915</ele>
        <time>2020-07-05T18:31:04.348Z</time>
      </trkpt>
      <trkpt lat="50.61663" lon="3.3056">
        <ele>37.07116</ele>
        <time>2020-07-05T18:31:06.198Z</time>
      </trkpt>
      <trkpt lat="50.6165" lon="3.30574">
        <ele>37.177062</ele>
        <time>2020-07-05T18:31:09.259Z</time>
      </trkpt>
      <trkpt lat="50.61639" lon="3.30592">
        <ele>37.284426</ele>
        <time>2020-07-05T18:31:12.088Z</time>
      </trkpt>
      <trkpt lat="50.61633" lon="3.30597">
        <ele>37.330145</ele>
        <time>2020-07-05T18:31:13.596Z</time>
      </trkpt>
      <trkpt lat="50.61619" lon="3.30607">
        <ele>37.427721</ele>
        <time>2020-07-05T18:31:16.264Z</time>
      </trkpt>
      <trkpt lat="50.61598" lon="3.30648">
        <ele>37.64634</ele>
        <time>2020-07-05T18:31:22.527Z</time>
      </trkpt>
      <trkpt lat="50.61552" lon="3.30715">
        <ele>38.05526</ele>
        <time>2020-07-05T18:31:34.223Z</time>
      </trkpt>
      <trkpt lat="50.61549" lon="3.30721">
        <ele>38.088345</ele>
        <time>2020-07-05T18:31:35.090Z</time>
      </trkpt>
      <trkpt lat="50.61529" lon="3.3076">
        <ele>38.295107</ele>
        <time>2020-07-05T18:31:40.605Z</time>
      </trkpt>
      <trkpt lat="50.61459" lon="3.30964">
        <ele>38.747772</ele>
        <time>2020-07-05T18:32:02.158Z</time>
      </trkpt>
      <trkpt lat="50.61455" lon="3.30974">
        <ele>38.762881</ele>
        <time>2020-07-05T18:32:03.343Z</time>
      </trkpt>
      <trkpt lat="50.61445" lon="3.31004">
        <ele>38.806736</ele>
        <time>2020-07-05T18:32:06.821Z</time>
      </trkpt>
      <trkpt lat="50.61407" lon="3.31109">
        <ele>39.081286</ele>
        <time>2020-07-05T18:32:19.961Z</time>
      </trkpt>
      <trkpt lat="50.61356" lon="3.31248">
        <ele>39.597673</ele>
        <time>2020-07-05T18:32:37.891Z</time>
      </trkpt>
      <trkpt lat="50.6134" lon="3.31282">
        <ele>39.735657</ele>
        <time>2020-07-05T18:32:42.634Z</time>
      </trkpt>
      <trkpt lat="50.6124" lon="3.31457">
        <ele>39.432266</ele>
        <time>2020-07-05T18:33:04.352Z</time>
      </trkpt>
      <trkpt lat="50.61197" lon="3.31531">
        <ele>39.097355</ele>
        <time>2020-07-05T18:33:12.159Z</time>
      </trkpt>
      <trkpt lat="50.61179" lon="3.31564">
        <ele>38.809835</ele>
        <time>2020-07-05T18:33:15.455Z</time>
      </trkpt>
      <trkpt lat="50.61096" lon="3.31726">
        <ele>37.431014</ele>
        <time>2020-07-05T18:33:31.220Z</time>
      </trkpt>
      <trkpt lat="50.60971" lon="3.31978">
        <ele>36.290253</ele>
        <time>2020-07-05T18:33:57.480Z</time>
      </trkpt>
      <trkpt lat="50.60945" lon="3.32031">
        <ele>36.385994</ele>
        <time>2020-07-05T18:34:03.883Z</time>
      </trkpt>
      <trkpt lat="50.60997" lon="3.32076">
        <ele>36.518787</ele>
        <time>2020-07-05T18:34:16.460Z</time>
      </trkpt>
      <trkpt lat="50.60967" lon="3.32106">
        <ele>36.59875</ele>
        <time>2020-07-05T18:34:24.471Z</time>
      </trkpt>
      <trkpt lat="50.60857" lon="3.32233">
        <ele>37.728845</ele>
        <time>2020-07-05T18:34:57.259Z</time>
      </trkpt>
      <trkpt lat="50.60822" lon="3.32274">
        <ele>38.130763</ele>
        <time>2020-07-05T18:35:07.878Z</time>
      </trkpt>
      <trkpt lat="50.60867" lon="3.32394">
        <ele>38.924002</ele>
        <time>2020-07-05T18:35:29.187Z</time>
      </trkpt>
      <trkpt lat="50.60847" lon="3.32415">
        <ele>39.137838</ele>
        <time>2020-07-05T18:35:34.978Z</time>
      </trkpt>
      <trkpt lat="50.60829" lon="3.32433">
        <ele>39.326554</ele>
        <time>2020-07-05T18:35:39.949Z</time>
      </trkpt>
      <trkpt lat="50.60795" lon="3.3248">
        <ele>39.732812</ele>
        <time>2020-07-05T18:35:50.427Z</time>
      </trkpt>
      <trkpt lat="50.60607" lon="3.3272">
        <ele>41.560208</ele>
        <time>2020-07-05T18:36:46.412Z</time>
      </trkpt>
      <trkpt lat="50.60511" lon="3.3281">
        <ele>42.496044</ele>
        <time>2020-07-05T18:37:12.413Z</time>
      </trkpt>
      <trkpt lat="50.60491" lon="3.32854">
        <ele>42.843241</ele>
        <time>2020-07-05T18:37:20.902Z</time>
      </trkpt>
      <trkpt lat="50.60478" lon="3.32903">
        <ele>43.376722</ele>
        <time>2020-07-05T18:37:29.480Z</time>
      </trkpt>
      <trkpt lat="50.60464" lon="3.32985">
        <ele>44.231226</ele>
        <time>2020-07-05T18:37:43.756Z</time>
      </trkpt>
      <trkpt lat="50.60452" lon="3.33015">
        <ele>44.593188</ele>
        <time>2020-07-05T18:37:49.895Z</time>
      </trkpt>
      <trkpt lat="50.60435" lon="3.33033">
        <ele>44.923977</ele>
        <time>2020-07-05T18:37:55.708Z</time>
      </trkpt>
      <trkpt lat="50.60435" lon="3.3309">
        <ele>45.493894</ele>
        <time>2020-07-05T18:38:03.710Z</time>
      </trkpt>
      <trkpt lat="50.60435" lon="3.33126">
        <ele>45.853663</ele>
        <time>2020-07-05T18:38:08.826Z</time>
      </trkpt>
      <trkpt lat="50.60436" lon="3.33192">
        <ele>46.512268</ele>
        <time>2020-07-05T18:38:18.404Z</time>
      </trkpt>
      <trkpt lat="50.60437" lon="3.3329">
        <ele>47.49072</ele>
        <time>2020-07-05T18:38:31.893Z</time>
      </trkpt>
      <trkpt lat="50.60436" lon="3.33338">
        <ele>47.964131</ele>
        <time>2020-07-05T18:38:38.024Z</time>
      </trkpt>
      <trkpt lat="50.60433" lon="3.33378">
        <ele>48.365573</ele>
        <time>2020-07-05T18:38:43.071Z</time>
      </trkpt>
      <trkpt lat="50.6043" lon="3.33414">
        <ele>48.492462</ele>
        <time>2020-07-05T18:38:47.426Z</time>
      </trkpt>
      <trkpt lat="50.60425" lon="3.33455">
        <ele>48.599608</ele>
        <time>2020-07-05T18:38:52.059Z</time>
      </trkpt>
      <trkpt lat="50.60422" lon="3.3348">
        <ele>48.666545</ele>
        <time>2020-07-05T18:38:54.807Z</time>
      </trkpt>
      <trkpt lat="50.6042" lon="3.33499">
        <ele>48.718307</ele>
        <time>2020-07-05T18:38:56.977Z</time>
      </trkpt>
      <trkpt lat="50.60377" lon="3.33825">
        <ele>48.999213</ele>
        <time>2020-07-05T18:39:28.865Z</time>
      </trkpt>
      <trkpt lat="50.6037" lon="3.33934">
        <ele>48.900968</ele>
        <time>2020-07-05T18:39:38.652Z</time>
      </trkpt>
      <trkpt lat="50.6036" lon="3.34075">
        <ele>48.235171</ele>
        <time>2020-07-05T18:39:50.232Z</time>
      </trkpt>
      <trkpt lat="50.60357" lon="3.34139">
        <ele>47.925146</ele>
        <time>2020-07-05T18:39:55.239Z</time>
      </trkpt>
      <trkpt lat="50.60356" lon="3.34147">
        <ele>47.885184</ele>
        <time>2020-07-05T18:39:55.849Z</time>
      </trkpt>
      <trkpt lat="50.60348" lon="3.34272">
        <ele>47.382615</ele>
        <time>2020-07-05T18:40:05.761Z</time>
      </trkpt>
      <trkpt lat="50.60341" lon="3.34346">
        <ele>47.176025</ele>
        <time>2020-07-05T18:40:11.911Z</time>
      </trkpt>
      <trkpt lat="50.60338" lon="3.34371">
        <ele>47.106965</ele>
        <time>2020-07-05T18:40:13.929Z</time>
      </trkpt>
      <trkpt lat="50.60332" lon="3.34379">
        <ele>47.072705</ele>
        <time>2020-07-05T18:40:15.450Z</time>
      </trkpt>
      <trkpt lat="50.60322" lon="3.34394">
        <ele>47.012083</ele>
        <time>2020-07-05T18:40:18.125Z</time>
      </trkpt>
      <trkpt lat="50.60298" lon="3.34449">
        <ele>46.827795</ele>
        <time>2020-07-05T18:40:26.329Z</time>
      </trkpt>
      <trkpt lat="50.60222" lon="3.34407">
        <ele>47.192527</ele>
        <time>2020-07-05T18:40:43.362Z</time>
      </trkpt>
      <trkpt lat="50.60196" lon="3.3439">
        <ele>47.407009</ele>
        <time>2020-07-05T18:40:50.101Z</time>
      </trkpt>
      <trkpt lat="50.60182" lon="3.34372">
        <ele>47.539657</ele>
        <time>2020-07-05T18:40:54.378Z</time>
      </trkpt>
      <trkpt lat="50.6017" lon="3.34336">
        <ele>47.735061</ele>
        <time>2020-07-05T18:41:00.751Z</time>
      </trkpt>
      <trkpt lat="50.60166" lon="3.34311">
        <ele>47.856498</ele>
        <time>2020-07-05T18:41:04.761Z</time>
      </trkpt>
      <trkpt lat="50.60153" lon="3.34213">
        <ele>48.584326</ele>
        <time>2020-07-05T18:41:20.548Z</time>
      </trkpt>
      <trkpt lat="50.6014" lon="3.3411">
        <ele>49.607332</ele>
        <time>2020-07-05T18:41:38.379Z</time>
      </trkpt>
      <trkpt lat="50.60116" lon="3.33981">
        <ele>50.882336</ele>
        <time>2020-07-05T18:42:01.458Z</time>
      </trkpt>
      <trkpt lat="50.60102" lon="3.33906">
        <ele>51.381297</ele>
        <time>2020-07-05T18:42:14.632Z</time>
      </trkpt>
      <trkpt lat="50.60082" lon="3.33881">
        <ele>51.64082</ele>
        <time>2020-07-05T18:42:21.208Z</time>
      </trkpt>
      <trkpt lat="50.59978" lon="3.33806">
        <ele>52.621602</ele>
        <time>2020-07-05T18:42:47.601Z</time>
      </trkpt>
      <trkpt lat="50.59922" lon="3.33768">
        <ele>52.561173</ele>
        <time>2020-07-05T18:42:59.788Z</time>
      </trkpt>
      <trkpt lat="50.59914" lon="3.33762">
        <ele>52.551934</ele>
        <time>2020-07-05T18:43:01.471Z</time>
      </trkpt>
      <trkpt lat="50.59786" lon="3.33675">
        <ele>52.371576</ele>
        <time>2020-07-05T18:43:27.856Z</time>
      </trkpt>
      <trkpt lat="50.59763" lon="3.33661">
        <ele>52.323394</ele>
        <time>2020-07-05T18:43:32.539Z</time>
      </trkpt>
      <trkpt lat="50.59768" lon="3.33738">
        <ele>52.226562</ele>
        <time>2020-07-05T18:43:42.213Z</time>
      </trkpt>
      <trkpt lat="50.59785" lon="3.3401">
        <ele>52.205898</ele>
        <time>2020-07-05T18:44:17.263Z</time>
      </trkpt>
      <trkpt lat="50.59787" lon="3.34052">
        <ele>52.230055</ele>
        <time>2020-07-05T18:44:22.732Z</time>
      </trkpt>
      <trkpt lat="50.59785" lon="3.34062">
        <ele>52.236398</ele>
        <time>2020-07-05T18:44:24.262Z</time>
      </trkpt>
      <trkpt lat="50.59792" lon="3.34077">
        <ele>52.246716</ele>
        <time>2020-07-05T18:44:26.534Z</time>
      </trkpt>
      <trkpt lat="50.59841" lon="3.34473">
        <ele>53.095023</ele>
        <time>2020-07-05T18:45:23.357Z</time>
      </trkpt>
      <trkpt lat="50.59845" lon="3.34494">
        <ele>53.105707</ele>
        <time>2020-07-05T18:45:26.362Z</time>
      </trkpt>
      <trkpt lat="50.59847" lon="3.34504">
        <ele>53.111084</ele>
        <time>2020-07-05T18:45:27.835Z</time>
      </trkpt>
      <trkpt lat="50.59859" lon="3.34589">
        <ele>53.153927</ele>
        <time>2020-07-05T18:45:39.151Z</time>
      </trkpt>
      <trkpt lat="50.59864" lon="3.34699">
        <ele>53.049144</ele>
        <time>2020-07-05T18:45:52.459Z</time>
      </trkpt>
      <trkpt lat="50.59864" lon="3.34719">
        <ele>52.955006</ele>
        <time>2020-07-05T18:45:54.591Z</time>
      </trkpt>
      <trkpt lat="50.59866" lon="3.34753">
        <ele>52.785485</ele>
        <time>2020-07-05T18:45:58.618Z</time>
      </trkpt>
      <trkpt lat="50.59867" lon="3.3476">
        <ele>52.752406</ele>
        <time>2020-07-05T18:45:59.366Z</time>
      </trkpt>
      <trkpt lat="50.59876" lon="3.34815">
        <ele>52.472867</ele>
        <time>2020-07-05T18:46:05.694Z</time>
      </trkpt>
      <trkpt lat="50.59877" lon="3.34823">
        <ele>52.432906</ele>
        <time>2020-07-05T18:46:06.472Z</time>
      </trkpt>
      <trkpt lat="50.59888" lon="3.3489">
        <ele>52.096384</ele>
        <time>2020-07-05T18:46:14.222Z</time>
      </trkpt>
      <trkpt lat="50.59898" lon="3.3499">
        <ele>51.773663</ele>
        <time>2020-07-05T18:46:25.714Z</time>
      </trkpt>
      <trkpt lat="50.59898" lon="3.35009">
        <ele>51.756283</ele>
        <time>2020-07-05T18:46:28.144Z</time>
      </trkpt>
      <trkpt lat="50.59942" lon="3.35398">
        <ele>51.501233</ele>
        <time>2020-07-05T18:47:19.606Z</time>
      </trkpt>
      <trkpt lat="50.59982" lon="3.35642">
        <ele>51.182388</ele>
        <time>2020-07-05T18:47:50.891Z</time>
      </trkpt>
      <trkpt lat="50.59988" lon="3.35706">
        <ele>51.053193</ele>
        <time>2020-07-05T18:47:58.592Z</time>
      </trkpt>
      <trkpt lat="50.5999" lon="3.35728">
        <ele>51.008949</ele>
        <time>2020-07-05T18:48:01.247Z</time>
      </trkpt>
      <trkpt lat="50.59995" lon="3.35812">
        <ele>50.718177</ele>
        <time>2020-07-05T18:48:11.373Z</time>
      </trkpt>
      <trkpt lat="50.6" lon="3.35926">
        <ele>50.034359</ele>
        <time>2020-07-05T18:48:24.273Z</time>
      </trkpt>
      <trkpt lat="50.60016" lon="3.36054">
        <ele>49.25418</ele>
        <time>2020-07-05T18:48:38.591Z</time>
      </trkpt>
      <trkpt lat="50.60022" lon="3.36064">
        <ele>49.154668</ele>
        <time>2020-07-05T18:48:40.070Z</time>
      </trkpt>
      <trkpt lat="50.60027" lon="3.36076">
        <ele>48.99621</ele>
        <time>2020-07-05T18:48:41.623Z</time>
      </trkpt>
      <trkpt lat="50.60065" lon="3.3632">
        <ele>46.413517</ele>
        <time>2020-07-05T18:49:07.469Z</time>
      </trkpt>
      <trkpt lat="50.60111" lon="3.36508">
        <ele>43.994458</ele>
        <time>2020-07-05T18:49:27.730Z</time>
      </trkpt>
      <trkpt lat="50.60157" lon="3.3676">
        <ele>41.357525</ele>
        <time>2020-07-05T18:49:54.237Z</time>
      </trkpt>
      <trkpt lat="50.60217" lon="3.36949">
        <ele>40.535996</ele>
        <time>2020-07-05T18:50:18.699Z</time>
      </trkpt>
      <trkpt lat="50.60218" lon="3.36959">
        <ele>40.5583</ele>
        <time>2020-07-05T18:50:19.819Z</time>
      </trkpt>
      <trkpt lat="50.60215" lon="3.36995">
        <ele>40.6355</ele>
        <time>2020-07-05T18:50:25.089Z</time>
      </trkpt>
      <trkpt lat="50.60218" lon="3.37141">
        <ele>40.984948</ele>
        <time>2020-07-05T18:50:47.275Z</time>
      </trkpt>
      <trkpt lat="50.60245" lon="3.37308">
        <ele>42.613058</ele>
        <time>2020-07-05T18:51:16.542Z</time>
      </trkpt>
      <trkpt lat="50.60251" lon="3.37324">
        <ele>42.793337</ele>
        <time>2020-07-05T18:51:19.978Z</time>
      </trkpt>
      <trkpt lat="50.60245" lon="3.37336">
        <ele>42.932283</ele>
        <time>2020-07-05T18:51:22.333Z</time>
      </trkpt>
      <trkpt lat="50.60109" lon="3.3754">
        <ele>45.528728</ele>
        <time>2020-07-05T18:52:10.583Z</time>
      </trkpt>
      <trkpt lat="50.60105" lon="3.37547">
        <ele>45.604776</ele>
        <time>2020-07-05T18:52:12.263Z</time>
      </trkpt>
      <trkpt lat="50.60102" lon="3.37544">
        <ele>45.658203</ele>
        <time>2020-07-05T18:52:13.243Z</time>
      </trkpt>
      <trkpt lat="50.60098" lon="3.37544">
        <ele>45.712167</ele>
        <time>2020-07-05T18:52:14.165Z</time>
      </trkpt>
      <trkpt lat="50.60094" lon="3.37547">
        <ele>45.76633</ele>
        <time>2020-07-05T18:52:15.145Z</time>
      </trkpt>
      <trkpt lat="50.60092" lon="3.37551">
        <ele>45.812303</ele>
        <time>2020-07-05T18:52:15.906Z</time>
      </trkpt>
      <trkpt lat="50.60091" lon="3.37561">
        <ele>45.90201</ele>
        <time>2020-07-05T18:52:17.438Z</time>
      </trkpt>
      <trkpt lat="50.60093" lon="3.37566">
        <ele>45.947244</ele>
        <time>2020-07-05T18:52:18.194Z</time>
      </trkpt>
      <trkpt lat="50.60085" lon="3.37571">
        <ele>46.05906</ele>
        <time>2020-07-05T18:52:20.660Z</time>
      </trkpt>
      <trkpt lat="50.59961" lon="3.37761">
        <ele>48.022181</ele>
        <time>2020-07-05T18:53:03.672Z</time>
      </trkpt>
      <trkpt lat="50.59956" lon="3.37765">
        <ele>48.077372</ele>
        <time>2020-07-05T18:53:05.070Z</time>
      </trkpt>
      <trkpt lat="50.59948" lon="3.37772">
        <ele>48.164179</ele>
        <time>2020-07-05T18:53:06.658Z</time>
      </trkpt>
      <trkpt lat="50.59829" lon="3.37872">
        <ele>49.310758</ele>
        <time>2020-07-05T18:53:31.592Z</time>
      </trkpt>
      <trkpt lat="50.59825" lon="3.37876">
        <ele>49.354344</ele>
        <time>2020-07-05T18:53:32.511Z</time>
      </trkpt>
      <trkpt lat="50.5979" lon="3.37915">
        <ele>49.659277</ele>
        <time>2020-07-05T18:53:39.869Z</time>
      </trkpt>
      <trkpt lat="50.59718" lon="3.38002">
        <ele>49.945569</ele>
        <time>2020-07-05T18:53:55.427Z</time>
      </trkpt>
      <trkpt lat="50.5971" lon="3.38016">
        <ele>49.981703</ele>
        <time>2020-07-05T18:53:57.579Z</time>
      </trkpt>
      <trkpt lat="50.59714" lon="3.3802">
        <ele>49.996144</ele>
        <time>2020-07-05T18:53:58.307Z</time>
      </trkpt>
      <trkpt lat="50.59746" lon="3.3805">
        <ele>50.113491</ele>
        <time>2020-07-05T18:54:04.379Z</time>
      </trkpt>
      <trkpt lat="50.59869" lon="3.38139">
        <ele>49.231528</ele>
        <time>2020-07-05T18:54:21.464Z</time>
      </trkpt>
      <trkpt lat="50.59856" lon="3.38166">
        <ele>49.043809</ele>
        <time>2020-07-05T18:54:24.001Z</time>
      </trkpt>
      <trkpt lat="50.59818" lon="3.38229">
        <ele>48.524809</ele>
        <time>2020-07-05T18:54:30.639Z</time>
      </trkpt>
      <trkpt lat="50.59812" lon="3.38236">
        <ele>48.416026</ele>
        <time>2020-07-05T18:54:31.535Z</time>
      </trkpt>
      <trkpt lat="50.59753" lon="3.38333">
        <ele>47.212692</ele>
        <time>2020-07-05T18:54:41.465Z</time>
      </trkpt>
      <trkpt lat="50.59746" lon="3.38349">
        <ele>47.032979</ele>
        <time>2020-07-05T18:54:42.948Z</time>
      </trkpt>
      <trkpt lat="50.597" lon="3.38465">
        <ele>45.683197</ele>
        <time>2020-07-05T18:54:53.045Z</time>
      </trkpt>
      <trkpt lat="50.59646" lon="3.38612">
        <ele>43.465624</ele>
        <time>2020-07-05T18:55:04.838Z</time>
      </trkpt>
      <trkpt lat="50.5962" lon="3.38646">
        <ele>42.769027</ele>
        <time>2020-07-05T18:55:08.447Z</time>
      </trkpt>
      <trkpt lat="50.59572" lon="3.38708">
        <ele>41.311995</ele>
        <time>2020-07-05T18:55:15.057Z</time>
      </trkpt>
      <trkpt lat="50.5948" lon="3.38826">
        <ele>38.396275</ele>
        <time>2020-07-05T18:55:27.621Z</time>
      </trkpt>
      <trkpt lat="50.59451" lon="3.38861">
        <ele>37.450415</ele>
        <time>2020-07-05T18:55:31.511Z</time>
      </trkpt>
      <trkpt lat="50.59418" lon="3.38902">
        <ele>36.316239</ele>
        <time>2020-07-05T18:55:35.953Z</time>
      </trkpt>
      <trkpt lat="50.59405" lon="3.38917">
        <ele>35.869161</ele>
        <time>2020-07-05T18:55:37.692Z</time>
      </trkpt>
      <trkpt lat="50.59389" lon="3.38926">
        <ele>35.421729</ele>
        <time>2020-07-05T18:55:39.408Z</time>
      </trkpt>
      <trkpt lat="50.59362" lon="3.38944">
        <ele>34.628442</ele>
        <time>2020-07-05T18:55:42.455Z</time>
      </trkpt>
      <trkpt lat="50.59229" lon="3.39027">
        <ele>30.875406</ele>
        <time>2020-07-05T18:55:57.240Z</time>
      </trkpt>
      <trkpt lat="50.59092" lon="3.39122">
        <ele>27.929916</ele>
        <time>2020-07-05T18:56:13.336Z</time>
      </trkpt>
      <trkpt lat="50.58909" lon="3.39304">
        <ele>27.243775</ele>
        <time>2020-07-05T18:56:42.610Z</time>
      </trkpt>
      <trkpt lat="50.58904" lon="3.39309">
        <ele>27.279803</ele>
        <time>2020-07-05T18:56:43.875Z</time>
      </trkpt>
      <trkpt lat="50.58887" lon="3.39326">
        <ele>27.400854</ele>
        <time>2020-07-05T18:56:47.557Z</time>
      </trkpt>
      <trkpt lat="50.58668" lon="3.3946">
        <ele>31.168734</ele>
        <time>2020-07-05T18:57:39.972Z</time>
      </trkpt>
      <trkpt lat="50.5858" lon="3.3949">
        <ele>33.484104</ele>
        <time>2020-07-05T18:58:02.596Z</time>
      </trkpt>
      <trkpt lat="50.58533" lon="3.39506">
        <ele>34.728284</ele>
        <time>2020-07-05T18:58:14.893Z</time>
      </trkpt>
      <trkpt lat="50.58484" lon="3.39527">
        <ele>36.076813</ele>
        <time>2020-07-05T18:58:28.145Z</time>
      </trkpt>
      <trkpt lat="50.58438" lon="3.3954">
        <ele>37.537311</ele>
        <time>2020-07-05T18:58:40.326Z</time>
      </trkpt>
      <trkpt lat="50.58257" lon="3.39525">
        <ele>43.38905</ele>
        <time>2020-07-05T18:59:30.567Z</time>
      </trkpt>
      <trkpt lat="50.58256" lon="3.39525">
        <ele>43.455696</ele>
        <time>2020-07-05T18:59:31.778Z</time>
      </trkpt>
      <trkpt lat="50.57849" lon="3.39497">
        <ele>57.393128</ele>
        <time>2020-07-05T19:01:29.272Z</time>
      </trkpt>
      <trkpt lat="50.57822" lon="3.39482">
        <ele>58.317398</ele>
        <time>2020-07-05T19:01:37.259Z</time>
      </trkpt>
      <trkpt lat="50.57736" lon="3.39415">
        <ele>60.752402</ele>
        <time>2020-07-05T19:02:01.875Z</time>
      </trkpt>
      <trkpt lat="50.57696" lon="3.39395">
        <ele>61.46211</ele>
        <time>2020-07-05T19:02:11.464Z</time>
      </trkpt>
      <trkpt lat="50.57647" lon="3.39385">
        <ele>62.305277</ele>
        <time>2020-07-05T19:02:22.022Z</time>
      </trkpt>
      <trkpt lat="50.57541" lon="3.39409">
        <ele>62.869978</ele>
        <time>2020-07-05T19:02:40.148Z</time>
      </trkpt>
      <trkpt lat="50.57506" lon="3.39426">
        <ele>62.74892</ele>
        <time>2020-07-05T19:02:45.298Z</time>
      </trkpt>
      <trkpt lat="50.57486" lon="3.39435">
        <ele>62.682121</ele>
        <time>2020-07-05T19:02:47.957Z</time>
      </trkpt>
      <trkpt lat="50.57308" lon="3.39461">
        <ele>60.725957</ele>
        <time>2020-07-05T19:03:09.257Z</time>
      </trkpt>
      <trkpt lat="50.57273" lon="3.39465">
        <ele>60.196654</ele>
        <time>2020-07-05T19:03:13.242Z</time>
      </trkpt>
      <trkpt lat="50.57394" lon="3.40253">
        <ele>48.89368</ele>
        <time>2020-07-05T19:04:08.602Z</time>
      </trkpt>
      <trkpt lat="50.57448" lon="3.40598">
        <ele>45.664552</ele>
        <time>2020-07-05T19:04:35.110Z</time>
      </trkpt>
      <trkpt lat="50.57553" lon="3.41271">
        <ele>42.846183</ele>
        <time>2020-07-05T19:05:31.976Z</time>
      </trkpt>
      <trkpt lat="50.57572" lon="3.41258">
        <ele>42.776494</ele>
        <time>2020-07-05T19:05:34.778Z</time>
      </trkpt>
      <trkpt lat="50.57683" lon="3.41203">
        <ele>42.6684</ele>
        <time>2020-07-05T19:05:51.638Z</time>
      </trkpt>
      <trkpt lat="50.57882" lon="3.41132">
        <ele>43.820514</ele>
        <time>2020-07-05T19:06:27.544Z</time>
      </trkpt>
      <trkpt lat="50.57959" lon="3.41104">
        <ele>44.38906</ele>
        <time>2020-07-05T19:06:42.156Z</time>
      </trkpt>
      <trkpt lat="50.57965" lon="3.41102">
        <ele>44.432266</ele>
        <time>2020-07-05T19:06:43.268Z</time>
      </trkpt>
      <trkpt lat="50.5816" lon="3.41023">
        <ele>45.233935</ele>
        <time>2020-07-05T19:07:16.428Z</time>
      </trkpt>
      <trkpt lat="50.58273" lon="3.40976">
        <ele>44.810535</ele>
        <time>2020-07-05T19:07:32.882Z</time>
      </trkpt>
      <trkpt lat="50.58293" lon="3.40966">
        <ele>44.713112</ele>
        <time>2020-07-05T19:07:35.704Z</time>
      </trkpt>
      <trkpt lat="50.58555" lon="3.41295">
        <ele>41.490343</ele>
        <time>2020-07-05T19:08:33.266Z</time>
      </trkpt>
      <trkpt lat="50.58575" lon="3.41319">
        <ele>41.23104</ele>
        <time>2020-07-05T19:08:37.655Z</time>
      </trkpt>
      <trkpt lat="50.58733" lon="3.41513">
        <ele>39.370659</ele>
        <time>2020-07-05T19:09:13.358Z</time>
      </trkpt>
      <trkpt lat="50.5886" lon="3.41673">
        <ele>37.115513</ele>
        <time>2020-07-05T19:09:41.049Z</time>
      </trkpt>
      <trkpt lat="50.58749" lon="3.41943">
        <ele>32.43578</ele>
        <time>2020-07-05T19:10:12.520Z</time>
      </trkpt>
      <trkpt lat="50.58782" lon="3.41999">
        <ele>31.055862</ele>
        <time>2020-07-05T19:10:19.633Z</time>
      </trkpt>
      <trkpt lat="50.58797" lon="3.4205">
        <ele>29.904598</ele>
        <time>2020-07-05T19:10:24.635Z</time>
      </trkpt>
      <trkpt lat="50.58835" lon="3.42101">
        <ele>28.27362</ele>
        <time>2020-07-05T19:10:31.583Z</time>
      </trkpt>
      <trkpt lat="50.58884" lon="3.42122">
        <ele>26.582385</ele>
        <time>2020-07-05T19:10:39.285Z</time>
      </trkpt>
      <trkpt lat="50.58889" lon="3.42126">
        <ele>26.425653</ele>
        <time>2020-07-05T19:10:39.901Z</time>
      </trkpt>
      <trkpt lat="50.58896" lon="3.42133">
        <ele>26.144904</ele>
        <time>2020-07-05T19:10:41.084Z</time>
      </trkpt>
      <trkpt lat="50.58911" lon="3.42148">
        <ele>25.68929</ele>
        <time>2020-07-05T19:10:44.276Z</time>
      </trkpt>
      <trkpt lat="50.58923" lon="3.42171">
        <ele>25.403624</ele>
        <time>2020-07-05T19:10:47.101Z</time>
      </trkpt>
      <trkpt lat="50.58951" lon="3.42216">
        <ele>24.828895</ele>
        <time>2020-07-05T19:10:53.381Z</time>
      </trkpt>
      <trkpt lat="50.58949" lon="3.42218">
        <ele>24.805714</ele>
        <time>2020-07-05T19:10:53.786Z</time>
      </trkpt>
      <trkpt lat="50.58939" lon="3.42226">
        <ele>24.639562</ele>
        <time>2020-07-05T19:10:55.464Z</time>
      </trkpt>
      <trkpt lat="50.58874" lon="3.42283">
        <ele>23.558006</ele>
        <time>2020-07-05T19:11:03.908Z</time>
      </trkpt>
      <trkpt lat="50.58859" lon="3.42302">
        <ele>23.279189</ele>
        <time>2020-07-05T19:11:06.391Z</time>
      </trkpt>
      <trkpt lat="50.588" lon="3.42427">
        <ele>23.116962</ele>
        <time>2020-07-05T19:11:23.171Z</time>
      </trkpt>
      <trkpt lat="50.58771" lon="3.42463">
        <ele>23.096749</ele>
        <time>2020-07-05T19:11:28.654Z</time>
      </trkpt>
      <trkpt lat="50.58762" lon="3.42474">
        <ele>23.090624</ele>
        <time>2020-07-05T19:11:30.333Z</time>
      </trkpt>
      <trkpt lat="50.58705" lon="3.42549">
        <ele>22.885215</ele>
        <time>2020-07-05T19:11:40.171Z</time>
      </trkpt>
      <trkpt lat="50.58682" lon="3.42584">
        <ele>22.711089</ele>
        <time>2020-07-05T19:11:44.291Z</time>
      </trkpt>
      <trkpt lat="50.58548" lon="3.42867">
        <ele>22.159604</ele>
        <time>2020-07-05T19:12:13.863Z</time>
      </trkpt>
      <trkpt lat="50.58532" lon="3.42893">
        <ele>22.174033</ele>
        <time>2020-07-05T19:12:17.232Z</time>
      </trkpt>
      <trkpt lat="50.58526" lon="3.42903">
        <ele>22.17935</ele>
        <time>2020-07-05T19:12:18.896Z</time>
      </trkpt>
      <trkpt lat="50.5852" lon="3.42912">
        <ele>22.184797</ele>
        <time>2020-07-05T19:12:20.549Z</time>
      </trkpt>
      <trkpt lat="50.58514" lon="3.42922">
        <ele>22.190288</ele>
        <time>2020-07-05T19:12:22.131Z</time>
      </trkpt>
      <trkpt lat="50.58505" lon="3.42937">
        <ele>22.198487</ele>
        <time>2020-07-05T19:12:24.673Z</time>
      </trkpt>
      <trkpt lat="50.58463" lon="3.42999">
        <ele>23.184068</ele>
        <time>2020-07-05T19:12:36.694Z</time>
      </trkpt>
      <trkpt lat="50.58428" lon="3.43047">
        <ele>24.097044</ele>
        <time>2020-07-05T19:12:47.232Z</time>
      </trkpt>
      <trkpt lat="50.584" lon="3.43087">
        <ele>24.847441</ele>
        <time>2020-07-05T19:12:57.008Z</time>
      </trkpt>
      <trkpt lat="50.58283" lon="3.43223">
        <ele>27.047291</ele>
        <time>2020-07-05T19:13:31.935Z</time>
      </trkpt>
      <trkpt lat="50.58237" lon="3.43268">
        <ele>27.744614</ele>
        <time>2020-07-05T19:13:41.026Z</time>
      </trkpt>
      <trkpt lat="50.58228" lon="3.43276">
        <ele>27.870991</ele>
        <time>2020-07-05T19:13:42.394Z</time>
      </trkpt>
      <trkpt lat="50.58196" lon="3.43306">
        <ele>27.893185</ele>
        <time>2020-07-05T19:13:47.596Z</time>
      </trkpt>
      <trkpt lat="50.58189" lon="3.43312">
        <ele>27.820423</ele>
        <time>2020-07-05T19:13:48.652Z</time>
      </trkpt>
      <trkpt lat="50.58139" lon="3.43358">
        <ele>27.312132</ele>
        <time>2020-07-05T19:13:55.590Z</time>
      </trkpt>
      <trkpt lat="50.58116" lon="3.43383">
        <ele>27.065082</ele>
        <time>2020-07-05T19:13:58.876Z</time>
      </trkpt>
      <trkpt lat="50.58071" lon="3.43441">
        <ele>26.547791</ele>
        <time>2020-07-05T19:14:05.781Z</time>
      </trkpt>
      <trkpt lat="50.58042" lon="3.43475">
        <ele>26.536454</ele>
        <time>2020-07-05T19:14:10.314Z</time>
      </trkpt>
      <trkpt lat="50.58034" lon="3.43484">
        <ele>26.55099</ele>
        <time>2020-07-05T19:14:11.677Z</time>
      </trkpt>
      <trkpt lat="50.58026" lon="3.43491">
        <ele>26.56464</ele>
        <time>2020-07-05T19:14:13.034Z</time>
      </trkpt>
      <trkpt lat="50.57998" lon="3.43511">
        <ele>26.610062</ele>
        <time>2020-07-05T19:14:17.350Z</time>
      </trkpt>
      <trkpt lat="50.57973" lon="3.43521">
        <ele>26.648918</ele>
        <time>2020-07-05T19:14:21.542Z</time>
      </trkpt>
      <trkpt lat="50.57906" lon="3.43536">
        <ele>26.748908</ele>
        <time>2020-07-05T19:14:33.370Z</time>
      </trkpt>
      <trkpt lat="50.57881" lon="3.43554">
        <ele>26.878661</ele>
        <time>2020-07-05T19:14:39.217Z</time>
      </trkpt>
      <trkpt lat="50.5781" lon="3.43654">
        <ele>27.436347</ele>
        <time>2020-07-05T19:14:56.566Z</time>
      </trkpt>
      <trkpt lat="50.57809" lon="3.43668">
        <ele>27.486774</ele>
        <time>2020-07-05T19:14:58.488Z</time>
      </trkpt>
      <trkpt lat="50.5781" lon="3.43681">
        <ele>27.536676</ele>
        <time>2020-07-05T19:14:59.648Z</time>
      </trkpt>
      <trkpt lat="50.57825" lon="3.43755">
        <ele>27.771029</ele>
        <time>2020-07-05T19:15:07.766Z</time>
      </trkpt>
      <trkpt lat="50.57824" lon="3.4377">
        <ele>27.623322</ele>
        <time>2020-07-05T19:15:09.169Z</time>
      </trkpt>
      <trkpt lat="50.57821" lon="3.43781">
        <ele>27.511247</ele>
        <time>2020-07-05T19:15:10.463Z</time>
      </trkpt>
      <trkpt lat="50.57788" lon="3.43818">
        <ele>26.898799</ele>
        <time>2020-07-05T19:15:15.254Z</time>
      </trkpt>
      <trkpt lat="50.57788" lon="3.43818">
        <ele>26.898799</ele>
        <time>2020-07-05T19:15:15.255Z</time>
      </trkpt>
      <trkpt lat="50.57725" lon="3.43853">
        <ele>25.897419</ele>
        <time>2020-07-05T19:15:22.656Z</time>
      </trkpt>
      <trkpt lat="50.5768" lon="3.43896">
        <ele>25.109085</ele>
        <time>2020-07-05T19:15:28.294Z</time>
      </trkpt>
      <trkpt lat="50.57669" lon="3.43905">
        <ele>24.819037</ele>
        <time>2020-07-05T19:15:29.726Z</time>
      </trkpt>
      <trkpt lat="50.57659" lon="3.43913">
        <ele>24.561286</ele>
        <time>2020-07-05T19:15:30.819Z</time>
      </trkpt>
      <trkpt lat="50.57543" lon="3.43966">
        <ele>21.764893</ele>
        <time>2020-07-05T19:15:43.723Z</time>
      </trkpt>
      <trkpt lat="50.5749" lon="3.43983">
        <ele>20.690401</ele>
        <time>2020-07-05T19:15:49.512Z</time>
      </trkpt>
      <trkpt lat="50.57433" lon="3.43999">
        <ele>19.911386</ele>
        <time>2020-07-05T19:15:56.181Z</time>
      </trkpt>
      <trkpt lat="50.57352" lon="3.44022">
        <ele>18.785809</ele>
        <time>2020-07-05T19:16:06.130Z</time>
      </trkpt>
      <trkpt lat="50.57069" lon="3.44105">
        <ele>16.692274</ele>
        <time>2020-07-05T19:16:42.645Z</time>
      </trkpt>
      <trkpt lat="50.57006" lon="3.44111">
        <ele>16.421472</ele>
        <time>2020-07-05T19:16:51.825Z</time>
      </trkpt>
      <trkpt lat="50.56984" lon="3.4411">
        <ele>16.329197</ele>
        <time>2020-07-05T19:16:55.073Z</time>
      </trkpt>
      <trkpt lat="50.56941" lon="3.44107">
        <ele>16.171989</ele>
        <time>2020-07-05T19:17:00.944Z</time>
      </trkpt>
      <trkpt lat="50.56897" lon="3.44104">
        <ele>16.016909</ele>
        <time>2020-07-05T19:17:06.875Z</time>
      </trkpt>
      <trkpt lat="50.56843" lon="3.441">
        <ele>15.827798</ele>
        <time>2020-07-05T19:17:14.067Z</time>
      </trkpt>
      <trkpt lat="50.56836" lon="3.44099">
        <ele>15.800545</ele>
        <time>2020-07-05T19:17:15.160Z</time>
      </trkpt>
      <trkpt lat="50.56831" lon="3.44106">
        <ele>15.778339</ele>
        <time>2020-07-05T19:17:15.916Z</time>
      </trkpt>
      <trkpt lat="50.5682" lon="3.44116">
        <ele>15.734998</ele>
        <time>2020-07-05T19:17:17.515Z</time>
      </trkpt>
      <trkpt lat="50.56792" lon="3.44115">
        <ele>15.690376</ele>
        <time>2020-07-05T19:17:21.314Z</time>
      </trkpt>
      <trkpt lat="50.56779" lon="3.44116">
        <ele>15.744357</ele>
        <time>2020-07-05T19:17:23.186Z</time>
      </trkpt>
      <trkpt lat="50.56759" lon="3.44133">
        <ele>15.832936</ele>
        <time>2020-07-05T19:17:26.377Z</time>
      </trkpt>
      <trkpt lat="50.56754" lon="3.44146">
        <ele>15.872113</ele>
        <time>2020-07-05T19:17:28.121Z</time>
      </trkpt>
      <trkpt lat="50.56751" lon="3.44163">
        <ele>15.917326</ele>
        <time>2020-07-05T19:17:30.116Z</time>
      </trkpt>
      <trkpt lat="50.56749" lon="3.44176">
        <ele>15.951275</ele>
        <time>2020-07-05T19:17:31.330Z</time>
      </trkpt>
      <trkpt lat="50.56742" lon="3.44277">
        <ele>16.206913</ele>
        <time>2020-07-05T19:17:42.658Z</time>
      </trkpt>
      <trkpt lat="50.5674" lon="3.44333">
        <ele>16.349047</ele>
        <time>2020-07-05T19:17:49.184Z</time>
      </trkpt>
      <trkpt lat="50.56742" lon="3.44362">
        <ele>16.46377</ele>
        <time>2020-07-05T19:17:52.312Z</time>
      </trkpt>
      <trkpt lat="50.56743" lon="3.44376">
        <ele>16.536778</ele>
        <time>2020-07-05T19:17:54.528Z</time>
      </trkpt>
      <trkpt lat="50.56754" lon="3.44472">
        <ele>17.017059</ele>
        <time>2020-07-05T19:18:05.059Z</time>
      </trkpt>
      <trkpt lat="50.56754" lon="3.44476">
        <ele>17.035384</ele>
        <time>2020-07-05T19:18:06.137Z</time>
      </trkpt>
      <trkpt lat="50.56746" lon="3.44474">
        <ele>17.096604</ele>
        <time>2020-07-05T19:18:08.014Z</time>
      </trkpt>
      <trkpt lat="50.5673" lon="3.44467">
        <ele>17.226384</ele>
        <time>2020-07-05T19:18:11.404Z</time>
      </trkpt>
      <trkpt lat="50.56727" lon="3.44465">
        <ele>17.252484</ele>
        <time>2020-07-05T19:18:12.086Z</time>
      </trkpt>
      <trkpt lat="50.56704" lon="3.4445">
        <ele>17.441891</ele>
        <time>2020-07-05T19:18:17.555Z</time>
      </trkpt>
      <trkpt lat="50.56658" lon="3.44416">
        <ele>18.041503</ele>
        <time>2020-07-05T19:18:28.503Z</time>
      </trkpt>
      <trkpt lat="50.56598" lon="3.44335">
        <ele>20.751553</ele>
        <time>2020-07-05T19:18:50.501Z</time>
      </trkpt>
      <trkpt lat="50.56583" lon="3.44325">
        <ele>21.299602</ele>
        <time>2020-07-05T19:18:55.749Z</time>
      </trkpt>
      <trkpt lat="50.56585" lon="3.44344">
        <ele>21.712057</ele>
        <time>2020-07-05T19:19:00.503Z</time>
      </trkpt>
      <trkpt lat="50.56576" lon="3.44348">
        <ele>22.021194</ele>
        <time>2020-07-05T19:19:04.323Z</time>
      </trkpt>
      <trkpt lat="50.56576" lon="3.44349">
        <ele>22.03613</ele>
        <time>2020-07-05T19:19:04.564Z</time>
      </trkpt>
      <trkpt lat="50.56564" lon="3.44376">
        <ele>22.754866</ele>
        <time>2020-07-05T19:19:13.093Z</time>
      </trkpt>
      <trkpt lat="50.5655" lon="3.44421">
        <ele>23.836051</ele>
        <time>2020-07-05T19:19:26.743Z</time>
      </trkpt>
      <trkpt lat="50.5654" lon="3.44454">
        <ele>25.204473</ele>
        <time>2020-07-05T19:19:37.419Z</time>
      </trkpt>
      <trkpt lat="50.5654" lon="3.44508">
        <ele>27.327706</ele>
        <time>2020-07-05T19:19:53.499Z</time>
      </trkpt>
      <trkpt lat="50.56496" lon="3.44567">
        <ele>30.873442</ele>
        <time>2020-07-05T19:20:21.541Z</time>
      </trkpt>
      <trkpt lat="50.56499" lon="3.44595">
        <ele>31.977229</ele>
        <time>2020-07-05T19:20:30.242Z</time>
      </trkpt>
      <trkpt lat="50.56519" lon="3.4465">
        <ele>34.450031</ele>
        <time>2020-07-05T19:20:48.818Z</time>
      </trkpt>
      <trkpt lat="50.56499" lon="3.44761">
        <ele>36.321883</ele>
        <time>2020-07-05T19:21:14.854Z</time>
      </trkpt>
      <trkpt lat="50.565" lon="3.44795">
        <ele>36.77488</ele>
        <time>2020-07-05T19:21:20.873Z</time>
      </trkpt>
      <trkpt lat="50.56506" lon="3.4481">
        <ele>36.99426</ele>
        <time>2020-07-05T19:21:23.473Z</time>
      </trkpt>
      <trkpt lat="50.56514" lon="3.44834">
        <ele>37.348633</ele>
        <time>2020-07-05T19:21:27.565Z</time>
      </trkpt>
      <trkpt lat="50.56517" lon="3.4487">
        <ele>37.816566</ele>
        <time>2020-07-05T19:21:32.715Z</time>
      </trkpt>
      <trkpt lat="50.56513" lon="3.44893">
        <ele>38.13397</ele>
        <time>2020-07-05T19:21:36.049Z</time>
      </trkpt>
      <trkpt lat="50.56507" lon="3.44911">
        <ele>38.401255</ele>
        <time>2020-07-05T19:21:38.740Z</time>
      </trkpt>
      <trkpt lat="50.56495" lon="3.44939">
        <ele>38.658092</ele>
        <time>2020-07-05T19:21:43.020Z</time>
      </trkpt>
      <trkpt lat="50.56486" lon="3.4496">
        <ele>38.577211</ele>
        <time>2020-07-05T19:21:46.101Z</time>
      </trkpt>
      <trkpt lat="50.56475" lon="3.44988">
        <ele>38.472897</ele>
        <time>2020-07-05T19:21:49.982Z</time>
      </trkpt>
      <trkpt lat="50.56522" lon="3.45022">
        <ele>38.213003</ele>
        <time>2020-07-05T19:21:56.339Z</time>
      </trkpt>
      <trkpt lat="50.56613" lon="3.45078">
        <ele>37.796519</ele>
        <time>2020-07-05T19:22:09.041Z</time>
      </trkpt>
      <trkpt lat="50.56618" lon="3.45081">
        <ele>37.800062</ele>
        <time>2020-07-05T19:22:09.741Z</time>
      </trkpt>
      <trkpt lat="50.56628" lon="3.45089">
        <ele>37.80657</ele>
        <time>2020-07-05T19:22:11.239Z</time>
      </trkpt>
      <trkpt lat="50.56687" lon="3.45128">
        <ele>37.844332</ele>
        <time>2020-07-05T19:22:21.059Z</time>
      </trkpt>
      <trkpt lat="50.56736" lon="3.45141">
        <ele>37.873592</ele>
        <time>2020-07-05T19:22:29.083Z</time>
      </trkpt>
      <trkpt lat="50.56734" lon="3.4516">
        <ele>37.880914</ele>
        <time>2020-07-05T19:22:31.296Z</time>
      </trkpt>
      <trkpt lat="50.56726" lon="3.45246">
        <ele>37.997703</ele>
        <time>2020-07-05T19:22:39.515Z</time>
      </trkpt>
      <trkpt lat="50.56725" lon="3.45255">
        <ele>38.017786</ele>
        <time>2020-07-05T19:22:40.746Z</time>
      </trkpt>
      <trkpt lat="50.56721" lon="3.45288">
        <ele>38.089007</ele>
        <time>2020-07-05T19:22:44.251Z</time>
      </trkpt>
      <trkpt lat="50.56717" lon="3.45305">
        <ele>38.127729</ele>
        <time>2020-07-05T19:22:46.121Z</time>
      </trkpt>
      <trkpt lat="50.56692" lon="3.45358">
        <ele>38.267091</ele>
        <time>2020-07-05T19:22:53.327Z</time>
      </trkpt>
      <trkpt lat="50.56687" lon="3.45375">
        <ele>38.305689</ele>
        <time>2020-07-05T19:22:55.376Z</time>
      </trkpt>
      <trkpt lat="50.56678" lon="3.45402">
        <ele>38.371837</ele>
        <time>2020-07-05T19:22:58.540Z</time>
      </trkpt>
      <trkpt lat="50.56672" lon="3.45419">
        <ele>38.41074</ele>
        <time>2020-07-05T19:23:00.420Z</time>
      </trkpt>
      <trkpt lat="50.56666" lon="3.45446">
        <ele>38.473033</ele>
        <time>2020-07-05T19:23:03.173Z</time>
      </trkpt>
      <trkpt lat="50.56661" lon="3.45471">
        <ele>38.5174</ele>
        <time>2020-07-05T19:23:06.909Z</time>
      </trkpt>
      <trkpt lat="50.5666" lon="3.45477">
        <ele>38.525898</ele>
        <time>2020-07-05T19:23:07.742Z</time>
      </trkpt>
      <trkpt lat="50.56657" lon="3.45526">
        <ele>38.594462</ele>
        <time>2020-07-05T19:23:13.934Z</time>
      </trkpt>
      <trkpt lat="50.56654" lon="3.45624">
        <ele>38.733672</ele>
        <time>2020-07-05T19:23:26.436Z</time>
      </trkpt>
      <trkpt lat="50.56653" lon="3.45662">
        <ele>38.786471</ele>
        <time>2020-07-05T19:23:31.573Z</time>
      </trkpt>
      <trkpt lat="50.56652" lon="3.45698">
        <ele>38.837358</ele>
        <time>2020-07-05T19:23:36.598Z</time>
      </trkpt>
      <trkpt lat="50.56648" lon="3.45704">
        <ele>38.849893</ele>
        <time>2020-07-05T19:23:37.895Z</time>
      </trkpt>
      <trkpt lat="50.5663" lon="3.45745">
        <ele>38.984498</ele>
        <time>2020-07-05T19:23:45.029Z</time>
      </trkpt>
      <trkpt lat="50.5664" lon="3.45755">
        <ele>39.077179</ele>
        <time>2020-07-05T19:23:47.811Z</time>
      </trkpt>
      <trkpt lat="50.56638" lon="3.45759">
        <ele>39.099766</ele>
        <time>2020-07-05T19:23:48.483Z</time>
      </trkpt>
      <trkpt lat="50.5664" lon="3.45761">
        <ele>39.122176</ele>
        <time>2020-07-05T19:23:49.153Z</time>
      </trkpt>
      <trkpt lat="50.56646" lon="3.45768">
        <ele>39.178987</ele>
        <time>2020-07-05T19:23:50.801Z</time>
      </trkpt>
      <trkpt lat="50.56648" lon="3.45762">
        <ele>39.211581</ele>
        <time>2020-07-05T19:23:51.748Z</time>
      </trkpt>
      <trkpt lat="50.56657" lon="3.45755">
        <ele>39.2872</ele>
        <time>2020-07-05T19:23:53.993Z</time>
      </trkpt>
      <trkpt lat="50.56666" lon="3.45768">
        <ele>39.381981</ele>
        <time>2020-07-05T19:23:56.845Z</time>
      </trkpt>
      <trkpt lat="50.56663" lon="3.45781">
        <ele>39.452276</ele>
        <time>2020-07-05T19:23:58.924Z</time>
      </trkpt>
      <trkpt lat="50.56653" lon="3.45787">
        <ele>39.535805</ele>
        <time>2020-07-05T19:24:01.402Z</time>
      </trkpt>
      <trkpt lat="50.5665" lon="3.45791">
        <ele>39.566741</ele>
        <time>2020-07-05T19:24:02.354Z</time>
      </trkpt>
      <trkpt lat="50.56646" lon="3.45858">
        <ele>39.898202</ele>
        <time>2020-07-05T19:24:12.597Z</time>
      </trkpt>
      <trkpt lat="50.56642" lon="3.45932">
        <ele>40.262116</ele>
        <time>2020-07-05T19:24:23.642Z</time>
      </trkpt>
      <trkpt lat="50.56638" lon="3.46002">
        <ele>40.455242</ele>
        <time>2020-07-05T19:24:33.994Z</time>
      </trkpt>
      <trkpt lat="50.56638" lon="3.461">
        <ele>40.701217</ele>
        <time>2020-07-05T19:24:48.638Z</time>
      </trkpt>
      <trkpt lat="50.5666" lon="3.46104">
        <ele>40.788924</ele>
        <time>2020-07-05T19:24:53.447Z</time>
      </trkpt>
      <trkpt lat="50.56658" lon="3.46128">
        <ele>40.851159</ele>
        <time>2020-07-05T19:24:55.887Z</time>
      </trkpt>
      <trkpt lat="50.56658" lon="3.46212">
        <ele>40.953202</ele>
        <time>2020-07-05T19:25:03.354Z</time>
      </trkpt>
      <trkpt lat="50.56658" lon="3.46245">
        <ele>40.881169</ele>
        <time>2020-07-05T19:25:06.180Z</time>
      </trkpt>
      <trkpt lat="50.56659" lon="3.46263">
        <ele>40.842167</ele>
        <time>2020-07-05T19:25:07.703Z</time>
      </trkpt>
      <trkpt lat="50.56659" lon="3.46275">
        <ele>40.814282</ele>
        <time>2020-07-05T19:25:08.796Z</time>
      </trkpt>
      <trkpt lat="50.5666" lon="3.46305">
        <ele>40.749916</ele>
        <time>2020-07-05T19:25:11.235Z</time>
      </trkpt>
      <trkpt lat="50.56661" lon="3.46326">
        <ele>40.704746</ele>
        <time>2020-07-05T19:25:12.944Z</time>
      </trkpt>
      <trkpt lat="50.56664" lon="3.46351">
        <ele>40.648106</ele>
        <time>2020-07-05T19:25:15.060Z</time>
      </trkpt>
      <trkpt lat="50.56668" lon="3.46401">
        <ele>40.540307</ele>
        <time>2020-07-05T19:25:19.221Z</time>
      </trkpt>
      <trkpt lat="50.56675" lon="3.46474">
        <ele>40.397432</ele>
        <time>2020-07-05T19:25:26.082Z</time>
      </trkpt>
      <trkpt lat="50.5668" lon="3.46522">
        <ele>40.537405</ele>
        <time>2020-07-05T19:25:30.583Z</time>
      </trkpt>
      <trkpt lat="50.56686" lon="3.46567">
        <ele>40.669215</ele>
        <time>2020-07-05T19:25:35.186Z</time>
      </trkpt>
      <trkpt lat="50.56689" lon="3.46595">
        <ele>40.750604</ele>
        <time>2020-07-05T19:25:38.107Z</time>
      </trkpt>
      <trkpt lat="50.56691" lon="3.4661">
        <ele>40.793826</ele>
        <time>2020-07-05T19:25:39.825Z</time>
      </trkpt>
      <trkpt lat="50.56694" lon="3.46624">
        <ele>40.834641</ele>
        <time>2020-07-05T19:25:41.265Z</time>
      </trkpt>
      <trkpt lat="50.56699" lon="3.46663">
        <ele>40.951399</ele>
        <time>2020-07-05T19:25:45.884Z</time>
      </trkpt>
      <trkpt lat="50.56713" lon="3.46753">
        <ele>41.226614</ele>
        <time>2020-07-05T19:25:56.440Z</time>
      </trkpt>
      <trkpt lat="50.56717" lon="3.46782">
        <ele>41.371339</ele>
        <time>2020-07-05T19:26:00.138Z</time>
      </trkpt>
      <trkpt lat="50.56742" lon="3.46947">
        <ele>42.19364</ele>
        <time>2020-07-05T19:26:19.992Z</time>
      </trkpt>
      <trkpt lat="50.56742" lon="3.47048">
        <ele>42.621767</ele>
        <time>2020-07-05T19:26:30.722Z</time>
      </trkpt>
      <trkpt lat="50.56732" lon="3.47191">
        <ele>42.940858</ele>
        <time>2020-07-05T19:26:45.190Z</time>
      </trkpt>
      <trkpt lat="50.56769" lon="3.47349">
        <ele>43.460637</ele>
        <time>2020-07-05T19:27:02.649Z</time>
      </trkpt>
      <trkpt lat="50.56774" lon="3.47365">
        <ele>43.54945</ele>
        <time>2020-07-05T19:27:04.592Z</time>
      </trkpt>
      <trkpt lat="50.56807" lon="3.47489">
        <ele>44.226036</ele>
        <time>2020-07-05T19:27:20.356Z</time>
      </trkpt>
      <trkpt lat="50.56812" lon="3.47507">
        <ele>44.324092</ele>
        <time>2020-07-05T19:27:22.601Z</time>
      </trkpt>
      <trkpt lat="50.56815" lon="3.47518">
        <ele>44.388141</ele>
        <time>2020-07-05T19:27:23.987Z</time>
      </trkpt>
      <trkpt lat="50.5682" lon="3.47528">
        <ele>44.452656</ele>
        <time>2020-07-05T19:27:25.804Z</time>
      </trkpt>
      <trkpt lat="50.56838" lon="3.47544">
        <ele>44.617266</ele>
        <time>2020-07-05T19:27:29.603Z</time>
      </trkpt>
      <trkpt lat="50.56882" lon="3.47565">
        <ele>45.008373</ele>
        <time>2020-07-05T19:27:38.286Z</time>
      </trkpt>
      <trkpt lat="50.569" lon="3.47571">
        <ele>45.16662</ele>
        <time>2020-07-05T19:27:41.974Z</time>
      </trkpt>
      <trkpt lat="50.56943" lon="3.476">
        <ele>45.563965</ele>
        <time>2020-07-05T19:27:50.601Z</time>
      </trkpt>
      <trkpt lat="50.56963" lon="3.47614">
        <ele>45.750322</ele>
        <time>2020-07-05T19:27:54.855Z</time>
      </trkpt>
      <trkpt lat="50.57008" lon="3.47669">
        <ele>46.183178</ele>
        <time>2020-07-05T19:28:04.544Z</time>
      </trkpt>
      <trkpt lat="50.57079" lon="3.47757">
        <ele>46.391604</ele>
        <time>2020-07-05T19:28:18.753Z</time>
      </trkpt>
      <trkpt lat="50.57106" lon="3.47799">
        <ele>46.480429</ele>
        <time>2020-07-05T19:28:24.465Z</time>
      </trkpt>
      <trkpt lat="50.57133" lon="3.47873">
        <ele>46.644007</ele>
        <time>2020-07-05T19:28:32.419Z</time>
      </trkpt>
      <trkpt lat="50.57171" lon="3.48065">
        <ele>47.341372</ele>
        <time>2020-07-05T19:28:53.902Z</time>
      </trkpt>
      <trkpt lat="50.57175" lon="3.4809">
        <ele>47.429414</ele>
        <time>2020-07-05T19:28:56.599Z</time>
      </trkpt>
      <trkpt lat="50.57179" lon="3.48099">
        <ele>47.469821</ele>
        <time>2020-07-05T19:28:58.266Z</time>
      </trkpt>
      <trkpt lat="50.57191" lon="3.48156">
        <ele>47.785899</ele>
        <time>2020-07-05T19:29:05.515Z</time>
      </trkpt>
      <trkpt lat="50.57235" lon="3.48362">
        <ele>49.218371</ele>
        <time>2020-07-05T19:29:33.272Z</time>
      </trkpt>
      <trkpt lat="50.5724" lon="3.48391">
        <ele>49.416518</ele>
        <time>2020-07-05T19:29:36.658Z</time>
      </trkpt>
      <trkpt lat="50.57246" lon="3.48417">
        <ele>49.356542</ele>
        <time>2020-07-05T19:29:39.288Z</time>
      </trkpt>
      <trkpt lat="50.57252" lon="3.48448">
        <ele>49.257601</ele>
        <time>2020-07-05T19:29:42.677Z</time>
      </trkpt>
      <trkpt lat="50.57263" lon="3.48501">
        <ele>49.087363</ele>
        <time>2020-07-05T19:29:49.731Z</time>
      </trkpt>
      <trkpt lat="50.57284" lon="3.48598">
        <ele>48.778853</ele>
        <time>2020-07-05T19:29:58.122Z</time>
      </trkpt>
      <trkpt lat="50.5728" lon="3.48625">
        <ele>48.695196</ele>
        <time>2020-07-05T19:30:00.157Z</time>
      </trkpt>
      <trkpt lat="50.57276" lon="3.48681">
        <ele>48.420445</ele>
        <time>2020-07-05T19:30:04.342Z</time>
      </trkpt>
      <trkpt lat="50.5726" lon="3.48755">
        <ele>47.691983</ele>
        <time>2020-07-05T19:30:10.001Z</time>
      </trkpt>
      <trkpt lat="50.57222" lon="3.48832">
        <ele>46.786002</ele>
        <time>2020-07-05T19:30:16.982Z</time>
      </trkpt>
      <trkpt lat="50.57001" lon="3.49062">
        <ele>43.521343</ele>
        <time>2020-07-05T19:30:48.687Z</time>
      </trkpt>
      <trkpt lat="50.56974" lon="3.49104">
        <ele>43.125602</ele>
        <time>2020-07-05T19:30:53.200Z</time>
      </trkpt>
      <trkpt lat="50.56949" lon="3.49173">
        <ele>42.598762</ele>
        <time>2020-07-05T19:30:59.239Z</time>
      </trkpt>
      <trkpt lat="50.56905" lon="3.49312">
        <ele>41.875456</ele>
        <time>2020-07-05T19:31:11.446Z</time>
      </trkpt>
      <trkpt lat="50.56868" lon="3.49408">
        <ele>41.75777</ele>
        <time>2020-07-05T19:31:21.588Z</time>
      </trkpt>
      <trkpt lat="50.56845" lon="3.49488">
        <ele>41.667098</ele>
        <time>2020-07-05T19:31:30.291Z</time>
      </trkpt>
      <trkpt lat="50.56826" lon="3.49569">
        <ele>41.631455</ele>
        <time>2020-07-05T19:31:39.407Z</time>
      </trkpt>
      <trkpt lat="50.56819" lon="3.49626">
        <ele>41.625902</ele>
        <time>2020-07-05T19:31:45.681Z</time>
      </trkpt>
      <trkpt lat="50.56822" lon="3.49679">
        <ele>41.62085</ele>
        <time>2020-07-05T19:31:51.299Z</time>
      </trkpt>
      <trkpt lat="50.56844" lon="3.49892">
        <ele>41.173552</ele>
        <time>2020-07-05T19:32:09.040Z</time>
      </trkpt>
      <trkpt lat="50.56776" lon="3.49917">
        <ele>40.703346</ele>
        <time>2020-07-05T19:32:17.674Z</time>
      </trkpt>
      <trkpt lat="50.56741" lon="3.49936">
        <ele>40.452164</ele>
        <time>2020-07-05T19:32:22.483Z</time>
      </trkpt>
      <trkpt lat="50.56657" lon="3.49993">
        <ele>40.922556</ele>
        <time>2020-07-05T19:32:35.221Z</time>
      </trkpt>
      <trkpt lat="50.56546" lon="3.50081">
        <ele>42.075181</ele>
        <time>2020-07-05T19:33:00.522Z</time>
      </trkpt>
      <trkpt lat="50.5653" lon="3.50101">
        <ele>42.473623</ele>
        <time>2020-07-05T19:33:05.634Z</time>
      </trkpt>
      <trkpt lat="50.56517" lon="3.50134">
        <ele>42.957489</ele>
        <time>2020-07-05T19:33:11.572Z</time>
      </trkpt>
      <trkpt lat="50.56505" lon="3.50233">
        <ele>44.20921</ele>
        <time>2020-07-05T19:33:26.255Z</time>
      </trkpt>
      <trkpt lat="50.56504" lon="3.50247">
        <ele>44.37885</ele>
        <time>2020-07-05T19:33:28.662Z</time>
      </trkpt>
      <trkpt lat="50.56503" lon="3.50273">
        <ele>44.70326</ele>
        <time>2020-07-05T19:33:32.419Z</time>
      </trkpt>
      <trkpt lat="50.56499" lon="3.50303">
        <ele>45.078331</ele>
        <time>2020-07-05T19:33:37.012Z</time>
      </trkpt>
      <trkpt lat="50.5649" lon="3.50369">
        <ele>45.619128</ele>
        <time>2020-07-05T19:33:46.705Z</time>
      </trkpt>
      <trkpt lat="50.56323" lon="3.50697">
        <ele>47.949611</ele>
        <time>2020-07-05T19:34:36.441Z</time>
      </trkpt>
      <trkpt lat="50.56305" lon="3.50756">
        <ele>48.14858</ele>
        <time>2020-07-05T19:34:42.200Z</time>
      </trkpt>
      <trkpt lat="50.56299" lon="3.50776">
        <ele>48.093781</ele>
        <time>2020-07-05T19:34:43.958Z</time>
      </trkpt>
      <trkpt lat="50.56272" lon="3.50886">
        <ele>47.153879</ele>
        <time>2020-07-05T19:34:53.087Z</time>
      </trkpt>
      <trkpt lat="50.56238" lon="3.50964">
        <ele>46.395328</ele>
        <time>2020-07-05T19:34:59.906Z</time>
      </trkpt>
      <trkpt lat="50.56151" lon="3.51083">
        <ele>45.597601</ele>
        <time>2020-07-05T19:35:13.057Z</time>
      </trkpt>
      <trkpt lat="50.56117" lon="3.51113">
        <ele>45.431562</ele>
        <time>2020-07-05T19:35:18.296Z</time>
      </trkpt>
      <trkpt lat="50.5601" lon="3.51144">
        <ele>46.261068</ele>
        <time>2020-07-05T19:35:38.093Z</time>
      </trkpt>
      <trkpt lat="50.55745" lon="3.51206">
        <ele>53.268909</ele>
        <time>2020-07-05T19:36:50.259Z</time>
      </trkpt>
      <trkpt lat="50.55735" lon="3.51208">
        <ele>53.582534</ele>
        <time>2020-07-05T19:36:52.989Z</time>
      </trkpt>
      <trkpt lat="50.55669" lon="3.51223">
        <ele>55.045446</ele>
        <time>2020-07-05T19:37:09.395Z</time>
      </trkpt>
      <trkpt lat="50.55641" lon="3.5123">
        <ele>55.43703</ele>
        <time>2020-07-05T19:37:15.726Z</time>
      </trkpt>
      <trkpt lat="50.55611" lon="3.51239">
        <ele>55.880526</ele>
        <time>2020-07-05T19:37:22.196Z</time>
      </trkpt>
      <trkpt lat="50.55559" lon="3.51267">
        <ele>56.659674</ele>
        <time>2020-07-05T19:37:32.440Z</time>
      </trkpt>
      <trkpt lat="50.55541" lon="3.51279">
        <ele>56.941063</ele>
        <time>2020-07-05T19:37:36.133Z</time>
      </trkpt>
      <trkpt lat="50.55539" lon="3.51274">
        <ele>56.994647</ele>
        <time>2020-07-05T19:37:36.753Z</time>
      </trkpt>
      <trkpt lat="50.55534" lon="3.51268">
        <ele>57.089629</ele>
        <time>2020-07-05T19:37:37.886Z</time>
      </trkpt>
      <trkpt lat="50.5553" lon="3.51268">
        <ele>57.134114</ele>
        <time>2020-07-05T19:37:38.359Z</time>
      </trkpt>
      <trkpt lat="50.55527" lon="3.51269">
        <ele>57.165794</ele>
        <time>2020-07-05T19:37:39.008Z</time>
      </trkpt>
      <trkpt lat="50.55521" lon="3.51278">
        <ele>57.151829</ele>
        <time>2020-07-05T19:37:40.452Z</time>
      </trkpt>
      <trkpt lat="50.5552" lon="3.51284">
        <ele>57.145012</ele>
        <time>2020-07-05T19:37:41.170Z</time>
      </trkpt>
      <trkpt lat="50.55518" lon="3.51293">
        <ele>57.135452</ele>
        <time>2020-07-05T19:37:42.184Z</time>
      </trkpt>
      <trkpt lat="50.55513" lon="3.513">
        <ele>57.124549</ele>
        <time>2020-07-05T19:37:43.203Z</time>
      </trkpt>
      <trkpt lat="50.55508" lon="3.51313">
        <ele>57.10867</ele>
        <time>2020-07-05T19:37:44.648Z</time>
      </trkpt>
      <trkpt lat="50.55464" lon="3.51357">
        <ele>57.022442</ele>
        <time>2020-07-05T19:37:52.546Z</time>
      </trkpt>
      <trkpt lat="50.55448" lon="3.51368">
        <ele>56.993604</ele>
        <time>2020-07-05T19:37:54.948Z</time>
      </trkpt>
      <trkpt lat="50.55416" lon="3.51399">
        <ele>56.930631</ele>
        <time>2020-07-05T19:38:00.064Z</time>
      </trkpt>
      <trkpt lat="50.5539" lon="3.51415">
        <ele>56.883778</ele>
        <time>2020-07-05T19:38:03.690Z</time>
      </trkpt>
      <trkpt lat="50.55361" lon="3.51418">
        <ele>56.559351</ele>
        <time>2020-07-05T19:38:07.214Z</time>
      </trkpt>
      <trkpt lat="50.55334" lon="3.51409">
        <ele>56.110993</ele>
        <time>2020-07-05T19:38:10.678Z</time>
      </trkpt>
      <trkpt lat="50.55057" lon="3.51176">
        <ele>50.872561</ele>
        <time>2020-07-05T19:38:45.506Z</time>
      </trkpt>
      <trkpt lat="50.55017" lon="3.51151">
        <ele>50.9</ele>
        <time>2020-07-05T19:38:50.562Z</time>
      </trkpt>
      <trkpt lat="50.54659" lon="3.50842">
        <ele>51.168543</ele>
        <time>2020-07-05T19:39:56.572Z</time>
      </trkpt>
      <trkpt lat="50.54519" lon="3.50719">
        <ele>50.96975</ele>
        <time>2020-07-05T19:40:19.112Z</time>
      </trkpt>
      <trkpt lat="50.54517" lon="3.50718">
        <ele>50.961878</ele>
        <time>2020-07-05T19:40:19.383Z</time>
      </trkpt>
      <trkpt lat="50.5447" lon="3.50681">
        <ele>50.77989</ele>
        <time>2020-07-05T19:40:26.265Z</time>
      </trkpt>
      <trkpt lat="50.54425" lon="3.50662">
        <ele>50.616812</ele>
        <time>2020-07-05T19:40:32.512Z</time>
      </trkpt>
      <trkpt lat="50.54405" lon="3.50659">
        <ele>50.55079</ele>
        <time>2020-07-05T19:40:35.287Z</time>
      </trkpt>
      <trkpt lat="50.54361" lon="3.5067">
        <ele>50.411699</ele>
        <time>2020-07-05T19:40:41.467Z</time>
      </trkpt>
      <trkpt lat="50.54335" lon="3.50681">
        <ele>50.330644</ele>
        <time>2020-07-05T19:40:45.141Z</time>
      </trkpt>
      <trkpt lat="50.54111" lon="3.50861">
        <ele>49.385878</ele>
        <time>2020-07-05T19:41:19.990Z</time>
      </trkpt>
      <trkpt lat="50.54087" lon="3.5088">
        <ele>49.240184</ele>
        <time>2020-07-05T19:41:23.347Z</time>
      </trkpt>
      <trkpt lat="50.54045" lon="3.50916">
        <ele>48.717558</ele>
        <time>2020-07-05T19:41:29.286Z</time>
      </trkpt>
      <trkpt lat="50.53986" lon="3.50962">
        <ele>48.002221</ele>
        <time>2020-07-05T19:41:37.202Z</time>
      </trkpt>
      <trkpt lat="50.5389" lon="3.51037">
        <ele>46.66972</ele>
        <time>2020-07-05T19:41:49.726Z</time>
      </trkpt>
      <trkpt lat="50.538" lon="3.51134">
        <ele>45.089494</ele>
        <time>2020-07-05T19:42:02.512Z</time>
      </trkpt>
      <trkpt lat="50.53793" lon="3.51141">
        <ele>44.976133</ele>
        <time>2020-07-05T19:42:03.360Z</time>
      </trkpt>
      <trkpt lat="50.53762" lon="3.51175">
        <ele>44.437377</ele>
        <time>2020-07-05T19:42:07.755Z</time>
      </trkpt>
      <trkpt lat="50.53609" lon="3.51345">
        <ele>41.731847</ele>
        <time>2020-07-05T19:42:29.641Z</time>
      </trkpt>
      <trkpt lat="50.53507" lon="3.51452">
        <ele>39.821064</ele>
        <time>2020-07-05T19:42:43.610Z</time>
      </trkpt>
      <trkpt lat="50.53463" lon="3.51504">
        <ele>38.962631</ele>
        <time>2020-07-05T19:42:49.736Z</time>
      </trkpt>
      <trkpt lat="50.53444" lon="3.51534">
        <ele>38.524453</ele>
        <time>2020-07-05T19:42:52.839Z</time>
      </trkpt>
      <trkpt lat="50.53411" lon="3.51602">
        <ele>37.660559</ele>
        <time>2020-07-05T19:42:58.947Z</time>
      </trkpt>
      <trkpt lat="50.53269" lon="3.51934">
        <ele>34.145732</ele>
        <time>2020-07-05T19:43:28.668Z</time>
      </trkpt>
      <trkpt lat="50.53219" lon="3.52013">
        <ele>33.863356</ele>
        <time>2020-07-05T19:43:37.591Z</time>
      </trkpt>
      <trkpt lat="50.53162" lon="3.52076">
        <ele>33.588428</ele>
        <time>2020-07-05T19:43:47.522Z</time>
      </trkpt>
      <trkpt lat="50.53142" lon="3.52096">
        <ele>33.496014</ele>
        <time>2020-07-05T19:43:51.103Z</time>
      </trkpt>
      <trkpt lat="50.53109" lon="3.51998">
        <ele>33.660925</ele>
        <time>2020-07-05T19:44:06.776Z</time>
      </trkpt>
      <trkpt lat="50.53098" lon="3.5196">
        <ele>33.760595</ele>
        <time>2020-07-05T19:44:12.840Z</time>
      </trkpt>
      <trkpt lat="50.53098" lon="3.51957">
        <ele>33.766272</ele>
        <time>2020-07-05T19:44:13.155Z</time>
      </trkpt>
      <trkpt lat="50.5309" lon="3.51933">
        <ele>33.829265</ele>
        <time>2020-07-05T19:44:16.857Z</time>
      </trkpt>
      <trkpt lat="50.5309" lon="3.51932">
        <ele>33.832905</ele>
        <time>2020-07-05T19:44:17.074Z</time>
      </trkpt>
      <trkpt lat="50.53085" lon="3.51914">
        <ele>33.879273</ele>
        <time>2020-07-05T19:44:19.811Z</time>
      </trkpt>
      <trkpt lat="50.53083" lon="3.51907">
        <ele>33.896989</ele>
        <time>2020-07-05T19:44:20.812Z</time>
      </trkpt>
      <trkpt lat="50.53076" lon="3.51886">
        <ele>33.95453</ele>
        <time>2020-07-05T19:44:24.080Z</time>
      </trkpt>
      <trkpt lat="50.53075" lon="3.51882">
        <ele>33.964003</ele>
        <time>2020-07-05T19:44:24.669Z</time>
      </trkpt>
      <trkpt lat="50.53058" lon="3.51826">
        <ele>34.111126</ele>
        <time>2020-07-05T19:44:33.275Z</time>
      </trkpt>
      <trkpt lat="50.5305" lon="3.5183">
        <ele>34.107244</ele>
        <time>2020-07-05T19:44:35.058Z</time>
      </trkpt>
      <trkpt lat="50.5304" lon="3.51833">
        <ele>34.093666</ele>
        <time>2020-07-05T19:44:37.280Z</time>
      </trkpt>
      <trkpt lat="50.53017" lon="3.51852">
        <ele>34.060946</ele>
        <time>2020-07-05T19:44:42.755Z</time>
      </trkpt>
      <trkpt lat="50.52951" lon="3.51909">
        <ele>33.965044</ele>
        <time>2020-07-05T19:44:57.347Z</time>
      </trkpt>
      <trkpt lat="50.52925" lon="3.51854">
        <ele>33.909856</ele>
        <time>2020-07-05T19:45:05.539Z</time>
      </trkpt>
      <trkpt lat="50.52908" lon="3.518">
        <ele>33.958463</ele>
        <time>2020-07-05T19:45:12.931Z</time>
      </trkpt>
      <trkpt lat="50.52879" lon="3.51748">
        <ele>34.105329</ele>
        <time>2020-07-05T19:45:21.660Z</time>
      </trkpt>
      <trkpt lat="50.52867" lon="3.51709">
        <ele>34.19585</ele>
        <time>2020-07-05T19:45:27.114Z</time>
      </trkpt>
      <trkpt lat="50.52842" lon="3.51636">
        <ele>34.372304</ele>
        <time>2020-07-05T19:45:39.405Z</time>
      </trkpt>
      <trkpt lat="50.5284" lon="3.51629">
        <ele>34.388275</ele>
        <time>2020-07-05T19:45:40.647Z</time>
      </trkpt>
      <trkpt lat="50.52822" lon="3.51588">
        <ele>34.495622</ele>
        <time>2020-07-05T19:45:48.487Z</time>
      </trkpt>
      <trkpt lat="50.52783" lon="3.5152">
        <ele>34.808428</ele>
        <time>2020-07-05T19:46:02.643Z</time>
      </trkpt>
      <trkpt lat="50.5277" lon="3.51505">
        <ele>34.891148</ele>
        <time>2020-07-05T19:46:06.113Z</time>
      </trkpt>
      <trkpt lat="50.52729" lon="3.51449">
        <ele>35.179286</ele>
        <time>2020-07-05T19:46:18.088Z</time>
      </trkpt>
      <trkpt lat="50.52774" lon="3.51363">
        <ele>35.455409</ele>
        <time>2020-07-05T19:46:32.864Z</time>
      </trkpt>
      <trkpt lat="50.52814" lon="3.51288">
        <ele>35.497744</ele>
        <time>2020-07-05T19:46:45.575Z</time>
      </trkpt>
      <trkpt lat="50.52789" lon="3.51285">
        <ele>35.514827</ele>
        <time>2020-07-05T19:46:50.475Z</time>
      </trkpt>
      <trkpt lat="50.52799" lon="3.51269">
        <ele>35.524601</ele>
        <time>2020-07-05T19:46:52.989Z</time>
      </trkpt>
      <trkpt lat="50.52867" lon="3.51134">
        <ele>36.330154</ele>
        <time>2020-07-05T19:47:16.134Z</time>
      </trkpt>
      <trkpt lat="50.52966" lon="3.50894">
        <ele>39.496072</ele>
        <time>2020-07-05T19:48:08.013Z</time>
      </trkpt>
      <trkpt lat="50.52998" lon="3.50805">
        <ele>41.013907</ele>
        <time>2020-07-05T19:48:27.895Z</time>
      </trkpt>
      <trkpt lat="50.53015" lon="3.50751">
        <ele>41.901971</ele>
        <time>2020-07-05T19:48:39.387Z</time>
      </trkpt>
      <trkpt lat="50.53061" lon="3.50585">
        <ele>43.890499</ele>
        <time>2020-07-05T19:49:12.716Z</time>
      </trkpt>
      <trkpt lat="50.53077" lon="3.50493">
        <ele>44.847434</ele>
        <time>2020-07-05T19:49:27.958Z</time>
      </trkpt>
      <trkpt lat="50.53063" lon="3.50413">
        <ele>45.108574</ele>
        <time>2020-07-05T19:49:40.821Z</time>
      </trkpt>
      <trkpt lat="50.53014" lon="3.50277">
        <ele>44.536854</ele>
        <time>2020-07-05T19:49:59.299Z</time>
      </trkpt>
      <trkpt lat="50.53009" lon="3.50267">
        <ele>44.491903</ele>
        <time>2020-07-05T19:50:00.689Z</time>
      </trkpt>
      <trkpt lat="50.53005" lon="3.50257">
        <ele>44.446656</ele>
        <time>2020-07-05T19:50:01.992Z</time>
      </trkpt>
      <trkpt lat="50.52993" lon="3.50234">
        <ele>44.340802</ele>
        <time>2020-07-05T19:50:04.878Z</time>
      </trkpt>
      <trkpt lat="50.52963" lon="3.50179">
        <ele>43.61082</ele>
        <time>2020-07-05T19:50:10.059Z</time>
      </trkpt>
      <trkpt lat="50.52955" lon="3.50169">
        <ele>43.377369</ele>
        <time>2020-07-05T19:50:11.179Z</time>
      </trkpt>
      <trkpt lat="50.52947" lon="3.5016">
        <ele>43.148627</ele>
        <time>2020-07-05T19:50:12.192Z</time>
      </trkpt>
      <trkpt lat="50.52899" lon="3.50114">
        <ele>41.842922</ele>
        <time>2020-07-05T19:50:18.204Z</time>
      </trkpt>
      <trkpt lat="50.52877" lon="3.50086">
        <ele>41.186167</ele>
        <time>2020-07-05T19:50:21.107Z</time>
      </trkpt>
      <trkpt lat="50.52862" lon="3.50053">
        <ele>40.576595</ele>
        <time>2020-07-05T19:50:23.800Z</time>
      </trkpt>
      <trkpt lat="50.52823" lon="3.49916">
        <ele>38.923847</ele>
        <time>2020-07-05T19:50:34.103Z</time>
      </trkpt>
      <trkpt lat="50.52816" lon="3.49901">
        <ele>38.741706</ele>
        <time>2020-07-05T19:50:35.486Z</time>
      </trkpt>
      <trkpt lat="50.52782" lon="3.49813">
        <ele>37.72969</ele>
        <time>2020-07-05T19:50:43.436Z</time>
      </trkpt>
      <trkpt lat="50.52741" lon="3.4971">
        <ele>37.159823</ele>
        <time>2020-07-05T19:50:53.273Z</time>
      </trkpt>
      <trkpt lat="50.5273" lon="3.49651">
        <ele>37.071191</ele>
        <time>2020-07-05T19:50:58.660Z</time>
      </trkpt>
      <trkpt lat="50.52721" lon="3.49559">
        <ele>36.936343</ele>
        <time>2020-07-05T19:51:07.362Z</time>
      </trkpt>
      <trkpt lat="50.52714" lon="3.49533">
        <ele>36.894025</ele>
        <time>2020-07-05T19:51:10.137Z</time>
      </trkpt>
      <trkpt lat="50.52712" lon="3.49529">
        <ele>36.886927</ele>
        <time>2020-07-05T19:51:10.699Z</time>
      </trkpt>
      <trkpt lat="50.52677" lon="3.49452">
        <ele>37.326161</ele>
        <time>2020-07-05T19:51:20.190Z</time>
      </trkpt>
      <trkpt lat="50.52627" lon="3.49401">
        <ele>37.923053</ele>
        <time>2020-07-05T19:51:30.767Z</time>
      </trkpt>
      <trkpt lat="50.52606" lon="3.49393">
        <ele>38.140703</ele>
        <time>2020-07-05T19:51:35.091Z</time>
      </trkpt>
      <trkpt lat="50.5252" lon="3.49298">
        <ele>39.515771</ele>
        <time>2020-07-05T19:51:58.516Z</time>
      </trkpt>
      <trkpt lat="50.5252" lon="3.49298">
        <ele>39.515771</ele>
        <time>2020-07-05T19:51:58.612Z</time>
      </trkpt>
      <trkpt lat="50.52468" lon="3.49266">
        <ele>40.435431</ele>
        <time>2020-07-05T19:52:11.862Z</time>
      </trkpt>
      <trkpt lat="50.52437" lon="3.49238">
        <ele>41.016701</ele>
        <time>2020-07-05T19:52:19.948Z</time>
      </trkpt>
      <trkpt lat="50.524" lon="3.49201">
        <ele>41.472832</ele>
        <time>2020-07-05T19:52:29.267Z</time>
      </trkpt>
      <trkpt lat="50.5212" lon="3.50308">
        <ele>31.700928</ele>
        <time>2020-07-05T19:53:57.825Z</time>
      </trkpt>
      <trkpt lat="50.5208" lon="3.5027">
        <ele>30.975064</ele>
        <time>2020-07-05T19:54:05.399Z</time>
      </trkpt>
      <trkpt lat="50.51998" lon="3.50182">
        <ele>29.514477</ele>
        <time>2020-07-05T19:54:21.634Z</time>
      </trkpt>
      <trkpt lat="50.51944" lon="3.50099">
        <ele>28.714545</ele>
        <time>2020-07-05T19:54:34.546Z</time>
      </trkpt>
      <trkpt lat="50.51919" lon="3.50084">
        <ele>28.437272</ele>
        <time>2020-07-05T19:54:39.151Z</time>
      </trkpt>
      <trkpt lat="50.51831" lon="3.50116">
        <ele>27.592706</ele>
        <time>2020-07-05T19:54:55.208Z</time>
      </trkpt>
      <trkpt lat="50.51737" lon="3.50105">
        <ele>27.003139</ele>
        <time>2020-07-05T19:55:12.310Z</time>
      </trkpt>
      <trkpt lat="50.51703" lon="3.50087">
        <ele>26.777334</ele>
        <time>2020-07-05T19:55:18.960Z</time>
      </trkpt>
      <trkpt lat="50.51699" lon="3.50081">
        <ele>26.74275</ele>
        <time>2020-07-05T19:55:19.924Z</time>
      </trkpt>
      <trkpt lat="50.51699" lon="3.50068">
        <ele>26.694126</ele>
        <time>2020-07-05T19:55:21.288Z</time>
      </trkpt>
      <trkpt lat="50.51701" lon="3.5002">
        <ele>26.554434</ele>
        <time>2020-07-05T19:55:27.150Z</time>
      </trkpt>
      <trkpt lat="50.51683" lon="3.49975">
        <ele>26.428285</ele>
        <time>2020-07-05T19:55:33.718Z</time>
      </trkpt>
      <trkpt lat="50.51668" lon="3.49964">
        <ele>26.367211</ele>
        <time>2020-07-05T19:55:36.882Z</time>
      </trkpt>
      <trkpt lat="50.51651" lon="3.49965">
        <ele>26.301334</ele>
        <time>2020-07-05T19:55:40.237Z</time>
      </trkpt>
      <trkpt lat="50.51614" lon="3.4998">
        <ele>26.16135</ele>
        <time>2020-07-05T19:55:47.273Z</time>
      </trkpt>
      <trkpt lat="50.51534" lon="3.50031">
        <ele>25.787272</ele>
        <time>2020-07-05T19:56:03.743Z</time>
      </trkpt>
      <trkpt lat="50.51493" lon="3.50033">
        <ele>25.563233</ele>
        <time>2020-07-05T19:56:11.432Z</time>
      </trkpt>
      <trkpt lat="50.51403" lon="3.50027">
        <ele>25.076172</ele>
        <time>2020-07-05T19:56:27.870Z</time>
      </trkpt>
      <trkpt lat="50.51388" lon="3.50031">
        <ele>24.993743</ele>
        <time>2020-07-05T19:56:30.611Z</time>
      </trkpt>
      <trkpt lat="50.51365" lon="3.50016">
        <ele>24.854875</ele>
        <time>2020-07-05T19:56:33.673Z</time>
      </trkpt>
      <trkpt lat="50.51349" lon="3.49997">
        <ele>24.740338</ele>
        <time>2020-07-05T19:56:36.272Z</time>
      </trkpt>
      <trkpt lat="50.51329" lon="3.49959">
        <ele>24.558189</ele>
        <time>2020-07-05T19:56:40.498Z</time>
      </trkpt>
      <trkpt lat="50.51322" lon="3.49943">
        <ele>24.490711</ele>
        <time>2020-07-05T19:56:42.022Z</time>
      </trkpt>
      <trkpt lat="50.51323" lon="3.49797">
        <ele>23.961376</ele>
        <time>2020-07-05T19:56:54.498Z</time>
      </trkpt>
      <trkpt lat="50.51322" lon="3.49739">
        <ele>23.699137</ele>
        <time>2020-07-05T19:56:59.412Z</time>
      </trkpt>
      <trkpt lat="50.51308" lon="3.49699">
        <ele>23.494817</ele>
        <time>2020-07-05T19:57:03.094Z</time>
      </trkpt>
      <trkpt lat="50.5129" lon="3.49667">
        <ele>23.304045</ele>
        <time>2020-07-05T19:57:06.575Z</time>
      </trkpt>
      <trkpt lat="50.51284" lon="3.49655">
        <ele>23.229606</ele>
        <time>2020-07-05T19:57:07.906Z</time>
      </trkpt>
      <trkpt lat="50.51281" lon="3.49649">
        <ele>23.197781</ele>
        <time>2020-07-05T19:57:08.458Z</time>
      </trkpt>
      <trkpt lat="50.51271" lon="3.4958">
        <ele>22.877406</ele>
        <time>2020-07-05T19:57:14.177Z</time>
      </trkpt>
      <trkpt lat="50.51269" lon="3.49574">
        <ele>22.844234</ele>
        <time>2020-07-05T19:57:14.744Z</time>
      </trkpt>
      <trkpt lat="50.51219" lon="3.4955">
        <ele>22.412119</ele>
        <time>2020-07-05T19:57:21.212Z</time>
      </trkpt>
      <trkpt lat="50.51187" lon="3.49526">
        <ele>22.095308</ele>
        <time>2020-07-05T19:57:25.492Z</time>
      </trkpt>
      <trkpt lat="50.51121" lon="3.49492">
        <ele>21.462943</ele>
        <time>2020-07-05T19:57:33.996Z</time>
      </trkpt>
      <trkpt lat="50.51048" lon="3.49357">
        <ele>20.671488</ele>
        <time>2020-07-05T19:57:48.397Z</time>
      </trkpt>
      <trkpt lat="50.51039" lon="3.49338">
        <ele>20.586226</ele>
        <time>2020-07-05T19:57:50.348Z</time>
      </trkpt>
      <trkpt lat="50.51019" lon="3.49366">
        <ele>20.438543</ele>
        <time>2020-07-05T19:57:55.181Z</time>
      </trkpt>
      <trkpt lat="50.51002" lon="3.49385">
        <ele>20.320688</ele>
        <time>2020-07-05T19:57:59.120Z</time>
      </trkpt>
      <trkpt lat="50.50995" lon="3.49391">
        <ele>20.274223</ele>
        <time>2020-07-05T19:58:00.668Z</time>
      </trkpt>
      <trkpt lat="50.50989" lon="3.4938">
        <ele>20.221626</ele>
        <time>2020-07-05T19:58:02.334Z</time>
      </trkpt>
      <trkpt lat="50.50868" lon="3.49157">
        <ele>19.626235</ele>
        <time>2020-07-05T19:58:38.250Z</time>
      </trkpt>
      <trkpt lat="50.50838" lon="3.49072">
        <ele>19.452156</ele>
        <time>2020-07-05T19:58:50.290Z</time>
      </trkpt>
      <trkpt lat="50.50832" lon="3.49054">
        <ele>19.415294</ele>
        <time>2020-07-05T19:58:52.961Z</time>
      </trkpt>
      <trkpt lat="50.50833" lon="3.4904">
        <ele>19.389354</ele>
        <time>2020-07-05T19:58:54.593Z</time>
      </trkpt>
      <trkpt lat="50.50869" lon="3.48988">
        <ele>19.247633</ele>
        <time>2020-07-05T19:59:04.026Z</time>
      </trkpt>
      <trkpt lat="50.50883" lon="3.48928">
        <ele>19.129721</ele>
        <time>2020-07-05T19:59:11.821Z</time>
      </trkpt>
      <trkpt lat="50.50891" lon="3.48849">
        <ele>18.929595</ele>
        <time>2020-07-05T19:59:21.560Z</time>
      </trkpt>
      <trkpt lat="50.50871" lon="3.48813">
        <ele>18.753257</ele>
        <time>2020-07-05T19:59:27.115Z</time>
      </trkpt>
      <trkpt lat="50.50863" lon="3.48799">
        <ele>18.683915</ele>
        <time>2020-07-05T19:59:29.286Z</time>
      </trkpt>
      <trkpt lat="50.50851" lon="3.48822">
        <ele>18.577088</ele>
        <time>2020-07-05T19:59:31.695Z</time>
      </trkpt>
      <trkpt lat="50.50848" lon="3.48828">
        <ele>18.546723</ele>
        <time>2020-07-05T19:59:32.364Z</time>
      </trkpt>
      <trkpt lat="50.50829" lon="3.48861">
        <ele>18.382577</ele>
        <time>2020-07-05T19:59:36.043Z</time>
      </trkpt>
      <trkpt lat="50.50795" lon="3.48891">
        <ele>18.158434</ele>
        <time>2020-07-05T19:59:41.029Z</time>
      </trkpt>
      <trkpt lat="50.50772" lon="3.48889">
        <ele>18.024965</ele>
        <time>2020-07-05T19:59:43.996Z</time>
      </trkpt>
      <trkpt lat="50.50762" lon="3.48885">
        <ele>17.967281</ele>
        <time>2020-07-05T19:59:45.323Z</time>
      </trkpt>
      <trkpt lat="50.5075" lon="3.48876">
        <ele>17.895862</ele>
        <time>2020-07-05T19:59:47.002Z</time>
      </trkpt>
      <trkpt lat="50.50697" lon="3.48851">
        <ele>17.598543</ele>
        <time>2020-07-05T19:59:54.289Z</time>
      </trkpt>
      <trkpt lat="50.50675" lon="3.48848">
        <ele>17.483688</ele>
        <time>2020-07-05T19:59:57.094Z</time>
      </trkpt>
      <trkpt lat="50.50664" lon="3.48854">
        <ele>17.419422</ele>
        <time>2020-07-05T19:59:58.728Z</time>
      </trkpt>
      <trkpt lat="50.50654" lon="3.48871">
        <ele>17.33983</ele>
        <time>2020-07-05T20:00:00.668Z</time>
      </trkpt>
      <trkpt lat="50.5064" lon="3.48922">
        <ele>17.152849</ele>
        <time>2020-07-05T20:00:05.300Z</time>
      </trkpt>
      <trkpt lat="50.50629" lon="3.48944">
        <ele>17.056631</ele>
        <time>2020-07-05T20:00:07.723Z</time>
      </trkpt>
      <trkpt lat="50.50551" lon="3.4902">
        <ele>16.790285</ele>
        <time>2020-07-05T20:00:20.428Z</time>
      </trkpt>
      <trkpt lat="50.50468" lon="3.49131">
        <ele>16.532998</ele>
        <time>2020-07-05T20:00:35.594Z</time>
      </trkpt>
      <trkpt lat="50.50399" lon="3.49173">
        <ele>16.51322</ele>
        <time>2020-07-05T20:00:46.342Z</time>
      </trkpt>
      <trkpt lat="50.5033" lon="3.49228">
        <ele>16.492673</ele>
        <time>2020-07-05T20:00:58.258Z</time>
      </trkpt>
      <trkpt lat="50.50301" lon="3.49249">
        <ele>16.483672</ele>
        <time>2020-07-05T20:01:03.180Z</time>
      </trkpt>
      <trkpt lat="50.50284" lon="3.49261">
        <ele>16.478304</ele>
        <time>2020-07-05T20:01:05.964Z</time>
      </trkpt>
      <trkpt lat="50.50222" lon="3.493">
        <ele>16.459261</ele>
        <time>2020-07-05T20:01:15.949Z</time>
      </trkpt>
      <trkpt lat="50.50197" lon="3.49315">
        <ele>16.451753</ele>
        <time>2020-07-05T20:01:19.805Z</time>
      </trkpt>
      <trkpt lat="50.50191" lon="3.49319">
        <ele>16.449783</ele>
        <time>2020-07-05T20:01:20.864Z</time>
      </trkpt>
      <trkpt lat="50.50184" lon="3.49323">
        <ele>16.44764</ele>
        <time>2020-07-05T20:01:21.850Z</time>
      </trkpt>
      <trkpt lat="50.50056" lon="3.49423">
        <ele>16.316894</ele>
        <time>2020-07-05T20:01:41.770Z</time>
      </trkpt>
      <trkpt lat="50.49891" lon="3.49621">
        <ele>16.482163</ele>
        <time>2020-07-05T20:02:13.171Z</time>
      </trkpt>
      <trkpt lat="50.49885" lon="3.49626">
        <ele>16.49293</ele>
        <time>2020-07-05T20:02:14.233Z</time>
      </trkpt>
      <trkpt lat="50.49872" lon="3.49635">
        <ele>16.519809</ele>
        <time>2020-07-05T20:02:16.750Z</time>
      </trkpt>
      <trkpt lat="50.49868" lon="3.49638">
        <ele>16.526454</ele>
        <time>2020-07-05T20:02:17.352Z</time>
      </trkpt>
      <trkpt lat="50.4984" lon="3.49655">
        <ele>16.603036</ele>
        <time>2020-07-05T20:02:22.452Z</time>
      </trkpt>
      <trkpt lat="50.49786" lon="3.49689">
        <ele>16.824041</ele>
        <time>2020-07-05T20:02:32.441Z</time>
      </trkpt>
      <trkpt lat="50.49674" lon="3.49784">
        <ele>17.200055</ele>
        <time>2020-07-05T20:02:53.163Z</time>
      </trkpt>
      <trkpt lat="50.49561" lon="3.49862">
        <ele>16.924044</ele>
        <time>2020-07-05T20:03:10.440Z</time>
      </trkpt>
      <trkpt lat="50.49552" lon="3.49866">
        <ele>16.901738</ele>
        <time>2020-07-05T20:03:11.741Z</time>
      </trkpt>
      <trkpt lat="50.49546" lon="3.49865">
        <ele>16.889925</ele>
        <time>2020-07-05T20:03:12.381Z</time>
      </trkpt>
      <trkpt lat="50.49496" lon="3.49786">
        <ele>16.6128</ele>
        <time>2020-07-05T20:03:21.701Z</time>
      </trkpt>
      <trkpt lat="50.49442" lon="3.49791">
        <ele>16.353131</ele>
        <time>2020-07-05T20:03:28.757Z</time>
      </trkpt>
      <trkpt lat="50.4937" lon="3.49783">
        <ele>16.00962</ele>
        <time>2020-07-05T20:03:38.354Z</time>
      </trkpt>
      <trkpt lat="50.49356" lon="3.49781">
        <ele>15.993929</ele>
        <time>2020-07-05T20:03:40.310Z</time>
      </trkpt>
      <trkpt lat="50.49327" lon="3.49756">
        <ele>16.050539</ele>
        <time>2020-07-05T20:03:45.278Z</time>
      </trkpt>
      <trkpt lat="50.49308" lon="3.49756">
        <ele>16.082232</ele>
        <time>2020-07-05T20:03:48.250Z</time>
      </trkpt>
      <trkpt lat="50.49288" lon="3.49767">
        <ele>16.118658</ele>
        <time>2020-07-05T20:03:51.578Z</time>
      </trkpt>
      <trkpt lat="50.49284" lon="3.49771">
        <ele>16.127163</ele>
        <time>2020-07-05T20:03:52.384Z</time>
      </trkpt>
      <trkpt lat="50.49282" lon="3.49773">
        <ele>16.131516</ele>
        <time>2020-07-05T20:03:52.944Z</time>
      </trkpt>
      <trkpt lat="50.49208" lon="3.49841">
        <ele>16.277698</ele>
        <time>2020-07-05T20:04:06.457Z</time>
      </trkpt>
      <trkpt lat="50.49201" lon="3.49848">
        <ele>16.29435</ele>
        <time>2020-07-05T20:04:07.994Z</time>
      </trkpt>
      <trkpt lat="50.49196" lon="3.49853">
        <ele>16.307137</ele>
        <time>2020-07-05T20:04:08.868Z</time>
      </trkpt>
      <trkpt lat="50.49191" lon="3.49853">
        <ele>16.32019</ele>
        <time>2020-07-05T20:04:09.835Z</time>
      </trkpt>
      <trkpt lat="50.49094" lon="3.49838">
        <ele>16.546406</ele>
        <time>2020-07-05T20:04:25.872Z</time>
      </trkpt>
      <trkpt lat="50.49082" lon="3.49844">
        <ele>16.576336</ele>
        <time>2020-07-05T20:04:27.910Z</time>
      </trkpt>
      <trkpt lat="50.49" lon="3.49921">
        <ele>16.578307</ele>
        <time>2020-07-05T20:04:41.574Z</time>
      </trkpt>
      <trkpt lat="50.48953" lon="3.49914">
        <ele>16.423475</ele>
        <time>2020-07-05T20:04:47.880Z</time>
      </trkpt>
      <trkpt lat="50.4895" lon="3.49913">
        <ele>16.41383</ele>
        <time>2020-07-05T20:04:48.209Z</time>
      </trkpt>
      <trkpt lat="50.48934" lon="3.49909">
        <ele>16.360474</ele>
        <time>2020-07-05T20:04:50.410Z</time>
      </trkpt>
      <trkpt lat="50.48927" lon="3.49907">
        <ele>16.335814</ele>
        <time>2020-07-05T20:04:51.443Z</time>
      </trkpt>
      <trkpt lat="50.48914" lon="3.49904">
        <ele>16.293436</ele>
        <time>2020-07-05T20:04:53.179Z</time>
      </trkpt>
      <trkpt lat="50.48911" lon="3.49902">
        <ele>16.281466</ele>
        <time>2020-07-05T20:04:53.727Z</time>
      </trkpt>
      <trkpt lat="50.48908" lon="3.49897">
        <ele>16.266819</ele>
        <time>2020-07-05T20:04:54.269Z</time>
      </trkpt>
      <trkpt lat="50.48906" lon="3.49893">
        <ele>16.254599</ele>
        <time>2020-07-05T20:04:54.815Z</time>
      </trkpt>
      <trkpt lat="50.48879" lon="3.49766">
        <ele>16.031053</ele>
        <time>2020-07-05T20:05:06.642Z</time>
      </trkpt>
      <trkpt lat="50.4887" lon="3.49728">
        <ele>15.981564</ele>
        <time>2020-07-05T20:05:10.177Z</time>
      </trkpt>
      <trkpt lat="50.48861" lon="3.49706">
        <ele>15.94775</ele>
        <time>2020-07-05T20:05:12.714Z</time>
      </trkpt>
      <trkpt lat="50.48847" lon="3.49688">
        <ele>15.912678</ele>
        <time>2020-07-05T20:05:15.171Z</time>
      </trkpt>
      <trkpt lat="50.48765" lon="3.49649">
        <ele>15.762378</ele>
        <time>2020-07-05T20:05:27.391Z</time>
      </trkpt>
      <trkpt lat="50.48736" lon="3.49611">
        <ele>15.762858</ele>
        <time>2020-07-05T20:05:32.912Z</time>
      </trkpt>
      <trkpt lat="50.48731" lon="3.4961">
        <ele>15.762932</ele>
        <time>2020-07-05T20:05:33.738Z</time>
      </trkpt>
      <trkpt lat="50.48684" lon="3.49642">
        <ele>15.763582</ele>
        <time>2020-07-05T20:05:41.098Z</time>
      </trkpt>
      <trkpt lat="50.48628" lon="3.49654">
        <ele>15.76432</ele>
        <time>2020-07-05T20:05:49.424Z</time>
      </trkpt>
      <trkpt lat="50.48604" lon="3.49668">
        <ele>15.7795</ele>
        <time>2020-07-05T20:05:53.385Z</time>
      </trkpt>
      <trkpt lat="50.4857" lon="3.49704">
        <ele>15.893459</ele>
        <time>2020-07-05T20:06:00.275Z</time>
      </trkpt>
      <trkpt lat="50.48526" lon="3.49777">
        <ele>16.070318</ele>
        <time>2020-07-05T20:06:10.737Z</time>
      </trkpt>
      <trkpt lat="50.4851" lon="3.49792">
        <ele>16.121036</ele>
        <time>2020-07-05T20:06:13.764Z</time>
      </trkpt>
      <trkpt lat="50.48497" lon="3.49796">
        <ele>16.15859</ele>
        <time>2020-07-05T20:06:15.838Z</time>
      </trkpt>
      <trkpt lat="50.48475" lon="3.49799">
        <ele>16.218482</ele>
        <time>2020-07-05T20:06:19.342Z</time>
      </trkpt>
      <trkpt lat="50.4847" lon="3.498">
        <ele>16.233286</ele>
        <time>2020-07-05T20:06:20.156Z</time>
      </trkpt>
      <trkpt lat="50.48464" lon="3.49803">
        <ele>16.251306</ele>
        <time>2020-07-05T20:06:21.128Z</time>
      </trkpt>
      <trkpt lat="50.48456" lon="3.4981">
        <ele>16.248411</ele>
        <time>2020-07-05T20:06:22.568Z</time>
      </trkpt>
      <trkpt lat="50.48417" lon="3.49873">
        <ele>16.081547</ele>
        <time>2020-07-05T20:06:30.937Z</time>
      </trkpt>
      <trkpt lat="50.48317" lon="3.50036">
        <ele>15.587348</ele>
        <time>2020-07-05T20:06:50.086Z</time>
      </trkpt>
      <trkpt lat="50.48314" lon="3.50065">
        <ele>15.485156</ele>
        <time>2020-07-05T20:06:52.443Z</time>
      </trkpt>
      <trkpt lat="50.48334" lon="3.50155">
        <ele>15.151605</ele>
        <time>2020-07-05T20:07:00.248Z</time>
      </trkpt>
      <trkpt lat="50.48334" lon="3.50262">
        <ele>14.781525</ele>
        <time>2020-07-05T20:07:09.137Z</time>
      </trkpt>
      <trkpt lat="50.48195" lon="3.50547">
        <ele>14.479721</ele>
        <time>2020-07-05T20:07:41.787Z</time>
      </trkpt>
      <trkpt lat="50.48156" lon="3.50601">
        <ele>14.586465</ele>
        <time>2020-07-05T20:07:50.019Z</time>
      </trkpt>
      <trkpt lat="50.48134" lon="3.50632">
        <ele>14.647526</ele>
        <time>2020-07-05T20:07:54.870Z</time>
      </trkpt>
      <trkpt lat="50.48087" lon="3.50718">
        <ele>14.841346</ele>
        <time>2020-07-05T20:08:06.776Z</time>
      </trkpt>
      <trkpt lat="50.48047" lon="3.50871">
        <ele>15.388208</ele>
        <time>2020-07-05T20:08:24.690Z</time>
      </trkpt>
      <trkpt lat="50.47986" lon="3.50967">
        <ele>15.85345</ele>
        <time>2020-07-05T20:08:39.229Z</time>
      </trkpt>
      <trkpt lat="50.47952" lon="3.51044">
        <ele>16.205566</ele>
        <time>2020-07-05T20:08:49.405Z</time>
      </trkpt>
      <trkpt lat="50.47858" lon="3.51324">
        <ele>17.32263</ele>
        <time>2020-07-05T20:09:24.096Z</time>
      </trkpt>
      <trkpt lat="50.47824" lon="3.51488">
        <ele>17.714587</ele>
        <time>2020-07-05T20:09:42.358Z</time>
      </trkpt>
      <trkpt lat="50.47785" lon="3.51628">
        <ele>17.749817</ele>
        <time>2020-07-05T20:09:57.241Z</time>
      </trkpt>
      <trkpt lat="50.47784" lon="3.51643">
        <ele>17.753311</ele>
        <time>2020-07-05T20:09:58.645Z</time>
      </trkpt>
      <trkpt lat="50.47784" lon="3.5165">
        <ele>17.754922</ele>
        <time>2020-07-05T20:09:59.281Z</time>
      </trkpt>
      <trkpt lat="50.47783" lon="3.51663">
        <ele>17.757879</ele>
        <time>2020-07-05T20:10:00.471Z</time>
      </trkpt>
      <trkpt lat="50.47774" lon="3.51664">
        <ele>17.760995</ele>
        <time>2020-07-05T20:10:02.068Z</time>
      </trkpt>
      <trkpt lat="50.47726" lon="3.51668">
        <ele>17.554328</ele>
        <time>2020-07-05T20:10:11.125Z</time>
      </trkpt>
      <trkpt lat="50.47675" lon="3.51675">
        <ele>17.242533</ele>
        <time>2020-07-05T20:10:20.417Z</time>
      </trkpt>
      <trkpt lat="50.47619" lon="3.51684">
        <ele>16.895026</ele>
        <time>2020-07-05T20:10:30.515Z</time>
      </trkpt>
      <trkpt lat="50.47604" lon="3.51687">
        <ele>16.800586</ele>
        <time>2020-07-05T20:10:33.259Z</time>
      </trkpt>
      <trkpt lat="50.47587" lon="3.51707">
        <ele>16.673486</ele>
        <time>2020-07-05T20:10:36.970Z</time>
      </trkpt>
      <trkpt lat="50.47527" lon="3.51799">
        <ele>16.683051</ele>
        <time>2020-07-05T20:10:52.621Z</time>
      </trkpt>
      <trkpt lat="50.47496" lon="3.51846">
        <ele>16.693517</ele>
        <time>2020-07-05T20:11:01.433Z</time>
      </trkpt>
      <trkpt lat="50.47462" lon="3.5188">
        <ele>16.703467</ele>
        <time>2020-07-05T20:11:10.504Z</time>
      </trkpt>
      <trkpt lat="50.47393" lon="3.51949">
        <ele>17.401389</ele>
        <time>2020-07-05T20:11:30.318Z</time>
      </trkpt>
      <trkpt lat="50.47369" lon="3.51978">
        <ele>17.715401</ele>
        <time>2020-07-05T20:11:37.984Z</time>
      </trkpt>
      <trkpt lat="50.47331" lon="3.5204">
        <ele>18.280134</ele>
        <time>2020-07-05T20:11:51.288Z</time>
      </trkpt>
      <trkpt lat="50.47323" lon="3.52048">
        <ele>18.377725</ele>
        <time>2020-07-05T20:11:53.962Z</time>
      </trkpt>
      <trkpt lat="50.47303" lon="3.52064">
        <ele>18.586376</ele>
        <time>2020-07-05T20:11:59.189Z</time>
      </trkpt>
      <trkpt lat="50.47268" lon="3.52088">
        <ele>18.811089</ele>
        <time>2020-07-05T20:12:08.844Z</time>
      </trkpt>
      <trkpt lat="50.47255" lon="3.52101">
        <ele>18.898196</ele>
        <time>2020-07-05T20:12:12.922Z</time>
      </trkpt>
      <trkpt lat="50.47248" lon="3.52111">
        <ele>18.954586</ele>
        <time>2020-07-05T20:12:15.091Z</time>
      </trkpt>
      <trkpt lat="50.4724" lon="3.5211">
        <ele>19.003717</ele>
        <time>2020-07-05T20:12:16.854Z</time>
      </trkpt>
      <trkpt lat="50.47223" lon="3.52117">
        <ele>19.103675</ele>
        <time>2020-07-05T20:12:21.111Z</time>
      </trkpt>
      <trkpt lat="50.4718" lon="3.52157">
        <ele>19.395688</ele>
        <time>2020-07-05T20:12:31.995Z</time>
      </trkpt>
      <trkpt lat="50.47123" lon="3.52206">
        <ele>19.420479</ele>
        <time>2020-07-05T20:12:45.077Z</time>
      </trkpt>
      <trkpt lat="50.47112" lon="3.52214">
        <ele>19.346879</ele>
        <time>2020-07-05T20:12:47.128Z</time>
      </trkpt>
      <trkpt lat="50.47106" lon="3.52218">
        <ele>19.304116</ele>
        <time>2020-07-05T20:12:48.349Z</time>
      </trkpt>
      <trkpt lat="50.47043" lon="3.5234">
        <ele>18.661439</ele>
        <time>2020-07-05T20:13:05.974Z</time>
      </trkpt>
      <trkpt lat="50.47003" lon="3.52294">
        <ele>18.358861</ele>
        <time>2020-07-05T20:13:12.245Z</time>
      </trkpt>
      <trkpt lat="50.46989" lon="3.52278">
        <ele>18.267432</ele>
        <time>2020-07-05T20:13:14.440Z</time>
      </trkpt>
      <trkpt lat="50.46985" lon="3.52273">
        <ele>18.242378</ele>
        <time>2020-07-05T20:13:15.081Z</time>
      </trkpt>
      <trkpt lat="50.46961" lon="3.52246">
        <ele>18.086007</ele>
        <time>2020-07-05T20:13:18.837Z</time>
      </trkpt>
      <trkpt lat="50.46903" lon="3.52179">
        <ele>17.701752</ele>
        <time>2020-07-05T20:13:28.162Z</time>
      </trkpt>
      <trkpt lat="50.46859" lon="3.52136">
        <ele>17.509185</ele>
        <time>2020-07-05T20:13:35.589Z</time>
      </trkpt>
      <trkpt lat="50.46795" lon="3.52081">
        <ele>17.587753</ele>
        <time>2020-07-05T20:13:47.399Z</time>
      </trkpt>
      <trkpt lat="50.46702" lon="3.52009">
        <ele>17.705599</ele>
        <time>2020-07-05T20:14:03.024Z</time>
      </trkpt>
      <trkpt lat="50.46599" lon="3.5194">
        <ele>17.892108</ele>
        <time>2020-07-05T20:14:20.226Z</time>
      </trkpt>
      <trkpt lat="50.46568" lon="3.51907">
        <ele>17.954467</ele>
        <time>2020-07-05T20:14:26.113Z</time>
      </trkpt>
      <trkpt lat="50.46439" lon="3.5173">
        <ele>18.549159</ele>
        <time>2020-07-05T20:14:53.825Z</time>
      </trkpt>
      <trkpt lat="50.46372" lon="3.51656">
        <ele>18.903301</ele>
        <time>2020-07-05T20:15:07.823Z</time>
      </trkpt>
      <trkpt lat="50.46353" lon="3.51643">
        <ele>18.998288</ele>
        <time>2020-07-05T20:15:11.328Z</time>
      </trkpt>
      <trkpt lat="50.46355" lon="3.51626">
        <ele>19.048499</ele>
        <time>2020-07-05T20:15:13.129Z</time>
      </trkpt>
      <trkpt lat="50.46356" lon="3.51623">
        <ele>19.058684</ele>
        <time>2020-07-05T20:15:13.551Z</time>
      </trkpt>
      <trkpt lat="50.46413" lon="3.51434">
        <ele>19.423035</ele>
        <time>2020-07-05T20:15:35.526Z</time>
      </trkpt>
      <trkpt lat="50.46429" lon="3.51375">
        <ele>19.355849</ele>
        <time>2020-07-05T20:15:41.590Z</time>
      </trkpt>
      <trkpt lat="50.46476" lon="3.51249">
        <ele>19.203087</ele>
        <time>2020-07-05T20:15:54.330Z</time>
      </trkpt>
      <trkpt lat="50.46595" lon="3.51017">
        <ele>17.966608</ele>
        <time>2020-07-05T20:16:18.405Z</time>
      </trkpt>
      <trkpt lat="50.46595" lon="3.51017">
        <ele>17.966608</ele>
        <time>2020-07-05T20:16:18.410Z</time>
      </trkpt>
      <trkpt lat="50.46712" lon="3.50883">
        <ele>17.488142</ele>
        <time>2020-07-05T20:16:37.910Z</time>
      </trkpt>
      <trkpt lat="50.46737" lon="3.50844">
        <ele>17.404065</ele>
        <time>2020-07-05T20:16:43.347Z</time>
      </trkpt>
      <trkpt lat="50.46753" lon="3.50815">
        <ele>17.528568</ele>
        <time>2020-07-05T20:16:47.213Z</time>
      </trkpt>
      <trkpt lat="50.46769" lon="3.50781">
        <ele>17.669127</ele>
        <time>2020-07-05T20:16:51.649Z</time>
      </trkpt>
      <trkpt lat="50.46789" lon="3.50752">
        <ele>17.811903</ele>
        <time>2020-07-05T20:16:56.274Z</time>
      </trkpt>
      <trkpt lat="50.46824" lon="3.5072">
        <ele>18.019544</ele>
        <time>2020-07-05T20:17:03.183Z</time>
      </trkpt>
      <trkpt lat="50.46907" lon="3.50628">
        <ele>18.768405</ele>
        <time>2020-07-05T20:17:21.804Z</time>
      </trkpt>
      <trkpt lat="50.46962" lon="3.50562">
        <ele>19.466587</ele>
        <time>2020-07-05T20:17:34.476Z</time>
      </trkpt>
      <trkpt lat="50.46968" lon="3.50542">
        <ele>19.609294</ele>
        <time>2020-07-05T20:17:37.218Z</time>
      </trkpt>
      <trkpt lat="50.46973" lon="3.50522">
        <ele>19.746658</ele>
        <time>2020-07-05T20:17:39.784Z</time>
      </trkpt>
      <trkpt lat="50.46981" lon="3.50507">
        <ele>19.875377</ele>
        <time>2020-07-05T20:17:42.157Z</time>
      </trkpt>
      <trkpt lat="50.47041" lon="3.50454">
        <ele>20.721123</ele>
        <time>2020-07-05T20:17:56.058Z</time>
      </trkpt>
      <trkpt lat="50.47068" lon="3.5042">
        <ele>21.195427</ele>
        <time>2020-07-05T20:18:03.174Z</time>
      </trkpt>
      <trkpt lat="50.47093" lon="3.50388">
        <ele>21.635396</ele>
        <time>2020-07-05T20:18:09.816Z</time>
      </trkpt>
      <trkpt lat="50.47106" lon="3.50372">
        <ele>21.857494</ele>
        <time>2020-07-05T20:18:13.384Z</time>
      </trkpt>
      <trkpt lat="50.47121" lon="3.50349">
        <ele>22.150081</ele>
        <time>2020-07-05T20:18:17.375Z</time>
      </trkpt>
      <trkpt lat="50.47125" lon="3.50344">
        <ele>22.223938</ele>
        <time>2020-07-05T20:18:18.899Z</time>
      </trkpt>
      <trkpt lat="50.47177" lon="3.50204">
        <ele>23.110893</ele>
        <time>2020-07-05T20:18:39.267Z</time>
      </trkpt>
      <trkpt lat="50.47301" lon="3.49967">
        <ele>23.771196</ele>
        <time>2020-07-05T20:19:10.132Z</time>
      </trkpt>
      <trkpt lat="50.47311" lon="3.4995">
        <ele>23.764378</ele>
        <time>2020-07-05T20:19:12.136Z</time>
      </trkpt>
      <trkpt lat="50.47346" lon="3.49919">
        <ele>23.745779</ele>
        <time>2020-07-05T20:19:17.564Z</time>
      </trkpt>
      <trkpt lat="50.47367" lon="3.49905">
        <ele>23.735182</ele>
        <time>2020-07-05T20:19:20.600Z</time>
      </trkpt>
      <trkpt lat="50.47374" lon="3.49903">
        <ele>23.731995</ele>
        <time>2020-07-05T20:19:21.537Z</time>
      </trkpt>
      <trkpt lat="50.47386" lon="3.49892">
        <ele>23.771127</ele>
        <time>2020-07-05T20:19:23.503Z</time>
      </trkpt>
      <trkpt lat="50.47432" lon="3.49811">
        <ele>24.057889</ele>
        <time>2020-07-05T20:19:33.622Z</time>
      </trkpt>
      <trkpt lat="50.47467" lon="3.49758">
        <ele>24.26083</ele>
        <time>2020-07-05T20:19:41.463Z</time>
      </trkpt>
      <trkpt lat="50.47496" lon="3.49729">
        <ele>24.404484</ele>
        <time>2020-07-05T20:19:47.872Z</time>
      </trkpt>
      <trkpt lat="50.47513" lon="3.49711">
        <ele>24.506502</ele>
        <time>2020-07-05T20:19:51.927Z</time>
      </trkpt>
      <trkpt lat="50.47428" lon="3.49563">
        <ele>26.309418</ele>
        <time>2020-07-05T20:20:18.564Z</time>
      </trkpt>
      <trkpt lat="50.47402" lon="3.49433">
        <ele>27.361018</ele>
        <time>2020-07-05T20:20:36.715Z</time>
      </trkpt>
      <trkpt lat="50.47379" lon="3.49359">
        <ele>27.83739</ele>
        <time>2020-07-05T20:20:46.832Z</time>
      </trkpt>
      <trkpt lat="50.47357" lon="3.49311">
        <ele>28.179861</ele>
        <time>2020-07-05T20:20:53.697Z</time>
      </trkpt>
      <trkpt lat="50.47221" lon="3.49078">
        <ele>29.049331</ele>
        <time>2020-07-05T20:21:26.287Z</time>
      </trkpt>
      <trkpt lat="50.47137" lon="3.48949">
        <ele>29.038271</ele>
        <time>2020-07-05T20:21:43.558Z</time>
      </trkpt>
      <trkpt lat="50.47109" lon="3.48894">
        <ele>28.988969</ele>
        <time>2020-07-05T20:21:49.848Z</time>
      </trkpt>
      <trkpt lat="50.47106" lon="3.48875">
        <ele>28.975225</ele>
        <time>2020-07-05T20:21:51.595Z</time>
      </trkpt>
      <trkpt lat="50.47116" lon="3.48844">
        <ele>28.950406</ele>
        <time>2020-07-05T20:21:54.714Z</time>
      </trkpt>
      <trkpt lat="50.47148" lon="3.48805">
        <ele>28.865906</ele>
        <time>2020-07-05T20:22:00.301Z</time>
      </trkpt>
      <trkpt lat="50.47163" lon="3.48767">
        <ele>28.787653</ele>
        <time>2020-07-05T20:22:04.244Z</time>
      </trkpt>
      <trkpt lat="50.47158" lon="3.48746">
        <ele>28.747325</ele>
        <time>2020-07-05T20:22:06.269Z</time>
      </trkpt>
      <trkpt lat="50.47145" lon="3.48721">
        <ele>28.691008</ele>
        <time>2020-07-05T20:22:09.106Z</time>
      </trkpt>
      <trkpt lat="50.47068" lon="3.48628">
        <ele>28.408114</ele>
        <time>2020-07-05T20:22:22.706Z</time>
      </trkpt>
      <trkpt lat="50.47048" lon="3.48605">
        <ele>28.276518</ele>
        <time>2020-07-05T20:22:26.121Z</time>
      </trkpt>
      <trkpt lat="50.47025" lon="3.48575">
        <ele>28.111999</ele>
        <time>2020-07-05T20:22:30.441Z</time>
      </trkpt>
      <trkpt lat="50.46952" lon="3.48448">
        <ele>27.519122</ele>
        <time>2020-07-05T20:22:44.685Z</time>
      </trkpt>
      <trkpt lat="50.46935" lon="3.48395">
        <ele>26.970144</ele>
        <time>2020-07-05T20:22:49.322Z</time>
      </trkpt>
      <trkpt lat="50.46907" lon="3.48316">
        <ele>25.93365</ele>
        <time>2020-07-05T20:22:55.962Z</time>
      </trkpt>
      <trkpt lat="50.46898" lon="3.48284">
        <ele>25.531739</ele>
        <time>2020-07-05T20:22:58.402Z</time>
      </trkpt>
      <trkpt lat="50.46896" lon="3.4827">
        <ele>25.360609</ele>
        <time>2020-07-05T20:22:59.446Z</time>
      </trkpt>
      <trkpt lat="50.46895" lon="3.48256">
        <ele>25.197534</ele>
        <time>2020-07-05T20:23:00.442Z</time>
      </trkpt>
      <trkpt lat="50.46896" lon="3.48242">
        <ele>25.039038</ele>
        <time>2020-07-05T20:23:01.378Z</time>
      </trkpt>
      <trkpt lat="50.46883" lon="3.48246">
        <ele>24.805713</ele>
        <time>2020-07-05T20:23:02.750Z</time>
      </trkpt>
      <trkpt lat="50.4688" lon="3.48246">
        <ele>24.756897</ele>
        <time>2020-07-05T20:23:03.047Z</time>
      </trkpt>
      <trkpt lat="50.46876" lon="3.48234">
        <ele>24.599616</ele>
        <time>2020-07-05T20:23:03.980Z</time>
      </trkpt>
      <trkpt lat="50.46769" lon="3.48067">
        <ele>20.931197</ele>
        <time>2020-07-05T20:23:19.676Z</time>
      </trkpt>
      <trkpt lat="50.46755" lon="3.48042">
        <ele>20.388531</ele>
        <time>2020-07-05T20:23:21.886Z</time>
      </trkpt>
      <trkpt lat="50.46707" lon="3.47902">
        <ele>18.622777</ele>
        <time>2020-07-05T20:23:33.049Z</time>
      </trkpt>
      <trkpt lat="50.46703" lon="3.47893">
        <ele>18.518931</ele>
        <time>2020-07-05T20:23:33.836Z</time>
      </trkpt>
      <trkpt lat="50.46729" lon="3.47857">
        <ele>18.027549</ele>
        <time>2020-07-05T20:23:37.970Z</time>
      </trkpt>
      <trkpt lat="50.46784" lon="3.47766">
        <ele>17.049611</ele>
        <time>2020-07-05T20:23:47.996Z</time>
      </trkpt>
      <trkpt lat="50.46852" lon="3.47621">
        <ele>16.693745</ele>
        <time>2020-07-05T20:24:03.997Z</time>
      </trkpt>
      <trkpt lat="50.46892" lon="3.47496">
        <ele>16.486588</ele>
        <time>2020-07-05T20:24:16.705Z</time>
      </trkpt>
      <trkpt lat="50.469" lon="3.47464">
        <ele>16.459129</ele>
        <time>2020-07-05T20:24:19.854Z</time>
      </trkpt>
      <trkpt lat="50.46897" lon="3.47433">
        <ele>16.434776</ele>
        <time>2020-07-05T20:24:22.597Z</time>
      </trkpt>
      <trkpt lat="50.46868" lon="3.47366">
        <ele>16.370746</ele>
        <time>2020-07-05T20:24:30.131Z</time>
      </trkpt>
      <trkpt lat="50.46868" lon="3.47341">
        <ele>16.351463</ele>
        <time>2020-07-05T20:24:32.464Z</time>
      </trkpt>
      <trkpt lat="50.46869" lon="3.47337">
        <ele>16.347996</ele>
        <time>2020-07-05T20:24:32.802Z</time>
      </trkpt>
      <trkpt lat="50.46874" lon="3.47324">
        <ele>16.335525</ele>
        <time>2020-07-05T20:24:34.337Z</time>
      </trkpt>
      <trkpt lat="50.46912" lon="3.47288">
        <ele>16.310626</ele>
        <time>2020-07-05T20:24:40.919Z</time>
      </trkpt>
      <trkpt lat="50.46932" lon="3.47258">
        <ele>16.312337</ele>
        <time>2020-07-05T20:24:45.038Z</time>
      </trkpt>
      <trkpt lat="50.46955" lon="3.4722">
        <ele>16.314411</ele>
        <time>2020-07-05T20:24:50.093Z</time>
      </trkpt>
      <trkpt lat="50.46967" lon="3.47199">
        <ele>16.315511</ele>
        <time>2020-07-05T20:24:52.945Z</time>
      </trkpt>
      <trkpt lat="50.47005" lon="3.47114">
        <ele>16.319542</ele>
        <time>2020-07-05T20:25:02.596Z</time>
      </trkpt>
      <trkpt lat="50.47043" lon="3.47002">
        <ele>16.196193</ele>
        <time>2020-07-05T20:25:14.408Z</time>
      </trkpt>
      <trkpt lat="50.47063" lon="3.46934">
        <ele>16.109908</ele>
        <time>2020-07-05T20:25:21.161Z</time>
      </trkpt>
      <trkpt lat="50.47076" lon="3.46911">
        <ele>16.075521</ele>
        <time>2020-07-05T20:25:23.873Z</time>
      </trkpt>
      <trkpt lat="50.47022" lon="3.46798">
        <ele>15.913667</ele>
        <time>2020-07-05T20:25:36.077Z</time>
      </trkpt>
      <trkpt lat="50.46992" lon="3.4673">
        <ele>15.820236</ele>
        <time>2020-07-05T20:25:43.360Z</time>
      </trkpt>
      <trkpt lat="50.4699" lon="3.46702">
        <ele>15.787787</ele>
        <time>2020-07-05T20:25:46.140Z</time>
      </trkpt>
      <trkpt lat="50.46993" lon="3.46686">
        <ele>15.769245</ele>
        <time>2020-07-05T20:25:47.531Z</time>
      </trkpt>
      <trkpt lat="50.46999" lon="3.46654">
        <ele>15.73088</ele>
        <time>2020-07-05T20:25:50.852Z</time>
      </trkpt>
      <trkpt lat="50.47001" lon="3.46644">
        <ele>15.718996</ele>
        <time>2020-07-05T20:25:51.815Z</time>
      </trkpt>
      <trkpt lat="50.47002" lon="3.46641">
        <ele>15.715038</ele>
        <time>2020-07-05T20:25:52.107Z</time>
      </trkpt>
      <trkpt lat="50.47006" lon="3.4663">
        <ele>15.700768</ele>
        <time>2020-07-05T20:25:53.202Z</time>
      </trkpt>
      <trkpt lat="50.47026" lon="3.46579">
        <ele>15.698289</ele>
        <time>2020-07-05T20:25:58.899Z</time>
      </trkpt>
      <trkpt lat="50.4703" lon="3.46565">
        <ele>15.708435</ele>
        <time>2020-07-05T20:26:00.673Z</time>
      </trkpt>
      <trkpt lat="50.47039" lon="3.46496">
        <ele>15.754457</ele>
        <time>2020-07-05T20:26:07.081Z</time>
      </trkpt>
      <trkpt lat="50.47035" lon="3.46455">
        <ele>15.781543</ele>
        <time>2020-07-05T20:26:11.068Z</time>
      </trkpt>
      <trkpt lat="50.47023" lon="3.46407">
        <ele>15.815059</ele>
        <time>2020-07-05T20:26:15.928Z</time>
      </trkpt>
      <trkpt lat="50.47019" lon="3.46397">
        <ele>15.82338</ele>
        <time>2020-07-05T20:26:17.509Z</time>
      </trkpt>
      <trkpt lat="50.47015" lon="3.46388">
        <ele>15.830428</ele>
        <time>2020-07-05T20:26:18.330Z</time>
      </trkpt>
      <trkpt lat="50.46967" lon="3.46315">
        <ele>16.033372</ele>
        <time>2020-07-05T20:26:29.461Z</time>
      </trkpt>
      <trkpt lat="50.46965" lon="3.46304">
        <ele>16.06704</ele>
        <time>2020-07-05T20:26:30.366Z</time>
      </trkpt>
      <trkpt lat="50.46964" lon="3.46297">
        <ele>16.087531</ele>
        <time>2020-07-05T20:26:31.295Z</time>
      </trkpt>
      <trkpt lat="50.46976" lon="3.4622">
        <ele>16.316671</ele>
        <time>2020-07-05T20:26:39.493Z</time>
      </trkpt>
      <trkpt lat="50.46974" lon="3.46142">
        <ele>16.53957</ele>
        <time>2020-07-05T20:26:47.895Z</time>
      </trkpt>
      <trkpt lat="50.46985" lon="3.46041">
        <ele>16.977159</ele>
        <time>2020-07-05T20:26:59.478Z</time>
      </trkpt>
      <trkpt lat="50.46983" lon="3.45999">
        <ele>17.20407</ele>
        <time>2020-07-05T20:27:04.345Z</time>
      </trkpt>
      <trkpt lat="50.46982" lon="3.45984">
        <ele>17.281788</ele>
        <time>2020-07-05T20:27:06.089Z</time>
      </trkpt>
      <trkpt lat="50.46982" lon="3.45983">
        <ele>17.28663</ele>
        <time>2020-07-05T20:27:06.385Z</time>
      </trkpt>
      <trkpt lat="50.46949" lon="3.45908">
        <ele>17.776988</ele>
        <time>2020-07-05T20:27:16.920Z</time>
      </trkpt>
      <trkpt lat="50.46912" lon="3.45839">
        <ele>18.221017</ele>
        <time>2020-07-05T20:27:27.772Z</time>
      </trkpt>
      <trkpt lat="50.46864" lon="3.45759">
        <ele>18.450592</ele>
        <time>2020-07-05T20:27:40.680Z</time>
      </trkpt>
      <trkpt lat="50.46786" lon="3.45654">
        <ele>18.774666</ele>
        <time>2020-07-05T20:27:56.296Z</time>
      </trkpt>
      <trkpt lat="50.46771" lon="3.45621">
        <ele>18.458002</ele>
        <time>2020-07-05T20:27:59.438Z</time>
      </trkpt>
      <trkpt lat="50.46766" lon="3.45612">
        <ele>18.361464</ele>
        <time>2020-07-05T20:28:00.591Z</time>
      </trkpt>
      <trkpt lat="50.46759" lon="3.45596">
        <ele>18.208716</ele>
        <time>2020-07-05T20:28:02.109Z</time>
      </trkpt>
      <trkpt lat="50.46756" lon="3.45588">
        <ele>18.133714</ele>
        <time>2020-07-05T20:28:02.809Z</time>
      </trkpt>
      <trkpt lat="50.46752" lon="3.45577">
        <ele>18.031501</ele>
        <time>2020-07-05T20:28:03.775Z</time>
      </trkpt>
      <trkpt lat="50.46746" lon="3.45554">
        <ele>17.845073</ele>
        <time>2020-07-05T20:28:05.702Z</time>
      </trkpt>
      <trkpt lat="50.46742" lon="3.45535">
        <ele>17.687903</ele>
        <time>2020-07-05T20:28:07.099Z</time>
      </trkpt>
      <trkpt lat="50.46732" lon="3.45484">
        <ele>17.261987</ele>
        <time>2020-07-05T20:28:11.115Z</time>
      </trkpt>
      <trkpt lat="50.46732" lon="3.4547">
        <ele>17.153386</ele>
        <time>2020-07-05T20:28:12.107Z</time>
      </trkpt>
      <trkpt lat="50.46734" lon="3.45463">
        <ele>17.09279</ele>
        <time>2020-07-05T20:28:12.759Z</time>
      </trkpt>
      <trkpt lat="50.46735" lon="3.45453">
        <ele>17.018368</ele>
        <time>2020-07-05T20:28:13.488Z</time>
      </trkpt>
      <trkpt lat="50.46732" lon="3.45444">
        <ele>16.931712</ele>
        <time>2020-07-05T20:28:14.291Z</time>
      </trkpt>
      <trkpt lat="50.4673" lon="3.45443">
        <ele>16.901387</ele>
        <time>2020-07-05T20:28:14.552Z</time>
      </trkpt>
      <trkpt lat="50.46719" lon="3.45435">
        <ele>16.753171</ele>
        <time>2020-07-05T20:28:15.813Z</time>
      </trkpt>
      <trkpt lat="50.46691" lon="3.45411">
        <ele>16.369821</ele>
        <time>2020-07-05T20:28:19.342Z</time>
      </trkpt>
      <trkpt lat="50.46673" lon="3.45396">
        <ele>16.134387</ele>
        <time>2020-07-05T20:28:21.553Z</time>
      </trkpt>
      <trkpt lat="50.46666" lon="3.45387">
        <ele>16.026529</ele>
        <time>2020-07-05T20:28:22.569Z</time>
      </trkpt>
      <trkpt lat="50.46665" lon="3.45387">
        <ele>16.017768</ele>
        <time>2020-07-05T20:28:22.632Z</time>
      </trkpt>
      <trkpt lat="50.46617" lon="3.45316">
        <ele>15.249014</ele>
        <time>2020-07-05T20:28:30.225Z</time>
      </trkpt>
      <trkpt lat="50.46611" lon="3.45296">
        <ele>15.081837</ele>
        <time>2020-07-05T20:28:31.923Z</time>
      </trkpt>
      <trkpt lat="50.46608" lon="3.45278">
        <ele>14.942697</ele>
        <time>2020-07-05T20:28:33.542Z</time>
      </trkpt>
      <trkpt lat="50.46607" lon="3.45264">
        <ele>14.83906</ele>
        <time>2020-07-05T20:28:34.783Z</time>
      </trkpt>
      <trkpt lat="50.46608" lon="3.4526">
        <ele>14.806297</ele>
        <time>2020-07-05T20:28:35.175Z</time>
      </trkpt>
      <trkpt lat="50.46608" lon="3.45256">
        <ele>14.772394</ele>
        <time>2020-07-05T20:28:35.562Z</time>
      </trkpt>
      <trkpt lat="50.46614" lon="3.45243">
        <ele>14.656368</ele>
        <time>2020-07-05T20:28:36.809Z</time>
      </trkpt>
      <trkpt lat="50.46624" lon="3.45222">
        <ele>14.455086</ele>
        <time>2020-07-05T20:28:39.304Z</time>
      </trkpt>
      <trkpt lat="50.46637" lon="3.45205">
        <ele>14.542942</ele>
        <time>2020-07-05T20:28:41.573Z</time>
      </trkpt>
      <trkpt lat="50.46649" lon="3.45188">
        <ele>14.626373</ele>
        <time>2020-07-05T20:28:44.067Z</time>
      </trkpt>
      <trkpt lat="50.46746" lon="3.45059">
        <ele>15.30472</ele>
        <time>2020-07-05T20:29:06.626Z</time>
      </trkpt>
      <trkpt lat="50.46759" lon="3.45033">
        <ele>15.41687</ele>
        <time>2020-07-05T20:29:10.588Z</time>
      </trkpt>
      <trkpt lat="50.46768" lon="3.45001">
        <ele>15.550697</ele>
        <time>2020-07-05T20:29:14.917Z</time>
      </trkpt>
      <trkpt lat="50.46777" lon="3.44958">
        <ele>15.722714</ele>
        <time>2020-07-05T20:29:20.166Z</time>
      </trkpt>
      <trkpt lat="50.46781" lon="3.44932">
        <ele>15.821977</ele>
        <time>2020-07-05T20:29:23.133Z</time>
      </trkpt>
      <trkpt lat="50.46809" lon="3.4475">
        <ele>16.517951</ele>
        <time>2020-07-05T20:29:43.048Z</time>
      </trkpt>
      <trkpt lat="50.46828" lon="3.44616">
        <ele>16.853988</ele>
        <time>2020-07-05T20:29:56.768Z</time>
      </trkpt>
      <trkpt lat="50.46829" lon="3.44533">
        <ele>17.05621</ele>
        <time>2020-07-05T20:30:05.532Z</time>
      </trkpt>
      <trkpt lat="50.46832" lon="3.44489">
        <ele>17.165136</ele>
        <time>2020-07-05T20:30:10.422Z</time>
      </trkpt>
      <trkpt lat="50.46842" lon="3.44451">
        <ele>17.296056</ele>
        <time>2020-07-05T20:30:15.019Z</time>
      </trkpt>
      <trkpt lat="50.46863" lon="3.4439">
        <ele>17.518647</ele>
        <time>2020-07-05T20:30:22.521Z</time>
      </trkpt>
      <trkpt lat="50.46871" lon="3.44361">
        <ele>17.622795</ele>
        <time>2020-07-05T20:30:26.104Z</time>
      </trkpt>
      <trkpt lat="50.4689" lon="3.443">
        <ele>17.84181</ele>
        <time>2020-07-05T20:30:33.401Z</time>
      </trkpt>
      <trkpt lat="50.46893" lon="3.4429">
        <ele>17.880004</ele>
        <time>2020-07-05T20:30:34.659Z</time>
      </trkpt>
      <trkpt lat="50.46895" lon="3.44286">
        <ele>17.896783</ele>
        <time>2020-07-05T20:30:35.227Z</time>
      </trkpt>
      <trkpt lat="50.46904" lon="3.44268">
        <ele>17.968963</ele>
        <time>2020-07-05T20:30:37.683Z</time>
      </trkpt>
      <trkpt lat="50.4697" lon="3.44166">
        <ele>18.065894</ele>
        <time>2020-07-05T20:30:52.604Z</time>
      </trkpt>
      <trkpt lat="50.47003" lon="3.44054">
        <ele>18.029969</ele>
        <time>2020-07-05T20:31:03.730Z</time>
      </trkpt>
      <trkpt lat="50.47021" lon="3.44011">
        <ele>18.014791</ele>
        <time>2020-07-05T20:31:08.212Z</time>
      </trkpt>
      <trkpt lat="50.47043" lon="3.43975">
        <ele>17.876048</ele>
        <time>2020-07-05T20:31:12.444Z</time>
      </trkpt>
      <trkpt lat="50.47089" lon="3.43934">
        <ele>17.643712</ele>
        <time>2020-07-05T20:31:19.378Z</time>
      </trkpt>
      <trkpt lat="50.47133" lon="3.43912">
        <ele>17.442232</ele>
        <time>2020-07-05T20:31:25.445Z</time>
      </trkpt>
      <trkpt lat="50.4716" lon="3.43897">
        <ele>17.314839</ele>
        <time>2020-07-05T20:31:29.272Z</time>
      </trkpt>
      <trkpt lat="50.47181" lon="3.43875">
        <ele>17.209478</ele>
        <time>2020-07-05T20:31:32.723Z</time>
      </trkpt>
      <trkpt lat="50.47213" lon="3.43826">
        <ele>17.098013</ele>
        <time>2020-07-05T20:31:38.843Z</time>
      </trkpt>
      <trkpt lat="50.47227" lon="3.43795">
        <ele>17.03886</ele>
        <time>2020-07-05T20:31:42.200Z</time>
      </trkpt>
      <trkpt lat="50.47243" lon="3.43737">
        <ele>16.938908</ele>
        <time>2020-07-05T20:31:47.774Z</time>
      </trkpt>
      <trkpt lat="50.47256" lon="3.43705">
        <ele>16.877915</ele>
        <time>2020-07-05T20:31:51.197Z</time>
      </trkpt>
      <trkpt lat="50.47305" lon="3.43634">
        <ele>16.837844</ele>
        <time>2020-07-05T20:32:00.738Z</time>
      </trkpt>
      <trkpt lat="50.47315" lon="3.43617">
        <ele>16.878135</ele>
        <time>2020-07-05T20:32:02.955Z</time>
      </trkpt>
      <trkpt lat="50.47333" lon="3.43582">
        <ele>16.956426</ele>
        <time>2020-07-05T20:32:07.516Z</time>
      </trkpt>
      <trkpt lat="50.47343" lon="3.43555">
        <ele>17.011237</ele>
        <time>2020-07-05T20:32:10.714Z</time>
      </trkpt>
      <trkpt lat="50.47355" lon="3.43514">
        <ele>17.089153</ele>
        <time>2020-07-05T20:32:15.461Z</time>
      </trkpt>
      <trkpt lat="50.47363" lon="3.4346">
        <ele>17.184304</ele>
        <time>2020-07-05T20:32:21.273Z</time>
      </trkpt>
      <trkpt lat="50.4737" lon="3.43392">
        <ele>17.351823</ele>
        <time>2020-07-05T20:32:28.666Z</time>
      </trkpt>
      <trkpt lat="50.47371" lon="3.43382">
        <ele>17.390587</ele>
        <time>2020-07-05T20:32:29.949Z</time>
      </trkpt>
      <trkpt lat="50.47378" lon="3.43333">
        <ele>17.581766</ele>
        <time>2020-07-05T20:32:35.430Z</time>
      </trkpt>
      <trkpt lat="50.47388" lon="3.43289">
        <ele>17.755933</ele>
        <time>2020-07-05T20:32:40.488Z</time>
      </trkpt>
      <trkpt lat="50.47394" lon="3.43256">
        <ele>17.884579</ele>
        <time>2020-07-05T20:32:44.538Z</time>
      </trkpt>
      <trkpt lat="50.47396" lon="3.43242">
        <ele>17.936347</ele>
        <time>2020-07-05T20:32:46.032Z</time>
      </trkpt>
      <trkpt lat="50.47398" lon="3.43194">
        <ele>18.120193</ele>
        <time>2020-07-05T20:32:51.689Z</time>
      </trkpt>
      <trkpt lat="50.47403" lon="3.43012">
        <ele>18.59395</ele>
        <time>2020-07-05T20:33:10.890Z</time>
      </trkpt>
      <trkpt lat="50.47406" lon="3.42913">
        <ele>18.801852</ele>
        <time>2020-07-05T20:33:20.969Z</time>
      </trkpt>
      <trkpt lat="50.47407" lon="3.4291">
        <ele>18.809307</ele>
        <time>2020-07-05T20:33:21.273Z</time>
      </trkpt>
      <trkpt lat="50.4741" lon="3.42874">
        <ele>18.885776</ele>
        <time>2020-07-05T20:33:25.034Z</time>
      </trkpt>
      <trkpt lat="50.47415" lon="3.42835">
        <ele>18.891504</ele>
        <time>2020-07-05T20:33:28.901Z</time>
      </trkpt>
      <trkpt lat="50.47422" lon="3.42797">
        <ele>18.844163</ele>
        <time>2020-07-05T20:33:32.695Z</time>
      </trkpt>
      <trkpt lat="50.47448" lon="3.42668">
        <ele>18.682006</ele>
        <time>2020-07-05T20:33:44.674Z</time>
      </trkpt>
      <trkpt lat="50.47452" lon="3.42652">
        <ele>18.660771</ele>
        <time>2020-07-05T20:33:46.396Z</time>
      </trkpt>
      <trkpt lat="50.47463" lon="3.42656">
        <ele>18.637756</ele>
        <time>2020-07-05T20:33:47.966Z</time>
      </trkpt>
      <trkpt lat="50.47478" lon="3.42659">
        <ele>18.610595</ele>
        <time>2020-07-05T20:33:49.916Z</time>
      </trkpt>
      <trkpt lat="50.47487" lon="3.42661">
        <ele>18.592611</ele>
        <time>2020-07-05T20:33:51.340Z</time>
      </trkpt>
      <trkpt lat="50.47501" lon="3.42662">
        <ele>18.53886</ele>
        <time>2020-07-05T20:33:53.059Z</time>
      </trkpt>
      <trkpt lat="50.47522" lon="3.4266">
        <ele>18.413303</ele>
        <time>2020-07-05T20:33:55.976Z</time>
      </trkpt>
      <trkpt lat="50.4753" lon="3.42658">
        <ele>18.368635</ele>
        <time>2020-07-05T20:33:56.952Z</time>
      </trkpt>
      <trkpt lat="50.4753" lon="3.42658">
        <ele>18.368635</ele>
        <time>2020-07-05T20:33:56.953Z</time>
      </trkpt>
      <trkpt lat="50.47557" lon="3.42652">
        <ele>18.208934</ele>
        <time>2020-07-05T20:34:00.528Z</time>
      </trkpt>
      <trkpt lat="50.47712" lon="3.42598">
        <ele>17.47441</ele>
        <time>2020-07-05T20:34:21.029Z</time>
      </trkpt>
      <trkpt lat="50.47779" lon="3.42605">
        <ele>17.390182</ele>
        <time>2020-07-05T20:34:30.603Z</time>
      </trkpt>
      <trkpt lat="50.4785" lon="3.42612">
        <ele>17.307572</ele>
        <time>2020-07-05T20:34:41.747Z</time>
      </trkpt>
      <trkpt lat="50.47922" lon="3.42603">
        <ele>17.58466</ele>
        <time>2020-07-05T20:34:53.275Z</time>
      </trkpt>
      <trkpt lat="50.47945" lon="3.42594">
        <ele>17.677872</ele>
        <time>2020-07-05T20:34:57.257Z</time>
      </trkpt>
      <trkpt lat="50.48025" lon="3.42556">
        <ele>18.000027</ele>
        <time>2020-07-05T20:35:11.114Z</time>
      </trkpt>
      <trkpt lat="50.48123" lon="3.42506">
        <ele>18.336133</ele>
        <time>2020-07-05T20:35:28.666Z</time>
      </trkpt>
      <trkpt lat="50.48147" lon="3.42501">
        <ele>18.413017</ele>
        <time>2020-07-05T20:35:32.314Z</time>
      </trkpt>
      <trkpt lat="50.48167" lon="3.42499">
        <ele>18.480038</ele>
        <time>2020-07-05T20:35:35.568Z</time>
      </trkpt>
      <trkpt lat="50.4823" lon="3.42507">
        <ele>18.564714</ele>
        <time>2020-07-05T20:35:44.898Z</time>
      </trkpt>
      <trkpt lat="50.48243" lon="3.4251">
        <ele>18.557294</ele>
        <time>2020-07-05T20:35:46.942Z</time>
      </trkpt>
      <trkpt lat="50.48265" lon="3.42517">
        <ele>18.544237</ele>
        <time>2020-07-05T20:35:50.084Z</time>
      </trkpt>
      <trkpt lat="50.48298" lon="3.42533">
        <ele>18.523704</ele>
        <time>2020-07-05T20:35:55.227Z</time>
      </trkpt>
      <trkpt lat="50.48331" lon="3.42556">
        <ele>18.502445</ele>
        <time>2020-07-05T20:36:00.433Z</time>
      </trkpt>
      <trkpt lat="50.48364" lon="3.42603">
        <ele>18.478745</ele>
        <time>2020-07-05T20:36:06.866Z</time>
      </trkpt>
      <trkpt lat="50.48379" lon="3.42655">
        <ele>18.490612</ele>
        <time>2020-07-05T20:36:12.015Z</time>
      </trkpt>
      <trkpt lat="50.48391" lon="3.42733">
        <ele>18.507307</ele>
        <time>2020-07-05T20:36:19.644Z</time>
      </trkpt>
      <trkpt lat="50.48397" lon="3.4277">
        <ele>18.515334</ele>
        <time>2020-07-05T20:36:23.543Z</time>
      </trkpt>
      <trkpt lat="50.48404" lon="3.42822">
        <ele>18.526302</ele>
        <time>2020-07-05T20:36:28.628Z</time>
      </trkpt>
      <trkpt lat="50.48423" lon="3.42957">
        <ele>18.571812</ele>
        <time>2020-07-05T20:36:41.878Z</time>
      </trkpt>
      <trkpt lat="50.48426" lon="3.42971">
        <ele>18.57769</ele>
        <time>2020-07-05T20:36:43.354Z</time>
      </trkpt>
      <trkpt lat="50.48432" lon="3.43001">
        <ele>18.590129</ele>
        <time>2020-07-05T20:36:46.291Z</time>
      </trkpt>
      <trkpt lat="50.48438" lon="3.43022">
        <ele>18.599503</ele>
        <time>2020-07-05T20:36:48.440Z</time>
      </trkpt>
      <trkpt lat="50.48468" lon="3.43113">
        <ele>18.640055</ele>
        <time>2020-07-05T20:36:58.147Z</time>
      </trkpt>
      <trkpt lat="50.48503" lon="3.4319">
        <ele>18.822955</ele>
        <time>2020-07-05T20:37:07.564Z</time>
      </trkpt>
      <trkpt lat="50.48515" lon="3.43211">
        <ele>18.891338</ele>
        <time>2020-07-05T20:37:10.188Z</time>
      </trkpt>
      <trkpt lat="50.48516" lon="3.43213">
        <ele>18.900213</ele>
        <time>2020-07-05T20:37:10.756Z</time>
      </trkpt>
      <trkpt lat="50.48566" lon="3.43274">
        <ele>19.141317</ele>
        <time>2020-07-05T20:37:21.356Z</time>
      </trkpt>
      <trkpt lat="50.48614" lon="3.43307">
        <ele>19.342366</ele>
        <time>2020-07-05T20:37:30.345Z</time>
      </trkpt>
      <trkpt lat="50.48697" lon="3.4335">
        <ele>19.783591</ele>
        <time>2020-07-05T20:37:45.216Z</time>
      </trkpt>
      <trkpt lat="50.48714" lon="3.43358">
        <ele>19.874462</ele>
        <time>2020-07-05T20:37:48.219Z</time>
      </trkpt>
      <trkpt lat="50.48812" lon="3.43386">
        <ele>20.373428</ele>
        <time>2020-07-05T20:38:04.794Z</time>
      </trkpt>
      <trkpt lat="50.48835" lon="3.43392">
        <ele>20.488655</ele>
        <time>2020-07-05T20:38:08.602Z</time>
      </trkpt>
      <trkpt lat="50.48831" lon="3.43417">
        <ele>20.570489</ele>
        <time>2020-07-05T20:38:11.310Z</time>
      </trkpt>
      <trkpt lat="50.48777" lon="3.43508">
        <ele>20.950159</ele>
        <time>2020-07-05T20:38:24.491Z</time>
      </trkpt>
      <trkpt lat="50.48772" lon="3.4353">
        <ele>21.020134</ele>
        <time>2020-07-05T20:38:27.013Z</time>
      </trkpt>
      <trkpt lat="50.48774" lon="3.4355">
        <ele>21.083195</ele>
        <time>2020-07-05T20:38:29.425Z</time>
      </trkpt>
      <trkpt lat="50.48786" lon="3.43584">
        <ele>21.192024</ele>
        <time>2020-07-05T20:38:33.651Z</time>
      </trkpt>
      <trkpt lat="50.48793" lon="3.43602">
        <ele>21.249041</ele>
        <time>2020-07-05T20:38:36.084Z</time>
      </trkpt>
      <trkpt lat="50.488" lon="3.4362">
        <ele>21.305608</ele>
        <time>2020-07-05T20:38:38.273Z</time>
      </trkpt>
      <trkpt lat="50.48851" lon="3.4374">
        <ele>21.693149</ele>
        <time>2020-07-05T20:38:53.697Z</time>
      </trkpt>
      <trkpt lat="50.48863" lon="3.43769">
        <ele>21.786059</ele>
        <time>2020-07-05T20:38:57.144Z</time>
      </trkpt>
      <trkpt lat="50.48882" lon="3.43799">
        <ele>21.85462</ele>
        <time>2020-07-05T20:39:01.469Z</time>
      </trkpt>
      <trkpt lat="50.48907" lon="3.43837">
        <ele>21.689373</ele>
        <time>2020-07-05T20:39:06.811Z</time>
      </trkpt>
      <trkpt lat="50.48918" lon="3.43854">
        <ele>21.612925</ele>
        <time>2020-07-05T20:39:09.138Z</time>
      </trkpt>
      <trkpt lat="50.48944" lon="3.43891">
        <ele>21.450088</ele>
        <time>2020-07-05T20:39:13.756Z</time>
      </trkpt>
      <trkpt lat="50.48953" lon="3.43902">
        <ele>21.39342</ele>
        <time>2020-07-05T20:39:15.326Z</time>
      </trkpt>
      <trkpt lat="50.48981" lon="3.43937">
        <ele>21.222857</ele>
        <time>2020-07-05T20:39:19.823Z</time>
      </trkpt>
      <trkpt lat="50.48998" lon="3.43966">
        <ele>21.105225</ele>
        <time>2020-07-05T20:39:22.887Z</time>
      </trkpt>
      <trkpt lat="50.4902" lon="3.44022">
        <ele>20.778461</ele>
        <time>2020-07-05T20:39:27.997Z</time>
      </trkpt>
      <trkpt lat="50.49043" lon="3.44079">
        <ele>20.357283</ele>
        <time>2020-07-05T20:39:33.173Z</time>
      </trkpt>
      <trkpt lat="50.49109" lon="3.44183">
        <ele>19.437981</ele>
        <time>2020-07-05T20:39:44.478Z</time>
      </trkpt>
      <trkpt lat="50.49138" lon="3.44236">
        <ele>19.150417</ele>
        <time>2020-07-05T20:39:50.140Z</time>
      </trkpt>
      <trkpt lat="50.49167" lon="3.44324">
        <ele>18.903997</ele>
        <time>2020-07-05T20:39:58.593Z</time>
      </trkpt>
      <trkpt lat="50.49219" lon="3.44434">
        <ele>18.561995</ele>
        <time>2020-07-05T20:40:11.026Z</time>
      </trkpt>
      <trkpt lat="50.49227" lon="3.44464">
        <ele>18.514865</ele>
        <time>2020-07-05T20:40:14.108Z</time>
      </trkpt>
      <trkpt lat="50.49237" lon="3.44565">
        <ele>18.39544</ele>
        <time>2020-07-05T20:40:23.531Z</time>
      </trkpt>
      <trkpt lat="50.49254" lon="3.44618">
        <ele>18.325564</ele>
        <time>2020-07-05T20:40:28.964Z</time>
      </trkpt>
      <trkpt lat="50.49286" lon="3.44688">
        <ele>18.224947</ele>
        <time>2020-07-05T20:40:36.546Z</time>
      </trkpt>
      <trkpt lat="50.49301" lon="3.44709">
        <ele>18.193014</ele>
        <time>2020-07-05T20:40:39.328Z</time>
      </trkpt>
      <trkpt lat="50.49336" lon="3.44729">
        <ele>18.137013</ele>
        <time>2020-07-05T20:40:44.359Z</time>
      </trkpt>
      <trkpt lat="50.4934" lon="3.44731">
        <ele>18.131081</ele>
        <time>2020-07-05T20:40:44.855Z</time>
      </trkpt>
      <trkpt lat="50.49353" lon="3.4475">
        <ele>18.104839</ele>
        <time>2020-07-05T20:40:47.217Z</time>
      </trkpt>
      <trkpt lat="50.49359" lon="3.44758">
        <ele>18.092381</ele>
        <time>2020-07-05T20:40:48.402Z</time>
      </trkpt>
      <trkpt lat="50.49366" lon="3.44748">
        <ele>18.079299</ele>
        <time>2020-07-05T20:40:49.607Z</time>
      </trkpt>
      <trkpt lat="50.49368" lon="3.44744">
        <ele>18.07439</ele>
        <time>2020-07-05T20:40:50.069Z</time>
      </trkpt>
      <trkpt lat="50.4942" lon="3.44663">
        <ele>17.964806</ele>
        <time>2020-07-05T20:41:01.108Z</time>
      </trkpt>
      <trkpt lat="50.49426" lon="3.44654">
        <ele>17.952441</ele>
        <time>2020-07-05T20:41:02.217Z</time>
      </trkpt>
      <trkpt lat="50.49477" lon="3.44573">
        <ele>18.048607</ele>
        <time>2020-07-05T20:41:13.954Z</time>
      </trkpt>
      <trkpt lat="50.49491" lon="3.44561">
        <ele>18.071763</ele>
        <time>2020-07-05T20:41:16.858Z</time>
      </trkpt>
      <trkpt lat="50.49544" lon="3.44521">
        <ele>18.156989</ele>
        <time>2020-07-05T20:41:25.943Z</time>
      </trkpt>
      <trkpt lat="50.49562" lon="3.44503">
        <ele>18.188186</ele>
        <time>2020-07-05T20:41:29.255Z</time>
      </trkpt>
      <trkpt lat="50.4959" lon="3.44475">
        <ele>18.080832</ele>
        <time>2020-07-05T20:41:33.923Z</time>
      </trkpt>
      <trkpt lat="50.49648" lon="3.44404">
        <ele>17.564119</ele>
        <time>2020-07-05T20:41:43.654Z</time>
      </trkpt>
      <trkpt lat="50.49663" lon="3.44393">
        <ele>17.449913</ele>
        <time>2020-07-05T20:41:45.686Z</time>
      </trkpt>
      <trkpt lat="50.49669" lon="3.44396">
        <ele>17.408048</ele>
        <time>2020-07-05T20:41:46.451Z</time>
      </trkpt>
      <trkpt lat="50.49672" lon="3.44401">
        <ele>17.376513</ele>
        <time>2020-07-05T20:41:47.020Z</time>
      </trkpt>
      <trkpt lat="50.49674" lon="3.44405">
        <ele>17.354137</ele>
        <time>2020-07-05T20:41:47.350Z</time>
      </trkpt>
      <trkpt lat="50.49687" lon="3.44433">
        <ele>17.200101</ele>
        <time>2020-07-05T20:41:50.109Z</time>
      </trkpt>
      <trkpt lat="50.49735" lon="3.44569">
        <ele>16.454329</ele>
        <time>2020-07-05T20:42:01.899Z</time>
      </trkpt>
      <trkpt lat="50.49754" lon="3.44626">
        <ele>16.133376</ele>
        <time>2020-07-05T20:42:06.959Z</time>
      </trkpt>
      <trkpt lat="50.49776" lon="3.4469">
        <ele>15.771497</ele>
        <time>2020-07-05T20:42:13.122Z</time>
      </trkpt>
      <trkpt lat="50.49798" lon="3.44759">
        <ele>15.600304</ele>
        <time>2020-07-05T20:42:19.896Z</time>
      </trkpt>
      <trkpt lat="50.49799" lon="3.44762">
        <ele>15.605992</ele>
        <time>2020-07-05T20:42:20.285Z</time>
      </trkpt>
      <trkpt lat="50.49844" lon="3.44889">
        <ele>15.862692</ele>
        <time>2020-07-05T20:42:34.735Z</time>
      </trkpt>
      <trkpt lat="50.49851" lon="3.44909">
        <ele>15.904639</ele>
        <time>2020-07-05T20:42:37.479Z</time>
      </trkpt>
      <trkpt lat="50.49853" lon="3.44914">
        <ele>15.914833</ele>
        <time>2020-07-05T20:42:38.106Z</time>
      </trkpt>
      <trkpt lat="50.49864" lon="3.44939">
        <ele>15.968649</ele>
        <time>2020-07-05T20:42:41.426Z</time>
      </trkpt>
      <trkpt lat="50.49867" lon="3.44946">
        <ele>15.983454</ele>
        <time>2020-07-05T20:42:42.358Z</time>
      </trkpt>
      <trkpt lat="50.49874" lon="3.44964">
        <ele>16.021134</ele>
        <time>2020-07-05T20:42:44.838Z</time>
      </trkpt>
      <trkpt lat="50.49935" lon="3.45106">
        <ele>16.044835</ele>
        <time>2020-07-05T20:43:03.903Z</time>
      </trkpt>
      <trkpt lat="50.49924" lon="3.45113">
        <ele>16.044835</ele>
        <time>2020-07-05T20:43:05.988Z</time>
      </trkpt>
      <trkpt lat="50.49912" lon="3.45121">
        <ele>16.044835</ele>
        <time>2020-07-05T20:43:08.057Z</time>
      </trkpt>
      <trkpt lat="50.49899" lon="3.45131">
        <ele>16.044835</ele>
        <time>2020-07-05T20:43:10.704Z</time>
      </trkpt>
      <trkpt lat="50.49899" lon="3.45131">
        <ele>16.044835</ele>
        <time>2020-07-05T20:43:10.748Z</time>
      </trkpt>
    </trkseg>
  </trk>
</gpx>